<?xml version="1.0" encoding="UTF-8" standalone="no" ?>
<gpx xmlns="http://www.topografix.com/GPX/1/1" xmlns:xsi="http://www.w3.org/2001/XMLSchema-instance" xsi:schemaLocation="http://www.topografix.com/GPX/1/1 http://www.topografix.com/GPX/1/1/gpx.xsd" version="1.1" creator="VisuGPX - https://www.visugpx.com">
  <metadata>
    <name>Risoul: circuits 14, 13</name>
    <desc><![CDATA[Risoul: circuits 14, 13
Barbein]]></desc>
  </metadata>
  <trk>
    <name><![CDATA[110816-Risoul-13-14-Barbein]]></name>
    <trkseg>
      <trkpt lat="44.62437" lon="6.63102">
        <ele>1835.915283</ele>
        <time>2011-08-16T09:59:13Z</time>
      </trkpt>
      <trkpt lat="44.62447" lon="6.63083">
        <ele>1836.341553</ele>
        <time>2011-08-16T09:59:42Z</time>
      </trkpt>
      <trkpt lat="44.62455" lon="6.63077">
        <ele>1835.562744</ele>
        <time>2011-08-16T09:59:44Z</time>
      </trkpt>
      <trkpt lat="44.62475" lon="6.63058">
        <ele>1833.758667</ele>
        <time>2011-08-16T09:59:48Z</time>
      </trkpt>
      <trkpt lat="44.62488" lon="6.63048">
        <ele>1831.77832</ele>
        <time>2011-08-16T09:59:50Z</time>
      </trkpt>
      <trkpt lat="44.62503" lon="6.63042">
        <ele>1828.638794</ele>
        <time>2011-08-16T09:59:52Z</time>
      </trkpt>
      <trkpt lat="44.62518" lon="6.63038">
        <ele>1824.63623</ele>
        <time>2011-08-16T09:59:54Z</time>
      </trkpt>
      <trkpt lat="44.62532" lon="6.63045">
        <ele>1819.950317</ele>
        <time>2011-08-16T09:59:58Z</time>
      </trkpt>
      <trkpt lat="44.6252" lon="6.63065">
        <ele>1820.627197</ele>
        <time>2011-08-16T10:00:04Z</time>
      </trkpt>
      <trkpt lat="44.62508" lon="6.63082">
        <ele>1820.759521</ele>
        <time>2011-08-16T10:00:08Z</time>
      </trkpt>
      <trkpt lat="44.62495" lon="6.63105">
        <ele>1820.210327</ele>
        <time>2011-08-16T10:00:12Z</time>
      </trkpt>
      <trkpt lat="44.6249" lon="6.63125">
        <ele>1817.711548</ele>
        <time>2011-08-16T10:00:16Z</time>
      </trkpt>
      <trkpt lat="44.62488" lon="6.63147">
        <ele>1813.65918</ele>
        <time>2011-08-16T10:00:22Z</time>
      </trkpt>
      <trkpt lat="44.62488" lon="6.63172">
        <ele>1808.4552</ele>
        <time>2011-08-16T10:00:35Z</time>
      </trkpt>
      <trkpt lat="44.62492" lon="6.63195">
        <ele>1802.798828</ele>
        <time>2011-08-16T10:00:39Z</time>
      </trkpt>
      <trkpt lat="44.62495" lon="6.63222">
        <ele>1796.447266</ele>
        <time>2011-08-16T10:00:43Z</time>
      </trkpt>
      <trkpt lat="44.6249" lon="6.63243">
        <ele>1794.051147</ele>
        <time>2011-08-16T10:00:47Z</time>
      </trkpt>
      <trkpt lat="44.62482" lon="6.63262">
        <ele>1796.343628</ele>
        <time>2011-08-16T10:00:51Z</time>
      </trkpt>
      <trkpt lat="44.62495" lon="6.6327">
        <ele>1791.466675</ele>
        <time>2011-08-16T10:01:03Z</time>
      </trkpt>
      <trkpt lat="44.62508" lon="6.6326">
        <ele>1787.358887</ele>
        <time>2011-08-16T10:01:13Z</time>
      </trkpt>
      <trkpt lat="44.6252" lon="6.63243">
        <ele>1784.050903</ele>
        <time>2011-08-16T10:01:19Z</time>
      </trkpt>
      <trkpt lat="44.62532" lon="6.63228">
        <ele>1783.569092</ele>
        <time>2011-08-16T10:01:23Z</time>
      </trkpt>
      <trkpt lat="44.62547" lon="6.63207">
        <ele>1783.628296</ele>
        <time>2011-08-16T10:01:27Z</time>
      </trkpt>
      <trkpt lat="44.62553" lon="6.63188">
        <ele>1785.66394</ele>
        <time>2011-08-16T10:01:33Z</time>
      </trkpt>
      <trkpt lat="44.62567" lon="6.63178">
        <ele>1784.385376</ele>
        <time>2011-08-16T10:01:39Z</time>
      </trkpt>
      <trkpt lat="44.62583" lon="6.63183">
        <ele>1778.164429</ele>
        <time>2011-08-16T10:01:44Z</time>
      </trkpt>
      <trkpt lat="44.62605" lon="6.63185">
        <ele>1770.445557</ele>
        <time>2011-08-16T10:01:50Z</time>
      </trkpt>
      <trkpt lat="44.6262" lon="6.63185">
        <ele>1765.028198</ele>
        <time>2011-08-16T10:01:54Z</time>
      </trkpt>
      <trkpt lat="44.62638" lon="6.63185">
        <ele>1758.18103</ele>
        <time>2011-08-16T10:02:00Z</time>
      </trkpt>
      <trkpt lat="44.62657" lon="6.6318">
        <ele>1751.176636</ele>
        <time>2011-08-16T10:02:06Z</time>
      </trkpt>
      <trkpt lat="44.6267" lon="6.63177">
        <ele>1745.718018</ele>
        <time>2011-08-16T10:02:10Z</time>
      </trkpt>
      <trkpt lat="44.62683" lon="6.6317">
        <ele>1740.497803</ele>
        <time>2011-08-16T10:02:16Z</time>
      </trkpt>
      <trkpt lat="44.62697" lon="6.63155">
        <ele>1735.808716</ele>
        <time>2011-08-16T10:07:29Z</time>
      </trkpt>
      <trkpt lat="44.62695" lon="6.63132">
        <ele>1740.136963</ele>
        <time>2011-08-16T10:07:55Z</time>
      </trkpt>
      <trkpt lat="44.6269" lon="6.63113">
        <ele>1743.266235</ele>
        <time>2011-08-16T10:08:08Z</time>
      </trkpt>
      <trkpt lat="44.62678" lon="6.631">
        <ele>1750.028931</ele>
        <time>2011-08-16T10:08:20Z</time>
      </trkpt>
      <trkpt lat="44.62662" lon="6.63072">
        <ele>1759.86084</ele>
        <time>2011-08-16T10:08:38Z</time>
      </trkpt>
      <trkpt lat="44.62653" lon="6.63057">
        <ele>1764.696533</ele>
        <time>2011-08-16T10:08:48Z</time>
      </trkpt>
      <trkpt lat="44.62655" lon="6.63035">
        <ele>1763.700439</ele>
        <time>2011-08-16T10:09:06Z</time>
      </trkpt>
      <trkpt lat="44.62655" lon="6.63015">
        <ele>1763.591675</ele>
        <time>2011-08-16T10:09:23Z</time>
      </trkpt>
      <trkpt lat="44.62652" lon="6.62993">
        <ele>1765.879517</ele>
        <time>2011-08-16T10:09:35Z</time>
      </trkpt>
      <trkpt lat="44.62652" lon="6.62973">
        <ele>1767.759033</ele>
        <time>2011-08-16T10:09:47Z</time>
      </trkpt>
      <trkpt lat="44.6264" lon="6.62987">
        <ele>1771.756226</ele>
        <time>2011-08-16T10:10:22Z</time>
      </trkpt>
      <trkpt lat="44.6264" lon="6.6301">
        <ele>1770.91748</ele>
        <time>2011-08-16T10:10:40Z</time>
      </trkpt>
      <trkpt lat="44.62635" lon="6.63032">
        <ele>1774.223389</ele>
        <time>2011-08-16T10:10:58Z</time>
      </trkpt>
      <trkpt lat="44.62632" lon="6.63055">
        <ele>1776.792603</ele>
        <time>2011-08-16T10:11:16Z</time>
      </trkpt>
      <trkpt lat="44.6263" lon="6.63077">
        <ele>1777.726807</ele>
        <time>2011-08-16T10:11:34Z</time>
      </trkpt>
      <trkpt lat="44.6263" lon="6.631">
        <ele>1777.300049</ele>
        <time>2011-08-16T10:11:55Z</time>
      </trkpt>
      <trkpt lat="44.62622" lon="6.63115">
        <ele>1781.072021</ele>
        <time>2011-08-16T10:12:15Z</time>
      </trkpt>
      <trkpt lat="44.62603" lon="6.63122">
        <ele>1789.501953</ele>
        <time>2011-08-16T10:12:33Z</time>
      </trkpt>
      <trkpt lat="44.62578" lon="6.63122">
        <ele>1797.765869</ele>
        <time>2011-08-16T10:12:55Z</time>
      </trkpt>
      <trkpt lat="44.62563" lon="6.63128">
        <ele>1799.410156</ele>
        <time>2011-08-16T10:13:12Z</time>
      </trkpt>
      <trkpt lat="44.62575" lon="6.63118">
        <ele>1798.885254</ele>
        <time>2011-08-16T10:13:58Z</time>
      </trkpt>
      <trkpt lat="44.62583" lon="6.631">
        <ele>1798.305786</ele>
        <time>2011-08-16T10:14:15Z</time>
      </trkpt>
      <trkpt lat="44.62593" lon="6.6308">
        <ele>1796.675171</ele>
        <time>2011-08-16T10:14:33Z</time>
      </trkpt>
      <trkpt lat="44.62578" lon="6.63082">
        <ele>1801.46582</ele>
        <time>2011-08-16T10:14:57Z</time>
      </trkpt>
      <trkpt lat="44.62565" lon="6.6309">
        <ele>1804.731812</ele>
        <time>2011-08-16T10:15:19Z</time>
      </trkpt>
      <trkpt lat="44.62548" lon="6.63092">
        <ele>1809.396729</ele>
        <time>2011-08-16T10:15:39Z</time>
      </trkpt>
      <trkpt lat="44.62535" lon="6.63095">
        <ele>1812.110474</ele>
        <time>2011-08-16T10:15:56Z</time>
      </trkpt>
      <trkpt lat="44.62522" lon="6.63103">
        <ele>1813.972778</ele>
        <time>2011-08-16T10:16:14Z</time>
      </trkpt>
      <trkpt lat="44.62508" lon="6.63098">
        <ele>1817.973022</ele>
        <time>2011-08-16T10:16:26Z</time>
      </trkpt>
      <trkpt lat="44.62533" lon="6.6305">
        <ele>1819.113647</ele>
        <time>2011-08-16T10:18:20Z</time>
      </trkpt>
      <trkpt lat="44.62518" lon="6.63043">
        <ele>1824.048218</ele>
        <time>2011-08-16T10:18:37Z</time>
      </trkpt>
      <trkpt lat="44.62498" lon="6.63047">
        <ele>1829.257568</ele>
        <time>2011-08-16T10:18:55Z</time>
      </trkpt>
      <trkpt lat="44.62483" lon="6.63057">
        <ele>1831.775635</ele>
        <time>2011-08-16T10:19:13Z</time>
      </trkpt>
      <trkpt lat="44.62467" lon="6.63068">
        <ele>1834.199829</ele>
        <time>2011-08-16T10:19:31Z</time>
      </trkpt>
      <trkpt lat="44.62453" lon="6.63082">
        <ele>1835.065552</ele>
        <time>2011-08-16T10:19:50Z</time>
      </trkpt>
      <trkpt lat="44.6244" lon="6.631">
        <ele>1835.300903</ele>
        <time>2011-08-16T10:20:08Z</time>
      </trkpt>
      <trkpt lat="44.6245" lon="6.63082">
        <ele>1835.84021</ele>
        <time>2011-08-16T10:20:32Z</time>
      </trkpt>
      <trkpt lat="44.6246" lon="6.63063">
        <ele>1836.878906</ele>
        <time>2011-08-16T10:20:36Z</time>
      </trkpt>
      <trkpt lat="44.62447" lon="6.63058">
        <ele>1840.44458</ele>
        <time>2011-08-16T10:20:42Z</time>
      </trkpt>
      <trkpt lat="44.62447" lon="6.6308">
        <ele>1836.892578</ele>
        <time>2011-08-16T10:24:37Z</time>
      </trkpt>
      <trkpt lat="44.6244" lon="6.63097">
        <ele>1835.826904</ele>
        <time>2011-08-16T10:24:49Z</time>
      </trkpt>
      <trkpt lat="44.62453" lon="6.63083">
        <ele>1834.77417</ele>
        <time>2011-08-16T10:25:13Z</time>
      </trkpt>
      <trkpt lat="44.62465" lon="6.63072">
        <ele>1834.035889</ele>
        <time>2011-08-16T10:25:19Z</time>
      </trkpt>
      <trkpt lat="44.6248" lon="6.6306">
        <ele>1832.093506</ele>
        <time>2011-08-16T10:25:27Z</time>
      </trkpt>
      <trkpt lat="44.62497" lon="6.63048">
        <ele>1829.463867</ele>
        <time>2011-08-16T10:25:36Z</time>
      </trkpt>
      <trkpt lat="44.6251" lon="6.63042">
        <ele>1826.727051</ele>
        <time>2011-08-16T10:25:42Z</time>
      </trkpt>
      <trkpt lat="44.62527" lon="6.63043">
        <ele>1821.574951</ele>
        <time>2011-08-16T10:25:52Z</time>
      </trkpt>
      <trkpt lat="44.62523" lon="6.63063">
        <ele>1820.060669</ele>
        <time>2011-08-16T10:26:10Z</time>
      </trkpt>
      <trkpt lat="44.6251" lon="6.63077">
        <ele>1821.186157</ele>
        <time>2011-08-16T10:26:27Z</time>
      </trkpt>
      <trkpt lat="44.62498" lon="6.63093">
        <ele>1821.348755</ele>
        <time>2011-08-16T10:26:37Z</time>
      </trkpt>
      <trkpt lat="44.62493" lon="6.63113">
        <ele>1819.200195</ele>
        <time>2011-08-16T10:26:47Z</time>
      </trkpt>
      <trkpt lat="44.62492" lon="6.63135">
        <ele>1815.192749</ele>
        <time>2011-08-16T10:26:55Z</time>
      </trkpt>
      <trkpt lat="44.62488" lon="6.63158">
        <ele>1811.234863</ele>
        <time>2011-08-16T10:27:19Z</time>
      </trkpt>
      <trkpt lat="44.62492" lon="6.63182">
        <ele>1805.415527</ele>
        <time>2011-08-16T10:27:29Z</time>
      </trkpt>
      <trkpt lat="44.62495" lon="6.63212">
        <ele>1798.44873</ele>
        <time>2011-08-16T10:27:42Z</time>
      </trkpt>
      <trkpt lat="44.62493" lon="6.63233">
        <ele>1794.663208</ele>
        <time>2011-08-16T10:27:52Z</time>
      </trkpt>
      <trkpt lat="44.62487" lon="6.63253">
        <ele>1794.890503</ele>
        <time>2011-08-16T10:28:00Z</time>
      </trkpt>
      <trkpt lat="44.6248" lon="6.6327">
        <ele>1796.623657</ele>
        <time>2011-08-16T10:28:10Z</time>
      </trkpt>
      <trkpt lat="44.62498" lon="6.63267">
        <ele>1790.429077</ele>
        <time>2011-08-16T10:28:28Z</time>
      </trkpt>
      <trkpt lat="44.6251" lon="6.63253">
        <ele>1786.978516</ele>
        <time>2011-08-16T10:28:55Z</time>
      </trkpt>
      <trkpt lat="44.62527" lon="6.63232">
        <ele>1784.419312</ele>
        <time>2011-08-16T10:29:13Z</time>
      </trkpt>
      <trkpt lat="44.6254" lon="6.63218">
        <ele>1783.145752</ele>
        <time>2011-08-16T10:29:21Z</time>
      </trkpt>
      <trkpt lat="44.62548" lon="6.63203">
        <ele>1783.837158</ele>
        <time>2011-08-16T10:29:27Z</time>
      </trkpt>
      <trkpt lat="44.62562" lon="6.63192">
        <ele>1782.389648</ele>
        <time>2011-08-16T10:29:45Z</time>
      </trkpt>
      <trkpt lat="44.62575" lon="6.63185">
        <ele>1780.056763</ele>
        <time>2011-08-16T10:30:10Z</time>
      </trkpt>
      <trkpt lat="44.6259" lon="6.63185">
        <ele>1775.74292</ele>
        <time>2011-08-16T10:30:30Z</time>
      </trkpt>
      <trkpt lat="44.62608" lon="6.63183">
        <ele>1769.732422</ele>
        <time>2011-08-16T10:30:56Z</time>
      </trkpt>
      <trkpt lat="44.62627" lon="6.63185">
        <ele>1762.60498</ele>
        <time>2011-08-16T10:31:14Z</time>
      </trkpt>
      <trkpt lat="44.62642" lon="6.63185">
        <ele>1756.72229</ele>
        <time>2011-08-16T10:31:31Z</time>
      </trkpt>
      <trkpt lat="44.6266" lon="6.6318">
        <ele>1749.663086</ele>
        <time>2011-08-16T10:31:49Z</time>
      </trkpt>
      <trkpt lat="44.62677" lon="6.63175">
        <ele>1742.897705</ele>
        <time>2011-08-16T10:32:07Z</time>
      </trkpt>
      <trkpt lat="44.62668" lon="6.63193">
        <ele>1743.290649</ele>
        <time>2011-08-16T10:33:18Z</time>
      </trkpt>
      <trkpt lat="44.62665" lon="6.63215">
        <ele>1738.833008</ele>
        <time>2011-08-16T10:33:38Z</time>
      </trkpt>
      <trkpt lat="44.6268" lon="6.6321">
        <ele>1734.078613</ele>
        <time>2011-08-16T10:33:46Z</time>
      </trkpt>
      <trkpt lat="44.62693" lon="6.63198">
        <ele>1730.848511</ele>
        <time>2011-08-16T10:33:52Z</time>
      </trkpt>
      <trkpt lat="44.62703" lon="6.63185">
        <ele>1728.257935</ele>
        <time>2011-08-16T10:33:56Z</time>
      </trkpt>
      <trkpt lat="44.62713" lon="6.63172">
        <ele>1724.874634</ele>
        <time>2011-08-16T10:34:00Z</time>
      </trkpt>
      <trkpt lat="44.62727" lon="6.6316">
        <ele>1719.158569</ele>
        <time>2011-08-16T10:34:05Z</time>
      </trkpt>
      <trkpt lat="44.62725" lon="6.6314">
        <ele>1722.137573</ele>
        <time>2011-08-16T10:34:09Z</time>
      </trkpt>
      <trkpt lat="44.62723" lon="6.63118">
        <ele>1724.297363</ele>
        <time>2011-08-16T10:34:13Z</time>
      </trkpt>
      <trkpt lat="44.62727" lon="6.63097">
        <ele>1723.190918</ele>
        <time>2011-08-16T10:34:17Z</time>
      </trkpt>
      <trkpt lat="44.6273" lon="6.63072">
        <ele>1722.282471</ele>
        <time>2011-08-16T10:34:23Z</time>
      </trkpt>
      <trkpt lat="44.62737" lon="6.6305">
        <ele>1722.205322</ele>
        <time>2011-08-16T10:34:29Z</time>
      </trkpt>
      <trkpt lat="44.62747" lon="6.63033">
        <ele>1720.356445</ele>
        <time>2011-08-16T10:34:35Z</time>
      </trkpt>
      <trkpt lat="44.6276" lon="6.63038">
        <ele>1714.353394</ele>
        <time>2011-08-16T10:34:45Z</time>
      </trkpt>
      <trkpt lat="44.62775" lon="6.63045">
        <ele>1707.40625</ele>
        <time>2011-08-16T10:35:26Z</time>
      </trkpt>
      <trkpt lat="44.62783" lon="6.63062">
        <ele>1701.797729</ele>
        <time>2011-08-16T10:35:36Z</time>
      </trkpt>
      <trkpt lat="44.62777" lon="6.6308">
        <ele>1702.008301</ele>
        <time>2011-08-16T10:35:42Z</time>
      </trkpt>
      <trkpt lat="44.62792" lon="6.63078">
        <ele>1696.262207</ele>
        <time>2011-08-16T10:35:51Z</time>
      </trkpt>
      <trkpt lat="44.62807" lon="6.63092">
        <ele>1689.092773</ele>
        <time>2011-08-16T10:36:10Z</time>
      </trkpt>
      <trkpt lat="44.62813" lon="6.6311">
        <ele>1684.728882</ele>
        <time>2011-08-16T10:36:18Z</time>
      </trkpt>
      <trkpt lat="44.62827" lon="6.63098">
        <ele>1681.060059</ele>
        <time>2011-08-16T10:36:24Z</time>
      </trkpt>
      <trkpt lat="44.62837" lon="6.63085">
        <ele>1679.020508</ele>
        <time>2011-08-16T10:36:30Z</time>
      </trkpt>
      <trkpt lat="44.62847" lon="6.63102">
        <ele>1674.21228</ele>
        <time>2011-08-16T10:36:36Z</time>
      </trkpt>
      <trkpt lat="44.62853" lon="6.63085">
        <ele>1673.570435</ele>
        <time>2011-08-16T10:36:48Z</time>
      </trkpt>
      <trkpt lat="44.62865" lon="6.63075">
        <ele>1670.882202</ele>
        <time>2011-08-16T10:37:28Z</time>
      </trkpt>
      <trkpt lat="44.62878" lon="6.63063">
        <ele>1668.49585</ele>
        <time>2011-08-16T10:37:36Z</time>
      </trkpt>
      <trkpt lat="44.62887" lon="6.63045">
        <ele>1669.171143</ele>
        <time>2011-08-16T10:37:40Z</time>
      </trkpt>
      <trkpt lat="44.62898" lon="6.6303">
        <ele>1669.17688</ele>
        <time>2011-08-16T10:37:46Z</time>
      </trkpt>
      <trkpt lat="44.62912" lon="6.63035">
        <ele>1665.395142</ele>
        <time>2011-08-16T10:37:50Z</time>
      </trkpt>
      <trkpt lat="44.62927" lon="6.6304">
        <ele>1662.332153</ele>
        <time>2011-08-16T10:37:54Z</time>
      </trkpt>
      <trkpt lat="44.62942" lon="6.6304">
        <ele>1660.437256</ele>
        <time>2011-08-16T10:37:59Z</time>
      </trkpt>
      <trkpt lat="44.62958" lon="6.63037">
        <ele>1659.473267</ele>
        <time>2011-08-16T10:38:04Z</time>
      </trkpt>
      <trkpt lat="44.62977" lon="6.63037">
        <ele>1657.797852</ele>
        <time>2011-08-16T10:38:13Z</time>
      </trkpt>
      <trkpt lat="44.62993" lon="6.6304">
        <ele>1655.22876</ele>
        <time>2011-08-16T10:38:51Z</time>
      </trkpt>
      <trkpt lat="44.63012" lon="6.63042">
        <ele>1652.891968</ele>
        <time>2011-08-16T10:38:57Z</time>
      </trkpt>
      <trkpt lat="44.63028" lon="6.63043">
        <ele>1650.614136</ele>
        <time>2011-08-16T10:39:01Z</time>
      </trkpt>
      <trkpt lat="44.63095" lon="6.63053">
        <ele>1641.087646</ele>
        <time>2011-08-16T10:39:13Z</time>
      </trkpt>
      <trkpt lat="44.63115" lon="6.63055">
        <ele>1638.817017</ele>
        <time>2011-08-16T10:39:17Z</time>
      </trkpt>
      <trkpt lat="44.63132" lon="6.63055">
        <ele>1637.371338</ele>
        <time>2011-08-16T10:39:21Z</time>
      </trkpt>
      <trkpt lat="44.6315" lon="6.63058">
        <ele>1635.011841</ele>
        <time>2011-08-16T10:39:25Z</time>
      </trkpt>
      <trkpt lat="44.63165" lon="6.6306">
        <ele>1633.509521</ele>
        <time>2011-08-16T10:39:27Z</time>
      </trkpt>
      <trkpt lat="44.63182" lon="6.63055">
        <ele>1634.018433</ele>
        <time>2011-08-16T10:39:31Z</time>
      </trkpt>
      <trkpt lat="44.63168" lon="6.63072">
        <ele>1629.554199</ele>
        <time>2011-08-16T10:39:41Z</time>
      </trkpt>
      <trkpt lat="44.6315" lon="6.6308">
        <ele>1628.065918</ele>
        <time>2011-08-16T10:39:46Z</time>
      </trkpt>
      <trkpt lat="44.63132" lon="6.63093">
        <ele>1625.049072</ele>
        <time>2011-08-16T10:39:51Z</time>
      </trkpt>
      <trkpt lat="44.6311" lon="6.63108">
        <ele>1622.579346</ele>
        <time>2011-08-16T10:39:57Z</time>
      </trkpt>
      <trkpt lat="44.63093" lon="6.63117">
        <ele>1622.206665</ele>
        <time>2011-08-16T10:40:01Z</time>
      </trkpt>
      <trkpt lat="44.6307" lon="6.63128">
        <ele>1622.655518</ele>
        <time>2011-08-16T10:40:08Z</time>
      </trkpt>
      <trkpt lat="44.6306" lon="6.63143">
        <ele>1620.937866</ele>
        <time>2011-08-16T10:40:12Z</time>
      </trkpt>
      <trkpt lat="44.63052" lon="6.6316">
        <ele>1619.030518</ele>
        <time>2011-08-16T10:40:18Z</time>
      </trkpt>
      <trkpt lat="44.63043" lon="6.63177">
        <ele>1619.429199</ele>
        <time>2011-08-16T10:40:24Z</time>
      </trkpt>
      <trkpt lat="44.63052" lon="6.63195">
        <ele>1615.74353</ele>
        <time>2011-08-16T10:40:32Z</time>
      </trkpt>
      <trkpt lat="44.63067" lon="6.63242">
        <ele>1606.004883</ele>
        <time>2011-08-16T10:40:40Z</time>
      </trkpt>
      <trkpt lat="44.63062" lon="6.63265">
        <ele>1604.864136</ele>
        <time>2011-08-16T10:40:44Z</time>
      </trkpt>
      <trkpt lat="44.63048" lon="6.6329">
        <ele>1605.430542</ele>
        <time>2011-08-16T10:40:48Z</time>
      </trkpt>
      <trkpt lat="44.63038" lon="6.6331">
        <ele>1605.58606</ele>
        <time>2011-08-16T10:40:52Z</time>
      </trkpt>
      <trkpt lat="44.63057" lon="6.63303">
        <ele>1601.556396</ele>
        <time>2011-08-16T10:41:01Z</time>
      </trkpt>
      <trkpt lat="44.63075" lon="6.63292">
        <ele>1598.303589</ele>
        <time>2011-08-16T10:41:07Z</time>
      </trkpt>
      <trkpt lat="44.63088" lon="6.63277">
        <ele>1596.121826</ele>
        <time>2011-08-16T10:41:11Z</time>
      </trkpt>
      <trkpt lat="44.63097" lon="6.63253">
        <ele>1596.101685</ele>
        <time>2011-08-16T10:41:15Z</time>
      </trkpt>
      <trkpt lat="44.63107" lon="6.63233">
        <ele>1595.779297</ele>
        <time>2011-08-16T10:41:19Z</time>
      </trkpt>
      <trkpt lat="44.6312" lon="6.63223">
        <ele>1594.14917</ele>
        <time>2011-08-16T10:41:23Z</time>
      </trkpt>
      <trkpt lat="44.63138" lon="6.63217">
        <ele>1592.079712</ele>
        <time>2011-08-16T10:41:27Z</time>
      </trkpt>
      <trkpt lat="44.63152" lon="6.63213">
        <ele>1590.893921</ele>
        <time>2011-08-16T10:41:39Z</time>
      </trkpt>
      <trkpt lat="44.63168" lon="6.63212">
        <ele>1588.952026</ele>
        <time>2011-08-16T10:41:45Z</time>
      </trkpt>
      <trkpt lat="44.63185" lon="6.6322">
        <ele>1584.725586</ele>
        <time>2011-08-16T10:41:52Z</time>
      </trkpt>
      <trkpt lat="44.63205" lon="6.63225">
        <ele>1581.155151</ele>
        <time>2011-08-16T10:41:58Z</time>
      </trkpt>
      <trkpt lat="44.63223" lon="6.63223">
        <ele>1579.031006</ele>
        <time>2011-08-16T10:42:02Z</time>
      </trkpt>
      <trkpt lat="44.63245" lon="6.63213">
        <ele>1575.94397</ele>
        <time>2011-08-16T10:42:06Z</time>
      </trkpt>
      <trkpt lat="44.63262" lon="6.63198">
        <ele>1575.058838</ele>
        <time>2011-08-16T10:42:10Z</time>
      </trkpt>
      <trkpt lat="44.63277" lon="6.63182">
        <ele>1574.403198</ele>
        <time>2011-08-16T10:42:14Z</time>
      </trkpt>
      <trkpt lat="44.63298" lon="6.63168">
        <ele>1571.298096</ele>
        <time>2011-08-16T10:42:18Z</time>
      </trkpt>
      <trkpt lat="44.6332" lon="6.63173">
        <ele>1564.223877</ele>
        <time>2011-08-16T10:42:22Z</time>
      </trkpt>
      <trkpt lat="44.63353" lon="6.63183">
        <ele>1555.266846</ele>
        <time>2011-08-16T10:42:28Z</time>
      </trkpt>
      <trkpt lat="44.63368" lon="6.63177">
        <ele>1550.88269</ele>
        <time>2011-08-16T10:42:30Z</time>
      </trkpt>
      <trkpt lat="44.63387" lon="6.6316">
        <ele>1545.483643</ele>
        <time>2011-08-16T10:42:34Z</time>
      </trkpt>
      <trkpt lat="44.63375" lon="6.63187">
        <ele>1545.294556</ele>
        <time>2011-08-16T10:42:46Z</time>
      </trkpt>
      <trkpt lat="44.6336" lon="6.63212">
        <ele>1545.297119</ele>
        <time>2011-08-16T10:42:50Z</time>
      </trkpt>
      <trkpt lat="44.63348" lon="6.63222">
        <ele>1545.817139</ele>
        <time>2011-08-16T10:42:52Z</time>
      </trkpt>
      <trkpt lat="44.63337" lon="6.63232">
        <ele>1545.821899</ele>
        <time>2011-08-16T10:42:54Z</time>
      </trkpt>
      <trkpt lat="44.63318" lon="6.63247">
        <ele>1546.471802</ele>
        <time>2011-08-16T10:42:59Z</time>
      </trkpt>
      <trkpt lat="44.6333" lon="6.63262">
        <ele>1540.005127</ele>
        <time>2011-08-16T10:43:11Z</time>
      </trkpt>
      <trkpt lat="44.6335" lon="6.63267">
        <ele>1534.292603</ele>
        <time>2011-08-16T10:43:15Z</time>
      </trkpt>
      <trkpt lat="44.63372" lon="6.63273">
        <ele>1527.556641</ele>
        <time>2011-08-16T10:43:19Z</time>
      </trkpt>
      <trkpt lat="44.6339" lon="6.63283">
        <ele>1521.418579</ele>
        <time>2011-08-16T10:43:23Z</time>
      </trkpt>
      <trkpt lat="44.63403" lon="6.63278">
        <ele>1518.518188</ele>
        <time>2011-08-16T10:43:27Z</time>
      </trkpt>
      <trkpt lat="44.6342" lon="6.63268">
        <ele>1514.417847</ele>
        <time>2011-08-16T10:43:31Z</time>
      </trkpt>
      <trkpt lat="44.63435" lon="6.63255">
        <ele>1510.839111</ele>
        <time>2011-08-16T10:44:18Z</time>
      </trkpt>
      <trkpt lat="44.6345" lon="6.63243">
        <ele>1506.617432</ele>
        <time>2011-08-16T10:44:25Z</time>
      </trkpt>
      <trkpt lat="44.63457" lon="6.63227">
        <ele>1505.158081</ele>
        <time>2011-08-16T10:44:29Z</time>
      </trkpt>
      <trkpt lat="44.63458" lon="6.63195">
        <ele>1505.626099</ele>
        <time>2011-08-16T10:44:33Z</time>
      </trkpt>
      <trkpt lat="44.6346" lon="6.63135">
        <ele>1508.791748</ele>
        <time>2011-08-16T10:44:39Z</time>
      </trkpt>
      <trkpt lat="44.63463" lon="6.63115">
        <ele>1509.569458</ele>
        <time>2011-08-16T10:44:41Z</time>
      </trkpt>
      <trkpt lat="44.63472" lon="6.63095">
        <ele>1508.386475</ele>
        <time>2011-08-16T10:44:43Z</time>
      </trkpt>
      <trkpt lat="44.6348" lon="6.63075">
        <ele>1506.654785</ele>
        <time>2011-08-16T10:44:45Z</time>
      </trkpt>
      <trkpt lat="44.63508" lon="6.63007">
        <ele>1502.528687</ele>
        <time>2011-08-16T10:44:51Z</time>
      </trkpt>
      <trkpt lat="44.6352" lon="6.6299">
        <ele>1502.357056</ele>
        <time>2011-08-16T10:44:53Z</time>
      </trkpt>
      <trkpt lat="44.63535" lon="6.62978">
        <ele>1500.935425</ele>
        <time>2011-08-16T10:44:55Z</time>
      </trkpt>
      <trkpt lat="44.63567" lon="6.62977">
        <ele>1496.050537</ele>
        <time>2011-08-16T10:44:59Z</time>
      </trkpt>
      <trkpt lat="44.63583" lon="6.62978">
        <ele>1493.535645</ele>
        <time>2011-08-16T10:45:01Z</time>
      </trkpt>
      <trkpt lat="44.63598" lon="6.6298">
        <ele>1491.602051</ele>
        <time>2011-08-16T10:45:04Z</time>
      </trkpt>
      <trkpt lat="44.63613" lon="6.6298">
        <ele>1490.404175</ele>
        <time>2011-08-16T10:45:06Z</time>
      </trkpt>
      <trkpt lat="44.63643" lon="6.62978">
        <ele>1488.208984</ele>
        <time>2011-08-16T10:45:10Z</time>
      </trkpt>
      <trkpt lat="44.63672" lon="6.62975">
        <ele>1486.040527</ele>
        <time>2011-08-16T10:45:14Z</time>
      </trkpt>
      <trkpt lat="44.63702" lon="6.6297">
        <ele>1482.916504</ele>
        <time>2011-08-16T10:45:20Z</time>
      </trkpt>
      <trkpt lat="44.63728" lon="6.62963">
        <ele>1479.993042</ele>
        <time>2011-08-16T10:45:43Z</time>
      </trkpt>
      <trkpt lat="44.63742" lon="6.62958">
        <ele>1477.568115</ele>
        <time>2011-08-16T10:45:45Z</time>
      </trkpt>
      <trkpt lat="44.6376" lon="6.62948">
        <ele>1474.377441</ele>
        <time>2011-08-16T10:45:49Z</time>
      </trkpt>
      <trkpt lat="44.6375" lon="6.62965">
        <ele>1473.75708</ele>
        <time>2011-08-16T10:46:13Z</time>
      </trkpt>
      <trkpt lat="44.63765" lon="6.6296">
        <ele>1470.834839</ele>
        <time>2011-08-16T10:46:19Z</time>
      </trkpt>
      <trkpt lat="44.63783" lon="6.62945">
        <ele>1468.112061</ele>
        <time>2011-08-16T10:46:26Z</time>
      </trkpt>
      <trkpt lat="44.63798" lon="6.62932">
        <ele>1466.039063</ele>
        <time>2011-08-16T10:46:30Z</time>
      </trkpt>
      <trkpt lat="44.6381" lon="6.6292">
        <ele>1464.787964</ele>
        <time>2011-08-16T10:46:34Z</time>
      </trkpt>
      <trkpt lat="44.63822" lon="6.62907">
        <ele>1463.969971</ele>
        <time>2011-08-16T10:46:36Z</time>
      </trkpt>
      <trkpt lat="44.63833" lon="6.6289">
        <ele>1463.966797</ele>
        <time>2011-08-16T10:46:40Z</time>
      </trkpt>
      <trkpt lat="44.63843" lon="6.62877">
        <ele>1463.867065</ele>
        <time>2011-08-16T10:46:46Z</time>
      </trkpt>
      <trkpt lat="44.6386" lon="6.62868">
        <ele>1460.90979</ele>
        <time>2011-08-16T10:46:52Z</time>
      </trkpt>
      <trkpt lat="44.63893" lon="6.62857">
        <ele>1453.949707</ele>
        <time>2011-08-16T10:47:03Z</time>
      </trkpt>
      <trkpt lat="44.63907" lon="6.62848">
        <ele>1452.368774</ele>
        <time>2011-08-16T10:47:07Z</time>
      </trkpt>
      <trkpt lat="44.63923" lon="6.62835">
        <ele>1450.975464</ele>
        <time>2011-08-16T10:47:11Z</time>
      </trkpt>
      <trkpt lat="44.63938" lon="6.62818">
        <ele>1450.770874</ele>
        <time>2011-08-16T10:47:15Z</time>
      </trkpt>
      <trkpt lat="44.63948" lon="6.62803">
        <ele>1451.562378</ele>
        <time>2011-08-16T10:47:19Z</time>
      </trkpt>
      <trkpt lat="44.63953" lon="6.62825">
        <ele>1445.733154</ele>
        <time>2011-08-16T10:47:27Z</time>
      </trkpt>
      <trkpt lat="44.63942" lon="6.62853">
        <ele>1441.986084</ele>
        <time>2011-08-16T10:47:31Z</time>
      </trkpt>
      <trkpt lat="44.63928" lon="6.62873">
        <ele>1439.279785</ele>
        <time>2011-08-16T10:47:35Z</time>
      </trkpt>
      <trkpt lat="44.63905" lon="6.62907">
        <ele>1437.541382</ele>
        <time>2011-08-16T10:47:41Z</time>
      </trkpt>
      <trkpt lat="44.6389" lon="6.62922">
        <ele>1438.607056</ele>
        <time>2011-08-16T10:47:46Z</time>
      </trkpt>
      <trkpt lat="44.63878" lon="6.6294">
        <ele>1438.053345</ele>
        <time>2011-08-16T10:47:50Z</time>
      </trkpt>
      <trkpt lat="44.63872" lon="6.62965">
        <ele>1434.315186</ele>
        <time>2011-08-16T10:47:54Z</time>
      </trkpt>
      <trkpt lat="44.63865" lon="6.62993">
        <ele>1430.648071</ele>
        <time>2011-08-16T10:47:58Z</time>
      </trkpt>
      <trkpt lat="44.63855" lon="6.63025">
        <ele>1427.462036</ele>
        <time>2011-08-16T10:48:02Z</time>
      </trkpt>
      <trkpt lat="44.63847" lon="6.6304">
        <ele>1427.096069</ele>
        <time>2011-08-16T10:48:04Z</time>
      </trkpt>
      <trkpt lat="44.63835" lon="6.6307">
        <ele>1424.152222</ele>
        <time>2011-08-16T10:48:08Z</time>
      </trkpt>
      <trkpt lat="44.63823" lon="6.63097">
        <ele>1421.590332</ele>
        <time>2011-08-16T10:48:12Z</time>
      </trkpt>
      <trkpt lat="44.63812" lon="6.6312">
        <ele>1419.795532</ele>
        <time>2011-08-16T10:48:16Z</time>
      </trkpt>
      <trkpt lat="44.6379" lon="6.63153">
        <ele>1418.425415</ele>
        <time>2011-08-16T10:48:20Z</time>
      </trkpt>
      <trkpt lat="44.63762" lon="6.63202">
        <ele>1416.237671</ele>
        <time>2011-08-16T10:48:28Z</time>
      </trkpt>
      <trkpt lat="44.63752" lon="6.63222">
        <ele>1415.158325</ele>
        <time>2011-08-16T10:48:33Z</time>
      </trkpt>
      <trkpt lat="44.63748" lon="6.63245">
        <ele>1412.421997</ele>
        <time>2011-08-16T10:49:03Z</time>
      </trkpt>
      <trkpt lat="44.6376" lon="6.63258">
        <ele>1406.504883</ele>
        <time>2011-08-16T10:49:09Z</time>
      </trkpt>
      <trkpt lat="44.63767" lon="6.63277">
        <ele>1401.217651</ele>
        <time>2011-08-16T10:49:16Z</time>
      </trkpt>
      <trkpt lat="44.63777" lon="6.63298">
        <ele>1394.812866</ele>
        <time>2011-08-16T10:49:22Z</time>
      </trkpt>
      <trkpt lat="44.63787" lon="6.63323">
        <ele>1387.744995</ele>
        <time>2011-08-16T10:49:30Z</time>
      </trkpt>
      <trkpt lat="44.63788" lon="6.63345">
        <ele>1383.813599</ele>
        <time>2011-08-16T10:49:36Z</time>
      </trkpt>
      <trkpt lat="44.63787" lon="6.6337">
        <ele>1380.075073</ele>
        <time>2011-08-16T10:49:42Z</time>
      </trkpt>
      <trkpt lat="44.6377" lon="6.63383">
        <ele>1383.494873</ele>
        <time>2011-08-16T10:50:10Z</time>
      </trkpt>
      <trkpt lat="44.63755" lon="6.63403">
        <ele>1385.19165</ele>
        <time>2011-08-16T10:50:17Z</time>
      </trkpt>
      <trkpt lat="44.6375" lon="6.63425">
        <ele>1383.372437</ele>
        <time>2011-08-16T10:50:21Z</time>
      </trkpt>
      <trkpt lat="44.63743" lon="6.63445">
        <ele>1382.425659</ele>
        <time>2011-08-16T10:50:25Z</time>
      </trkpt>
      <trkpt lat="44.63733" lon="6.63467">
        <ele>1382.581665</ele>
        <time>2011-08-16T10:50:29Z</time>
      </trkpt>
      <trkpt lat="44.63725" lon="6.63488">
        <ele>1384.466797</ele>
        <time>2011-08-16T10:50:33Z</time>
      </trkpt>
      <trkpt lat="44.63718" lon="6.63512">
        <ele>1384.906982</ele>
        <time>2011-08-16T10:50:37Z</time>
      </trkpt>
      <trkpt lat="44.63723" lon="6.63535">
        <ele>1385.033325</ele>
        <time>2011-08-16T10:50:41Z</time>
      </trkpt>
      <trkpt lat="44.63732" lon="6.6355">
        <ele>1386.813965</ele>
        <time>2011-08-16T10:50:45Z</time>
      </trkpt>
      <trkpt lat="44.63747" lon="6.6355">
        <ele>1384.26355</ele>
        <time>2011-08-16T10:50:49Z</time>
      </trkpt>
      <trkpt lat="44.6376" lon="6.63547">
        <ele>1380.647827</ele>
        <time>2011-08-16T10:50:55Z</time>
      </trkpt>
      <trkpt lat="44.63775" lon="6.63553">
        <ele>1379.00415</ele>
        <time>2011-08-16T10:51:03Z</time>
      </trkpt>
      <trkpt lat="44.63785" lon="6.6357">
        <ele>1380.120483</ele>
        <time>2011-08-16T10:51:11Z</time>
      </trkpt>
      <trkpt lat="44.63788" lon="6.6359">
        <ele>1383.047241</ele>
        <time>2011-08-16T10:51:19Z</time>
      </trkpt>
      <trkpt lat="44.63782" lon="6.63612">
        <ele>1385.41333</ele>
        <time>2011-08-16T10:51:28Z</time>
      </trkpt>
      <trkpt lat="44.63775" lon="6.63637">
        <ele>1387.260986</ele>
        <time>2011-08-16T10:51:38Z</time>
      </trkpt>
      <trkpt lat="44.63765" lon="6.63678">
        <ele>1389.501465</ele>
        <time>2011-08-16T10:51:56Z</time>
      </trkpt>
      <trkpt lat="44.6376" lon="6.63698">
        <ele>1390.526978</ele>
        <time>2011-08-16T10:52:02Z</time>
      </trkpt>
      <trkpt lat="44.63753" lon="6.6372">
        <ele>1392.228638</ele>
        <time>2011-08-16T10:52:12Z</time>
      </trkpt>
      <trkpt lat="44.6375" lon="6.63742">
        <ele>1392.197632</ele>
        <time>2011-08-16T10:52:23Z</time>
      </trkpt>
      <trkpt lat="44.63747" lon="6.63762">
        <ele>1392.226685</ele>
        <time>2011-08-16T10:52:33Z</time>
      </trkpt>
      <trkpt lat="44.63738" lon="6.6378">
        <ele>1394.052979</ele>
        <time>2011-08-16T10:52:41Z</time>
      </trkpt>
      <trkpt lat="44.63722" lon="6.6379">
        <ele>1398.2146</ele>
        <time>2011-08-16T10:52:51Z</time>
      </trkpt>
      <trkpt lat="44.63705" lon="6.6379">
        <ele>1402.964844</ele>
        <time>2011-08-16T10:53:01Z</time>
      </trkpt>
      <trkpt lat="44.63693" lon="6.63802">
        <ele>1405.603394</ele>
        <time>2011-08-16T10:53:09Z</time>
      </trkpt>
      <trkpt lat="44.63693" lon="6.63825">
        <ele>1404.230103</ele>
        <time>2011-08-16T10:53:19Z</time>
      </trkpt>
      <trkpt lat="44.63697" lon="6.63853">
        <ele>1402.300537</ele>
        <time>2011-08-16T10:53:32Z</time>
      </trkpt>
      <trkpt lat="44.63692" lon="6.63873">
        <ele>1403.518066</ele>
        <time>2011-08-16T10:53:40Z</time>
      </trkpt>
      <trkpt lat="44.63683" lon="6.63888">
        <ele>1405.214478</ele>
        <time>2011-08-16T10:53:48Z</time>
      </trkpt>
      <trkpt lat="44.63677" lon="6.6391">
        <ele>1406.56958</ele>
        <time>2011-08-16T10:53:56Z</time>
      </trkpt>
      <trkpt lat="44.63668" lon="6.63933">
        <ele>1408.620605</ele>
        <time>2011-08-16T10:54:09Z</time>
      </trkpt>
      <trkpt lat="44.63662" lon="6.63952">
        <ele>1410.346191</ele>
        <time>2011-08-16T10:54:17Z</time>
      </trkpt>
      <trkpt lat="44.63653" lon="6.63972">
        <ele>1413.149658</ele>
        <time>2011-08-16T10:54:25Z</time>
      </trkpt>
      <trkpt lat="44.63647" lon="6.6399">
        <ele>1416.221924</ele>
        <time>2011-08-16T10:54:33Z</time>
      </trkpt>
      <trkpt lat="44.63637" lon="6.64015">
        <ele>1420.726074</ele>
        <time>2011-08-16T10:54:45Z</time>
      </trkpt>
      <trkpt lat="44.63622" lon="6.64015">
        <ele>1423.757935</ele>
        <time>2011-08-16T10:55:02Z</time>
      </trkpt>
      <trkpt lat="44.63608" lon="6.63998">
        <ele>1424.642822</ele>
        <time>2011-08-16T10:55:20Z</time>
      </trkpt>
      <trkpt lat="44.63593" lon="6.63988">
        <ele>1426.357666</ele>
        <time>2011-08-16T10:55:32Z</time>
      </trkpt>
      <trkpt lat="44.6358" lon="6.6398">
        <ele>1427.966675</ele>
        <time>2011-08-16T10:55:44Z</time>
      </trkpt>
      <trkpt lat="44.63565" lon="6.63973">
        <ele>1430.046265</ele>
        <time>2011-08-16T10:56:01Z</time>
      </trkpt>
      <trkpt lat="44.63552" lon="6.63968">
        <ele>1431.970459</ele>
        <time>2011-08-16T10:56:13Z</time>
      </trkpt>
      <trkpt lat="44.63538" lon="6.63972">
        <ele>1435.756714</ele>
        <time>2011-08-16T10:56:25Z</time>
      </trkpt>
      <trkpt lat="44.63538" lon="6.63995">
        <ele>1439.156128</ele>
        <time>2011-08-16T10:56:43Z</time>
      </trkpt>
      <trkpt lat="44.63548" lon="6.64008">
        <ele>1438.161621</ele>
        <time>2011-08-16T10:58:28Z</time>
      </trkpt>
      <trkpt lat="44.6356" lon="6.6402">
        <ele>1437.345337</ele>
        <time>2011-08-16T10:58:38Z</time>
      </trkpt>
      <trkpt lat="44.6357" lon="6.64035">
        <ele>1438.156128</ele>
        <time>2011-08-16T10:58:46Z</time>
      </trkpt>
      <trkpt lat="44.63578" lon="6.6405">
        <ele>1439.149536</ele>
        <time>2011-08-16T10:58:52Z</time>
      </trkpt>
      <trkpt lat="44.63587" lon="6.64065">
        <ele>1439.962646</ele>
        <time>2011-08-16T10:58:58Z</time>
      </trkpt>
      <trkpt lat="44.63595" lon="6.6408">
        <ele>1440.661743</ele>
        <time>2011-08-16T10:59:05Z</time>
      </trkpt>
      <trkpt lat="44.63608" lon="6.64097">
        <ele>1439.991211</ele>
        <time>2011-08-16T10:59:13Z</time>
      </trkpt>
      <trkpt lat="44.63622" lon="6.64107">
        <ele>1438.053101</ele>
        <time>2011-08-16T10:59:21Z</time>
      </trkpt>
      <trkpt lat="44.63628" lon="6.64132">
        <ele>1439.459473</ele>
        <time>2011-08-16T10:59:27Z</time>
      </trkpt>
      <trkpt lat="44.63625" lon="6.64155">
        <ele>1442.659424</ele>
        <time>2011-08-16T10:59:34Z</time>
      </trkpt>
      <trkpt lat="44.63618" lon="6.6418">
        <ele>1445.55957</ele>
        <time>2011-08-16T10:59:40Z</time>
      </trkpt>
      <trkpt lat="44.6361" lon="6.64203">
        <ele>1449.373047</ele>
        <time>2011-08-16T10:59:46Z</time>
      </trkpt>
      <trkpt lat="44.63603" lon="6.6422">
        <ele>1453.531006</ele>
        <time>2011-08-16T10:59:50Z</time>
      </trkpt>
      <trkpt lat="44.63603" lon="6.6424">
        <ele>1456.423706</ele>
        <time>2011-08-16T10:59:56Z</time>
      </trkpt>
      <trkpt lat="44.63617" lon="6.64253">
        <ele>1453.452881</ele>
        <time>2011-08-16T11:00:05Z</time>
      </trkpt>
      <trkpt lat="44.6363" lon="6.64267">
        <ele>1450.550293</ele>
        <time>2011-08-16T11:00:11Z</time>
      </trkpt>
      <trkpt lat="44.63643" lon="6.6428">
        <ele>1449.715942</ele>
        <time>2011-08-16T11:00:19Z</time>
      </trkpt>
      <trkpt lat="44.63653" lon="6.643">
        <ele>1450.179932</ele>
        <time>2011-08-16T11:00:27Z</time>
      </trkpt>
      <trkpt lat="44.63658" lon="6.64318">
        <ele>1451.204712</ele>
        <time>2011-08-16T11:00:33Z</time>
      </trkpt>
      <trkpt lat="44.63658" lon="6.6434">
        <ele>1453.799683</ele>
        <time>2011-08-16T11:00:43Z</time>
      </trkpt>
      <trkpt lat="44.63657" lon="6.64367">
        <ele>1454.436768</ele>
        <time>2011-08-16T11:00:54Z</time>
      </trkpt>
      <trkpt lat="44.63655" lon="6.64388">
        <ele>1455.037231</ele>
        <time>2011-08-16T11:01:04Z</time>
      </trkpt>
      <trkpt lat="44.6365" lon="6.64407">
        <ele>1456.642456</ele>
        <time>2011-08-16T11:01:14Z</time>
      </trkpt>
      <trkpt lat="44.63642" lon="6.6443">
        <ele>1458.371826</ele>
        <time>2011-08-16T11:01:26Z</time>
      </trkpt>
      <trkpt lat="44.63637" lon="6.64448">
        <ele>1459.247681</ele>
        <time>2011-08-16T11:01:37Z</time>
      </trkpt>
      <trkpt lat="44.63625" lon="6.64463">
        <ele>1462.843262</ele>
        <time>2011-08-16T11:01:47Z</time>
      </trkpt>
      <trkpt lat="44.63615" lon="6.64478">
        <ele>1465.755859</ele>
        <time>2011-08-16T11:01:57Z</time>
      </trkpt>
      <trkpt lat="44.63608" lon="6.64498">
        <ele>1467.195679</ele>
        <time>2011-08-16T11:02:08Z</time>
      </trkpt>
      <trkpt lat="44.63605" lon="6.6452">
        <ele>1467.383179</ele>
        <time>2011-08-16T11:02:18Z</time>
      </trkpt>
      <trkpt lat="44.63593" lon="6.64538">
        <ele>1470.975952</ele>
        <time>2011-08-16T11:02:28Z</time>
      </trkpt>
      <trkpt lat="44.63582" lon="6.64562">
        <ele>1473.44104</ele>
        <time>2011-08-16T11:02:40Z</time>
      </trkpt>
      <trkpt lat="44.63573" lon="6.64578">
        <ele>1474.303345</ele>
        <time>2011-08-16T11:02:51Z</time>
      </trkpt>
      <trkpt lat="44.63572" lon="6.646">
        <ele>1474.197754</ele>
        <time>2011-08-16T11:03:01Z</time>
      </trkpt>
      <trkpt lat="44.63573" lon="6.6462">
        <ele>1474.472656</ele>
        <time>2011-08-16T11:03:09Z</time>
      </trkpt>
      <trkpt lat="44.63575" lon="6.6464">
        <ele>1475.193359</ele>
        <time>2011-08-16T11:03:17Z</time>
      </trkpt>
      <trkpt lat="44.63573" lon="6.64662">
        <ele>1477.340332</ele>
        <time>2011-08-16T11:03:26Z</time>
      </trkpt>
      <trkpt lat="44.6357" lon="6.64682">
        <ele>1479.955078</ele>
        <time>2011-08-16T11:03:34Z</time>
      </trkpt>
      <trkpt lat="44.63565" lon="6.64702">
        <ele>1482.875366</ele>
        <time>2011-08-16T11:04:09Z</time>
      </trkpt>
      <trkpt lat="44.63557" lon="6.64725">
        <ele>1490.028809</ele>
        <time>2011-08-16T11:04:21Z</time>
      </trkpt>
      <trkpt lat="44.63547" lon="6.64742">
        <ele>1496.554443</ele>
        <time>2011-08-16T11:04:31Z</time>
      </trkpt>
      <trkpt lat="44.63532" lon="6.64752">
        <ele>1500.363525</ele>
        <time>2011-08-16T11:04:42Z</time>
      </trkpt>
      <trkpt lat="44.63517" lon="6.6475">
        <ele>1501.538818</ele>
        <time>2011-08-16T11:04:52Z</time>
      </trkpt>
      <trkpt lat="44.63505" lon="6.64738">
        <ele>1502.92395</ele>
        <time>2011-08-16T11:05:02Z</time>
      </trkpt>
      <trkpt lat="44.635" lon="6.64718">
        <ele>1500.687134</ele>
        <time>2011-08-16T11:05:14Z</time>
      </trkpt>
      <trkpt lat="44.63495" lon="6.64698">
        <ele>1499.890869</ele>
        <time>2011-08-16T11:05:27Z</time>
      </trkpt>
      <trkpt lat="44.63492" lon="6.64677">
        <ele>1499.543457</ele>
        <time>2011-08-16T11:05:39Z</time>
      </trkpt>
      <trkpt lat="44.63487" lon="6.6464">
        <ele>1498.484619</ele>
        <time>2011-08-16T11:05:57Z</time>
      </trkpt>
      <trkpt lat="44.63482" lon="6.6462">
        <ele>1499.616577</ele>
        <time>2011-08-16T11:06:08Z</time>
      </trkpt>
      <trkpt lat="44.63473" lon="6.64602">
        <ele>1501.087036</ele>
        <time>2011-08-16T11:06:20Z</time>
      </trkpt>
      <trkpt lat="44.63462" lon="6.64588">
        <ele>1502.994507</ele>
        <time>2011-08-16T11:06:31Z</time>
      </trkpt>
      <trkpt lat="44.63448" lon="6.6458">
        <ele>1505.1604</ele>
        <time>2011-08-16T11:06:43Z</time>
      </trkpt>
      <trkpt lat="44.63435" lon="6.64575">
        <ele>1507.356934</ele>
        <time>2011-08-16T11:06:51Z</time>
      </trkpt>
      <trkpt lat="44.63422" lon="6.64572">
        <ele>1509.477051</ele>
        <time>2011-08-16T11:06:59Z</time>
      </trkpt>
      <trkpt lat="44.63407" lon="6.64568">
        <ele>1511.952515</ele>
        <time>2011-08-16T11:07:10Z</time>
      </trkpt>
      <trkpt lat="44.63398" lon="6.6455">
        <ele>1514.141113</ele>
        <time>2011-08-16T11:07:22Z</time>
      </trkpt>
      <trkpt lat="44.63395" lon="6.64528">
        <ele>1515.918213</ele>
        <time>2011-08-16T11:07:32Z</time>
      </trkpt>
      <trkpt lat="44.634" lon="6.64507">
        <ele>1515.93042</ele>
        <time>2011-08-16T11:07:44Z</time>
      </trkpt>
      <trkpt lat="44.63405" lon="6.64487">
        <ele>1515.870117</ele>
        <time>2011-08-16T11:07:55Z</time>
      </trkpt>
      <trkpt lat="44.6341" lon="6.64463">
        <ele>1516.000244</ele>
        <time>2011-08-16T11:08:05Z</time>
      </trkpt>
      <trkpt lat="44.63408" lon="6.64443">
        <ele>1517.543823</ele>
        <time>2011-08-16T11:08:16Z</time>
      </trkpt>
      <trkpt lat="44.63397" lon="6.64433">
        <ele>1520.911011</ele>
        <time>2011-08-16T11:08:26Z</time>
      </trkpt>
      <trkpt lat="44.63385" lon="6.6442">
        <ele>1524.248779</ele>
        <time>2011-08-16T11:08:38Z</time>
      </trkpt>
      <trkpt lat="44.6338" lon="6.64398">
        <ele>1526.295654</ele>
        <time>2011-08-16T11:08:48Z</time>
      </trkpt>
      <trkpt lat="44.6338" lon="6.64367">
        <ele>1527.114136</ele>
        <time>2011-08-16T11:09:07Z</time>
      </trkpt>
      <trkpt lat="44.63372" lon="6.64343">
        <ele>1528.745605</ele>
        <time>2011-08-16T11:09:24Z</time>
      </trkpt>
      <trkpt lat="44.6336" lon="6.6433">
        <ele>1530.683472</ele>
        <time>2011-08-16T11:09:34Z</time>
      </trkpt>
      <trkpt lat="44.63347" lon="6.64327">
        <ele>1531.838989</ele>
        <time>2011-08-16T11:09:51Z</time>
      </trkpt>
      <trkpt lat="44.63332" lon="6.6433">
        <ele>1533.125854</ele>
        <time>2011-08-16T11:11:48Z</time>
      </trkpt>
      <trkpt lat="44.63317" lon="6.64337">
        <ele>1535.017578</ele>
        <time>2011-08-16T11:12:05Z</time>
      </trkpt>
      <trkpt lat="44.63293" lon="6.6435">
        <ele>1540.395996</ele>
        <time>2011-08-16T11:12:23Z</time>
      </trkpt>
      <trkpt lat="44.63278" lon="6.64353">
        <ele>1543.452026</ele>
        <time>2011-08-16T11:12:34Z</time>
      </trkpt>
      <trkpt lat="44.63265" lon="6.6436">
        <ele>1546.355347</ele>
        <time>2011-08-16T11:12:44Z</time>
      </trkpt>
      <trkpt lat="44.63267" lon="6.6438">
        <ele>1546.914307</ele>
        <time>2011-08-16T11:12:56Z</time>
      </trkpt>
      <trkpt lat="44.6328" lon="6.64388">
        <ele>1544.880859</ele>
        <time>2011-08-16T11:13:06Z</time>
      </trkpt>
      <trkpt lat="44.63293" lon="6.64398">
        <ele>1542.714233</ele>
        <time>2011-08-16T11:13:17Z</time>
      </trkpt>
      <trkpt lat="44.63298" lon="6.64417">
        <ele>1541.861572</ele>
        <time>2011-08-16T11:13:25Z</time>
      </trkpt>
      <trkpt lat="44.633" lon="6.64437">
        <ele>1541.517822</ele>
        <time>2011-08-16T11:13:33Z</time>
      </trkpt>
      <trkpt lat="44.63303" lon="6.64458">
        <ele>1540.765015</ele>
        <time>2011-08-16T11:13:44Z</time>
      </trkpt>
      <trkpt lat="44.63307" lon="6.64478">
        <ele>1539.84668</ele>
        <time>2011-08-16T11:13:54Z</time>
      </trkpt>
      <trkpt lat="44.6331" lon="6.64498">
        <ele>1538.756714</ele>
        <time>2011-08-16T11:14:02Z</time>
      </trkpt>
      <trkpt lat="44.63305" lon="6.64518">
        <ele>1540.59021</ele>
        <time>2011-08-16T11:14:13Z</time>
      </trkpt>
      <trkpt lat="44.63293" lon="6.64533">
        <ele>1544.900269</ele>
        <time>2011-08-16T11:14:23Z</time>
      </trkpt>
      <trkpt lat="44.63282" lon="6.64552">
        <ele>1550.069214</ele>
        <time>2011-08-16T11:14:35Z</time>
      </trkpt>
      <trkpt lat="44.63275" lon="6.6457">
        <ele>1554.198853</ele>
        <time>2011-08-16T11:14:46Z</time>
      </trkpt>
      <trkpt lat="44.63277" lon="6.64593">
        <ele>1556.167969</ele>
        <time>2011-08-16T11:14:58Z</time>
      </trkpt>
      <trkpt lat="44.63265" lon="6.64603">
        <ele>1561.806152</ele>
        <time>2011-08-16T11:15:08Z</time>
      </trkpt>
      <trkpt lat="44.63257" lon="6.64587">
        <ele>1563.158081</ele>
        <time>2011-08-16T11:15:21Z</time>
      </trkpt>
      <trkpt lat="44.63255" lon="6.64567">
        <ele>1561.344727</ele>
        <time>2011-08-16T11:15:33Z</time>
      </trkpt>
      <trkpt lat="44.63243" lon="6.64555">
        <ele>1563.539551</ele>
        <time>2011-08-16T11:15:43Z</time>
      </trkpt>
      <trkpt lat="44.63228" lon="6.64558">
        <ele>1568.369629</ele>
        <time>2011-08-16T11:15:56Z</time>
      </trkpt>
      <trkpt lat="44.63215" lon="6.64565">
        <ele>1573.088501</ele>
        <time>2011-08-16T11:16:06Z</time>
      </trkpt>
      <trkpt lat="44.632" lon="6.64557">
        <ele>1577.50293</ele>
        <time>2011-08-16T11:16:16Z</time>
      </trkpt>
      <trkpt lat="44.63193" lon="6.64533">
        <ele>1578.526001</ele>
        <time>2011-08-16T11:16:33Z</time>
      </trkpt>
      <trkpt lat="44.63182" lon="6.64523">
        <ele>1582.559448</ele>
        <time>2011-08-16T11:16:45Z</time>
      </trkpt>
      <trkpt lat="44.63177" lon="6.6455">
        <ele>1585.632935</ele>
        <time>2011-08-16T11:17:03Z</time>
      </trkpt>
      <trkpt lat="44.63172" lon="6.64573">
        <ele>1588.150146</ele>
        <time>2011-08-16T11:17:20Z</time>
      </trkpt>
      <trkpt lat="44.6317" lon="6.64607">
        <ele>1589.615845</ele>
        <time>2011-08-16T11:17:38Z</time>
      </trkpt>
      <trkpt lat="44.63178" lon="6.64623">
        <ele>1588.829834</ele>
        <time>2011-08-16T11:17:57Z</time>
      </trkpt>
      <trkpt lat="44.6319" lon="6.64637">
        <ele>1588.673462</ele>
        <time>2011-08-16T11:18:07Z</time>
      </trkpt>
      <trkpt lat="44.63203" lon="6.64643">
        <ele>1587.404663</ele>
        <time>2011-08-16T11:18:17Z</time>
      </trkpt>
      <trkpt lat="44.63215" lon="6.64653">
        <ele>1586.921631</ele>
        <time>2011-08-16T11:18:27Z</time>
      </trkpt>
      <trkpt lat="44.63227" lon="6.64667">
        <ele>1586.789673</ele>
        <time>2011-08-16T11:18:37Z</time>
      </trkpt>
      <trkpt lat="44.63235" lon="6.64683">
        <ele>1588.59082</ele>
        <time>2011-08-16T11:18:47Z</time>
      </trkpt>
      <trkpt lat="44.6325" lon="6.64693">
        <ele>1587.085571</ele>
        <time>2011-08-16T11:19:00Z</time>
      </trkpt>
      <trkpt lat="44.63258" lon="6.64712">
        <ele>1588.659912</ele>
        <time>2011-08-16T11:19:08Z</time>
      </trkpt>
      <trkpt lat="44.63263" lon="6.64735">
        <ele>1592.696045</ele>
        <time>2011-08-16T11:19:16Z</time>
      </trkpt>
      <trkpt lat="44.63278" lon="6.64758">
        <ele>1593.442017</ele>
        <time>2011-08-16T11:19:34Z</time>
      </trkpt>
      <trkpt lat="44.63285" lon="6.64777">
        <ele>1595.295898</ele>
        <time>2011-08-16T11:19:43Z</time>
      </trkpt>
      <trkpt lat="44.6327" lon="6.64778">
        <ele>1600.315674</ele>
        <time>2011-08-16T11:19:55Z</time>
      </trkpt>
      <trkpt lat="44.6326" lon="6.64762">
        <ele>1600.041382</ele>
        <time>2011-08-16T11:20:07Z</time>
      </trkpt>
      <trkpt lat="44.63247" lon="6.64752">
        <ele>1602.144409</ele>
        <time>2011-08-16T11:20:19Z</time>
      </trkpt>
      <trkpt lat="44.63233" lon="6.64745">
        <ele>1604.093872</ele>
        <time>2011-08-16T11:20:29Z</time>
      </trkpt>
      <trkpt lat="44.6322" lon="6.64737">
        <ele>1605.576294</ele>
        <time>2011-08-16T11:20:37Z</time>
      </trkpt>
      <trkpt lat="44.63208" lon="6.64727">
        <ele>1606.21228</ele>
        <time>2011-08-16T11:20:45Z</time>
      </trkpt>
      <trkpt lat="44.63215" lon="6.6475">
        <ele>1610.053223</ele>
        <time>2011-08-16T11:21:12Z</time>
      </trkpt>
      <trkpt lat="44.63223" lon="6.6477">
        <ele>1611.81665</ele>
        <time>2011-08-16T11:21:22Z</time>
      </trkpt>
      <trkpt lat="44.6323" lon="6.64787">
        <ele>1613.358398</ele>
        <time>2011-08-16T11:21:32Z</time>
      </trkpt>
      <trkpt lat="44.63237" lon="6.64807">
        <ele>1615.555298</ele>
        <time>2011-08-16T11:21:44Z</time>
      </trkpt>
      <trkpt lat="44.63243" lon="6.64825">
        <ele>1616.303467</ele>
        <time>2011-08-16T11:24:14Z</time>
      </trkpt>
      <trkpt lat="44.6325" lon="6.64843">
        <ele>1616.4729</ele>
        <time>2011-08-16T11:24:27Z</time>
      </trkpt>
      <trkpt lat="44.63233" lon="6.6484">
        <ele>1620.352417</ele>
        <time>2011-08-16T11:24:39Z</time>
      </trkpt>
      <trkpt lat="44.63225" lon="6.64823">
        <ele>1620.768799</ele>
        <time>2011-08-16T11:24:49Z</time>
      </trkpt>
      <trkpt lat="44.63213" lon="6.64812">
        <ele>1622.53479</ele>
        <time>2011-08-16T11:25:00Z</time>
      </trkpt>
      <trkpt lat="44.632" lon="6.64803">
        <ele>1624.343262</ele>
        <time>2011-08-16T11:25:10Z</time>
      </trkpt>
      <trkpt lat="44.63188" lon="6.64792">
        <ele>1624.557007</ele>
        <time>2011-08-16T11:25:18Z</time>
      </trkpt>
      <trkpt lat="44.63177" lon="6.64803">
        <ele>1629.782959</ele>
        <time>2011-08-16T11:25:29Z</time>
      </trkpt>
      <trkpt lat="44.63188" lon="6.64818">
        <ele>1629.212891</ele>
        <time>2011-08-16T11:25:39Z</time>
      </trkpt>
      <trkpt lat="44.63198" lon="6.64835">
        <ele>1628.611816</ele>
        <time>2011-08-16T11:25:49Z</time>
      </trkpt>
      <trkpt lat="44.63203" lon="6.64853">
        <ele>1629.288086</ele>
        <time>2011-08-16T11:25:57Z</time>
      </trkpt>
      <trkpt lat="44.6321" lon="6.6487">
        <ele>1629.293091</ele>
        <time>2011-08-16T11:26:05Z</time>
      </trkpt>
      <trkpt lat="44.6321" lon="6.6489">
        <ele>1628.598755</ele>
        <time>2011-08-16T11:26:15Z</time>
      </trkpt>
      <trkpt lat="44.63202" lon="6.6491">
        <ele>1629.085205</ele>
        <time>2011-08-16T11:26:26Z</time>
      </trkpt>
      <trkpt lat="44.6319" lon="6.64922">
        <ele>1630.767334</ele>
        <time>2011-08-16T11:26:36Z</time>
      </trkpt>
      <trkpt lat="44.63177" lon="6.6491">
        <ele>1634.504517</ele>
        <time>2011-08-16T11:26:46Z</time>
      </trkpt>
      <trkpt lat="44.63168" lon="6.64888">
        <ele>1637.876953</ele>
        <time>2011-08-16T11:26:58Z</time>
      </trkpt>
      <trkpt lat="44.63155" lon="6.64877">
        <ele>1641.592529</ele>
        <time>2011-08-16T11:27:08Z</time>
      </trkpt>
      <trkpt lat="44.63143" lon="6.64863">
        <ele>1643.405273</ele>
        <time>2011-08-16T11:27:21Z</time>
      </trkpt>
      <trkpt lat="44.63132" lon="6.64848">
        <ele>1644.036133</ele>
        <time>2011-08-16T11:27:31Z</time>
      </trkpt>
      <trkpt lat="44.63118" lon="6.64852">
        <ele>1646.635498</ele>
        <time>2011-08-16T11:27:41Z</time>
      </trkpt>
      <trkpt lat="44.63113" lon="6.64872">
        <ele>1648.134155</ele>
        <time>2011-08-16T11:27:51Z</time>
      </trkpt>
      <trkpt lat="44.63102" lon="6.64883">
        <ele>1648.504272</ele>
        <time>2011-08-16T11:28:02Z</time>
      </trkpt>
      <trkpt lat="44.63088" lon="6.64888">
        <ele>1649.485107</ele>
        <time>2011-08-16T11:28:12Z</time>
      </trkpt>
      <trkpt lat="44.63075" lon="6.64895">
        <ele>1650.32666</ele>
        <time>2011-08-16T11:28:22Z</time>
      </trkpt>
      <trkpt lat="44.63062" lon="6.64902">
        <ele>1651.218262</ele>
        <time>2011-08-16T11:28:34Z</time>
      </trkpt>
      <trkpt lat="44.63048" lon="6.6491">
        <ele>1652.326294</ele>
        <time>2011-08-16T11:28:44Z</time>
      </trkpt>
      <trkpt lat="44.63035" lon="6.64913">
        <ele>1653.96521</ele>
        <time>2011-08-16T11:28:54Z</time>
      </trkpt>
      <trkpt lat="44.63022" lon="6.64903">
        <ele>1656.262085</ele>
        <time>2011-08-16T11:29:07Z</time>
      </trkpt>
      <trkpt lat="44.63017" lon="6.64883">
        <ele>1657.571167</ele>
        <time>2011-08-16T11:29:19Z</time>
      </trkpt>
      <trkpt lat="44.6301" lon="6.64863">
        <ele>1658.832153</ele>
        <time>2011-08-16T11:29:29Z</time>
      </trkpt>
      <trkpt lat="44.62998" lon="6.6485">
        <ele>1659.743408</ele>
        <time>2011-08-16T11:29:40Z</time>
      </trkpt>
      <trkpt lat="44.62985" lon="6.64858">
        <ele>1661.178345</ele>
        <time>2011-08-16T11:29:52Z</time>
      </trkpt>
      <trkpt lat="44.62978" lon="6.64875">
        <ele>1661.682983</ele>
        <time>2011-08-16T11:30:04Z</time>
      </trkpt>
      <trkpt lat="44.62968" lon="6.64907">
        <ele>1663.176758</ele>
        <time>2011-08-16T11:30:22Z</time>
      </trkpt>
      <trkpt lat="44.6296" lon="6.64925">
        <ele>1664.507202</ele>
        <time>2011-08-16T11:30:34Z</time>
      </trkpt>
      <trkpt lat="44.6295" lon="6.6494">
        <ele>1666.541504</ele>
        <time>2011-08-16T11:30:47Z</time>
      </trkpt>
      <trkpt lat="44.62938" lon="6.6495">
        <ele>1669.610596</ele>
        <time>2011-08-16T11:30:57Z</time>
      </trkpt>
      <trkpt lat="44.6293" lon="6.64933">
        <ele>1671.362427</ele>
        <time>2011-08-16T11:34:21Z</time>
      </trkpt>
      <trkpt lat="44.62915" lon="6.64905">
        <ele>1676.318237</ele>
        <time>2011-08-16T11:34:40Z</time>
      </trkpt>
      <trkpt lat="44.62908" lon="6.64885">
        <ele>1680.787598</ele>
        <time>2011-08-16T11:34:50Z</time>
      </trkpt>
      <trkpt lat="44.62903" lon="6.64867">
        <ele>1685.096802</ele>
        <time>2011-08-16T11:35:02Z</time>
      </trkpt>
      <trkpt lat="44.62908" lon="6.64847">
        <ele>1685.134277</ele>
        <time>2011-08-16T11:35:12Z</time>
      </trkpt>
      <trkpt lat="44.62913" lon="6.64827">
        <ele>1684.918701</ele>
        <time>2011-08-16T11:35:22Z</time>
      </trkpt>
      <trkpt lat="44.62918" lon="6.64805">
        <ele>1684.587524</ele>
        <time>2011-08-16T11:35:35Z</time>
      </trkpt>
      <trkpt lat="44.62925" lon="6.64777">
        <ele>1682.665039</ele>
        <time>2011-08-16T11:35:53Z</time>
      </trkpt>
      <trkpt lat="44.62923" lon="6.64753">
        <ele>1684.051514</ele>
        <time>2011-08-16T11:36:03Z</time>
      </trkpt>
      <trkpt lat="44.62913" lon="6.64737">
        <ele>1688.865479</ele>
        <time>2011-08-16T11:36:13Z</time>
      </trkpt>
      <trkpt lat="44.629" lon="6.64723">
        <ele>1694.16626</ele>
        <time>2011-08-16T11:36:26Z</time>
      </trkpt>
      <trkpt lat="44.62892" lon="6.64705">
        <ele>1694.31189</ele>
        <time>2011-08-16T11:36:36Z</time>
      </trkpt>
      <trkpt lat="44.62882" lon="6.64683">
        <ele>1692.985718</ele>
        <time>2011-08-16T11:36:48Z</time>
      </trkpt>
      <trkpt lat="44.62872" lon="6.64668">
        <ele>1692.854736</ele>
        <time>2011-08-16T11:36:56Z</time>
      </trkpt>
      <trkpt lat="44.62863" lon="6.6465">
        <ele>1692.043823</ele>
        <time>2011-08-16T11:37:06Z</time>
      </trkpt>
      <trkpt lat="44.62852" lon="6.64628">
        <ele>1692.414673</ele>
        <time>2011-08-16T11:37:19Z</time>
      </trkpt>
      <trkpt lat="44.62842" lon="6.6461">
        <ele>1691.925659</ele>
        <time>2011-08-16T11:37:31Z</time>
      </trkpt>
      <trkpt lat="44.62828" lon="6.64607">
        <ele>1693.926147</ele>
        <time>2011-08-16T11:37:41Z</time>
      </trkpt>
      <trkpt lat="44.62815" lon="6.64627">
        <ele>1698.833374</ele>
        <time>2011-08-16T11:37:59Z</time>
      </trkpt>
      <trkpt lat="44.62803" lon="6.64642">
        <ele>1702.601196</ele>
        <time>2011-08-16T11:38:09Z</time>
      </trkpt>
      <trkpt lat="44.62793" lon="6.64655">
        <ele>1705.151367</ele>
        <time>2011-08-16T11:38:20Z</time>
      </trkpt>
      <trkpt lat="44.62785" lon="6.6467">
        <ele>1708.430054</ele>
        <time>2011-08-16T11:38:30Z</time>
      </trkpt>
      <trkpt lat="44.62782" lon="6.6469">
        <ele>1712.126587</ele>
        <time>2011-08-16T11:38:40Z</time>
      </trkpt>
      <trkpt lat="44.62793" lon="6.647">
        <ele>1713.326416</ele>
        <time>2011-08-16T11:38:52Z</time>
      </trkpt>
      <trkpt lat="44.6281" lon="6.64695">
        <ele>1710.853027</ele>
        <time>2011-08-16T11:39:02Z</time>
      </trkpt>
      <trkpt lat="44.62822" lon="6.64707">
        <ele>1711.521362</ele>
        <time>2011-08-16T11:39:12Z</time>
      </trkpt>
      <trkpt lat="44.6281" lon="6.6472">
        <ele>1715.612061</ele>
        <time>2011-08-16T11:39:23Z</time>
      </trkpt>
      <trkpt lat="44.62795" lon="6.64725">
        <ele>1717.905884</ele>
        <time>2011-08-16T11:39:33Z</time>
      </trkpt>
      <trkpt lat="44.62782" lon="6.6473">
        <ele>1719.343994</ele>
        <time>2011-08-16T11:39:41Z</time>
      </trkpt>
      <trkpt lat="44.62768" lon="6.64733">
        <ele>1720.466431</ele>
        <time>2011-08-16T11:39:49Z</time>
      </trkpt>
      <trkpt lat="44.62753" lon="6.64733">
        <ele>1721.102905</ele>
        <time>2011-08-16T11:40:00Z</time>
      </trkpt>
      <trkpt lat="44.62738" lon="6.64737">
        <ele>1722.889404</ele>
        <time>2011-08-16T11:40:12Z</time>
      </trkpt>
      <trkpt lat="44.62722" lon="6.64738">
        <ele>1724.553833</ele>
        <time>2011-08-16T11:40:24Z</time>
      </trkpt>
      <trkpt lat="44.62708" lon="6.64735">
        <ele>1725.105713</ele>
        <time>2011-08-16T11:40:36Z</time>
      </trkpt>
      <trkpt lat="44.62695" lon="6.64752">
        <ele>1731.004028</ele>
        <time>2011-08-16T11:40:53Z</time>
      </trkpt>
      <trkpt lat="44.62713" lon="6.64762">
        <ele>1730.287842</ele>
        <time>2011-08-16T11:41:11Z</time>
      </trkpt>
      <trkpt lat="44.62737" lon="6.64782">
        <ele>1731.65979</ele>
        <time>2011-08-16T11:41:34Z</time>
      </trkpt>
      <trkpt lat="44.62747" lon="6.64798">
        <ele>1732.998413</ele>
        <time>2011-08-16T11:41:46Z</time>
      </trkpt>
      <trkpt lat="44.62742" lon="6.6482">
        <ele>1736.74585</ele>
        <time>2011-08-16T11:41:58Z</time>
      </trkpt>
      <trkpt lat="44.6273" lon="6.6483">
        <ele>1739.829834</ele>
        <time>2011-08-16T11:42:06Z</time>
      </trkpt>
      <trkpt lat="44.62717" lon="6.64835">
        <ele>1742.525269</ele>
        <time>2011-08-16T11:42:14Z</time>
      </trkpt>
      <trkpt lat="44.62703" lon="6.6483">
        <ele>1743.776245</ele>
        <time>2011-08-16T11:42:27Z</time>
      </trkpt>
      <trkpt lat="44.62692" lon="6.64818">
        <ele>1743.972046</ele>
        <time>2011-08-16T11:42:37Z</time>
      </trkpt>
      <trkpt lat="44.62682" lon="6.64803">
        <ele>1743.181641</ele>
        <time>2011-08-16T11:42:45Z</time>
      </trkpt>
      <trkpt lat="44.62668" lon="6.64792">
        <ele>1743.480957</ele>
        <time>2011-08-16T11:43:44Z</time>
      </trkpt>
      <trkpt lat="44.62637" lon="6.64767">
        <ele>1747.363159</ele>
        <time>2011-08-16T11:44:02Z</time>
      </trkpt>
      <trkpt lat="44.62603" lon="6.64742">
        <ele>1753.505737</ele>
        <time>2011-08-16T11:44:21Z</time>
      </trkpt>
      <trkpt lat="44.62592" lon="6.6473">
        <ele>1755.550171</ele>
        <time>2011-08-16T11:44:27Z</time>
      </trkpt>
      <trkpt lat="44.6258" lon="6.64713">
        <ele>1756.227539</ele>
        <time>2011-08-16T11:44:35Z</time>
      </trkpt>
      <trkpt lat="44.6257" lon="6.64698">
        <ele>1757.635986</ele>
        <time>2011-08-16T11:44:43Z</time>
      </trkpt>
      <trkpt lat="44.62563" lon="6.64682">
        <ele>1758.908691</ele>
        <time>2011-08-16T11:44:49Z</time>
      </trkpt>
      <trkpt lat="44.62555" lon="6.64663">
        <ele>1760.422607</ele>
        <time>2011-08-16T11:44:55Z</time>
      </trkpt>
      <trkpt lat="44.62543" lon="6.64638">
        <ele>1761.901001</ele>
        <time>2011-08-16T11:45:05Z</time>
      </trkpt>
      <trkpt lat="44.62538" lon="6.64617">
        <ele>1761.796387</ele>
        <time>2011-08-16T11:45:14Z</time>
      </trkpt>
      <trkpt lat="44.62533" lon="6.64595">
        <ele>1762.157959</ele>
        <time>2011-08-16T11:45:22Z</time>
      </trkpt>
      <trkpt lat="44.62528" lon="6.64575">
        <ele>1762.78479</ele>
        <time>2011-08-16T11:45:30Z</time>
      </trkpt>
      <trkpt lat="44.6252" lon="6.64557">
        <ele>1765.745972</ele>
        <time>2011-08-16T11:45:38Z</time>
      </trkpt>
      <trkpt lat="44.62508" lon="6.64538">
        <ele>1770.073853</ele>
        <time>2011-08-16T11:45:46Z</time>
      </trkpt>
      <trkpt lat="44.62498" lon="6.64523">
        <ele>1773.240112</ele>
        <time>2011-08-16T11:45:54Z</time>
      </trkpt>
      <trkpt lat="44.625" lon="6.64502">
        <ele>1770.72583</ele>
        <time>2011-08-16T11:46:03Z</time>
      </trkpt>
      <trkpt lat="44.625" lon="6.64478">
        <ele>1768.999634</ele>
        <time>2011-08-16T11:46:11Z</time>
      </trkpt>
      <trkpt lat="44.62492" lon="6.64458">
        <ele>1770.5625</ele>
        <time>2011-08-16T11:46:19Z</time>
      </trkpt>
      <trkpt lat="44.62485" lon="6.64438">
        <ele>1771.732544</ele>
        <time>2011-08-16T11:46:27Z</time>
      </trkpt>
      <trkpt lat="44.62483" lon="6.64418">
        <ele>1771.979736</ele>
        <time>2011-08-16T11:46:33Z</time>
      </trkpt>
      <trkpt lat="44.62478" lon="6.64398">
        <ele>1773.486694</ele>
        <time>2011-08-16T11:46:41Z</time>
      </trkpt>
      <trkpt lat="44.62472" lon="6.64382">
        <ele>1775.638306</ele>
        <time>2011-08-16T11:46:49Z</time>
      </trkpt>
      <trkpt lat="44.62463" lon="6.64362">
        <ele>1779.126953</ele>
        <time>2011-08-16T11:46:57Z</time>
      </trkpt>
      <trkpt lat="44.62457" lon="6.64342">
        <ele>1782.641479</ele>
        <time>2011-08-16T11:47:06Z</time>
      </trkpt>
      <trkpt lat="44.62455" lon="6.64317">
        <ele>1784.645996</ele>
        <time>2011-08-16T11:47:16Z</time>
      </trkpt>
      <trkpt lat="44.62458" lon="6.64295">
        <ele>1785.194824</ele>
        <time>2011-08-16T11:47:26Z</time>
      </trkpt>
      <trkpt lat="44.62465" lon="6.64272">
        <ele>1784.643921</ele>
        <time>2011-08-16T11:47:36Z</time>
      </trkpt>
      <trkpt lat="44.62468" lon="6.64252">
        <ele>1785.135376</ele>
        <time>2011-08-16T11:47:44Z</time>
      </trkpt>
      <trkpt lat="44.6247" lon="6.64228">
        <ele>1787.91333</ele>
        <time>2011-08-16T11:47:52Z</time>
      </trkpt>
      <trkpt lat="44.62473" lon="6.64197">
        <ele>1791.49292</ele>
        <time>2011-08-16T11:48:09Z</time>
      </trkpt>
      <trkpt lat="44.6248" lon="6.6418">
        <ele>1791.660278</ele>
        <time>2011-08-16T11:48:17Z</time>
      </trkpt>
      <trkpt lat="44.62488" lon="6.64163">
        <ele>1791.689575</ele>
        <time>2011-08-16T11:48:25Z</time>
      </trkpt>
      <trkpt lat="44.625" lon="6.64142">
        <ele>1791.849731</ele>
        <time>2011-08-16T11:48:35Z</time>
      </trkpt>
      <trkpt lat="44.6251" lon="6.64127">
        <ele>1791.702026</ele>
        <time>2011-08-16T11:48:45Z</time>
      </trkpt>
      <trkpt lat="44.62518" lon="6.6411">
        <ele>1794.947266</ele>
        <time>2011-08-16T11:48:56Z</time>
      </trkpt>
      <trkpt lat="44.62527" lon="6.6409">
        <ele>1799.159912</ele>
        <time>2011-08-16T11:49:06Z</time>
      </trkpt>
      <trkpt lat="44.62537" lon="6.64077">
        <ele>1800.841309</ele>
        <time>2011-08-16T11:49:18Z</time>
      </trkpt>
      <trkpt lat="44.6255" lon="6.64062">
        <ele>1802.408081</ele>
        <time>2011-08-16T11:49:28Z</time>
      </trkpt>
      <trkpt lat="44.62563" lon="6.64052">
        <ele>1802.922852</ele>
        <time>2011-08-16T11:49:40Z</time>
      </trkpt>
      <trkpt lat="44.62577" lon="6.64042">
        <ele>1803.313477</ele>
        <time>2011-08-16T11:49:51Z</time>
      </trkpt>
      <trkpt lat="44.6259" lon="6.64032">
        <ele>1803.302246</ele>
        <time>2011-08-16T11:50:01Z</time>
      </trkpt>
      <trkpt lat="44.62603" lon="6.64022">
        <ele>1802.889038</ele>
        <time>2011-08-16T11:50:11Z</time>
      </trkpt>
      <trkpt lat="44.62617" lon="6.64012">
        <ele>1801.786743</ele>
        <time>2011-08-16T11:50:21Z</time>
      </trkpt>
      <trkpt lat="44.62627" lon="6.63997">
        <ele>1801.325073</ele>
        <time>2011-08-16T11:50:34Z</time>
      </trkpt>
      <trkpt lat="44.62632" lon="6.63978">
        <ele>1802.478271</ele>
        <time>2011-08-16T11:50:46Z</time>
      </trkpt>
      <trkpt lat="44.62627" lon="6.6395">
        <ele>1808.674805</ele>
        <time>2011-08-16T11:51:04Z</time>
      </trkpt>
      <trkpt lat="44.6262" lon="6.63932">
        <ele>1812.259888</ele>
        <time>2011-08-16T11:51:21Z</time>
      </trkpt>
      <trkpt lat="44.62617" lon="6.63907">
        <ele>1814.279663</ele>
        <time>2011-08-16T11:51:41Z</time>
      </trkpt>
      <trkpt lat="44.62605" lon="6.63895">
        <ele>1818.807129</ele>
        <time>2011-08-16T11:51:53Z</time>
      </trkpt>
      <trkpt lat="44.62595" lon="6.63908">
        <ele>1821.530029</ele>
        <time>2011-08-16T11:52:10Z</time>
      </trkpt>
      <trkpt lat="44.62593" lon="6.63932">
        <ele>1821.392334</ele>
        <time>2011-08-16T11:58:17Z</time>
      </trkpt>
      <trkpt lat="44.62595" lon="6.63952">
        <ele>1819.158081</ele>
        <time>2011-08-16T11:58:25Z</time>
      </trkpt>
      <trkpt lat="44.6258" lon="6.63948">
        <ele>1824.207642</ele>
        <time>2011-08-16T11:58:36Z</time>
      </trkpt>
      <trkpt lat="44.62573" lon="6.63928">
        <ele>1827.678711</ele>
        <time>2011-08-16T11:58:48Z</time>
      </trkpt>
      <trkpt lat="44.62572" lon="6.63907">
        <ele>1828.80188</ele>
        <time>2011-08-16T11:59:00Z</time>
      </trkpt>
      <trkpt lat="44.62565" lon="6.63887">
        <ele>1831.426636</ele>
        <time>2011-08-16T11:59:12Z</time>
      </trkpt>
      <trkpt lat="44.6256" lon="6.63867">
        <ele>1832.856812</ele>
        <time>2011-08-16T11:59:25Z</time>
      </trkpt>
      <trkpt lat="44.62555" lon="6.63847">
        <ele>1833.625488</ele>
        <time>2011-08-16T11:59:37Z</time>
      </trkpt>
      <trkpt lat="44.62553" lon="6.63827">
        <ele>1833.358032</ele>
        <time>2011-08-16T11:59:49Z</time>
      </trkpt>
      <trkpt lat="44.62543" lon="6.6381">
        <ele>1834.805298</ele>
        <time>2011-08-16T12:00:02Z</time>
      </trkpt>
      <trkpt lat="44.62532" lon="6.63793">
        <ele>1835.827393</ele>
        <time>2011-08-16T12:00:14Z</time>
      </trkpt>
      <trkpt lat="44.62518" lon="6.63785">
        <ele>1837.822998</ele>
        <time>2011-08-16T12:00:22Z</time>
      </trkpt>
      <trkpt lat="44.62505" lon="6.63773">
        <ele>1839.373779</ele>
        <time>2011-08-16T12:00:30Z</time>
      </trkpt>
      <trkpt lat="44.62492" lon="6.63758">
        <ele>1841.003906</ele>
        <time>2011-08-16T12:00:38Z</time>
      </trkpt>
      <trkpt lat="44.62483" lon="6.6374">
        <ele>1841.809937</ele>
        <time>2011-08-16T12:00:47Z</time>
      </trkpt>
      <trkpt lat="44.62473" lon="6.63723">
        <ele>1843.039429</ele>
        <time>2011-08-16T12:00:55Z</time>
      </trkpt>
      <trkpt lat="44.62465" lon="6.63707">
        <ele>1843.829956</ele>
        <time>2011-08-16T12:01:03Z</time>
      </trkpt>
      <trkpt lat="44.62452" lon="6.63688">
        <ele>1845.557495</ele>
        <time>2011-08-16T12:01:13Z</time>
      </trkpt>
      <trkpt lat="44.62438" lon="6.63683">
        <ele>1847.793701</ele>
        <time>2011-08-16T12:01:19Z</time>
      </trkpt>
      <trkpt lat="44.62425" lon="6.63675">
        <ele>1849.724365</ele>
        <time>2011-08-16T12:01:29Z</time>
      </trkpt>
      <trkpt lat="44.62418" lon="6.63653">
        <ele>1850.221313</ele>
        <time>2011-08-16T12:01:41Z</time>
      </trkpt>
      <trkpt lat="44.62413" lon="6.63635">
        <ele>1850.540649</ele>
        <time>2011-08-16T12:01:49Z</time>
      </trkpt>
      <trkpt lat="44.62415" lon="6.63615">
        <ele>1849.764771</ele>
        <time>2011-08-16T12:01:56Z</time>
      </trkpt>
      <trkpt lat="44.62432" lon="6.63598">
        <ele>1846.706421</ele>
        <time>2011-08-16T12:02:02Z</time>
      </trkpt>
      <trkpt lat="44.62438" lon="6.6358">
        <ele>1845.18396</ele>
        <time>2011-08-16T12:02:06Z</time>
      </trkpt>
      <trkpt lat="44.62438" lon="6.63557">
        <ele>1844.585693</ele>
        <time>2011-08-16T12:02:10Z</time>
      </trkpt>
      <trkpt lat="44.62435" lon="6.63537">
        <ele>1843.908203</ele>
        <time>2011-08-16T12:02:14Z</time>
      </trkpt>
      <trkpt lat="44.62432" lon="6.63513">
        <ele>1842.972412</ele>
        <time>2011-08-16T12:02:18Z</time>
      </trkpt>
      <trkpt lat="44.62435" lon="6.6348">
        <ele>1839.846924</ele>
        <time>2011-08-16T12:02:22Z</time>
      </trkpt>
      <trkpt lat="44.6243" lon="6.6346">
        <ele>1839.074463</ele>
        <time>2011-08-16T12:02:26Z</time>
      </trkpt>
      <trkpt lat="44.62425" lon="6.63442">
        <ele>1838.606934</ele>
        <time>2011-08-16T12:02:30Z</time>
      </trkpt>
      <trkpt lat="44.62407" lon="6.63437">
        <ele>1842.629272</ele>
        <time>2011-08-16T12:02:36Z</time>
      </trkpt>
      <trkpt lat="44.62383" lon="6.63435">
        <ele>1846.014282</ele>
        <time>2011-08-16T12:02:44Z</time>
      </trkpt>
      <trkpt lat="44.62368" lon="6.63423">
        <ele>1846.839478</ele>
        <time>2011-08-16T12:02:50Z</time>
      </trkpt>
      <trkpt lat="44.62355" lon="6.63408">
        <ele>1846.390503</ele>
        <time>2011-08-16T12:02:56Z</time>
      </trkpt>
      <trkpt lat="44.6235" lon="6.6339">
        <ele>1844.283691</ele>
        <time>2011-08-16T12:03:03Z</time>
      </trkpt>
      <trkpt lat="44.62337" lon="6.63375">
        <ele>1843.471436</ele>
        <time>2011-08-16T12:03:09Z</time>
      </trkpt>
      <trkpt lat="44.62323" lon="6.63372">
        <ele>1844.276855</ele>
        <time>2011-08-16T12:03:13Z</time>
      </trkpt>
      <trkpt lat="44.62308" lon="6.63363">
        <ele>1844.651611</ele>
        <time>2011-08-16T12:03:17Z</time>
      </trkpt>
      <trkpt lat="44.6229" lon="6.6335">
        <ele>1845.128906</ele>
        <time>2011-08-16T12:03:21Z</time>
      </trkpt>
      <trkpt lat="44.62277" lon="6.63335">
        <ele>1846.505249</ele>
        <time>2011-08-16T12:03:25Z</time>
      </trkpt>
      <trkpt lat="44.62262" lon="6.63325">
        <ele>1848.439697</ele>
        <time>2011-08-16T12:03:29Z</time>
      </trkpt>
      <trkpt lat="44.62252" lon="6.63342">
        <ele>1849.174561</ele>
        <time>2011-08-16T12:03:37Z</time>
      </trkpt>
      <trkpt lat="44.62238" lon="6.63347">
        <ele>1850.508911</ele>
        <time>2011-08-16T12:03:47Z</time>
      </trkpt>
      <trkpt lat="44.62225" lon="6.6334">
        <ele>1852.206055</ele>
        <time>2011-08-16T12:03:55Z</time>
      </trkpt>
      <trkpt lat="44.62212" lon="6.6333">
        <ele>1854.093872</ele>
        <time>2011-08-16T12:04:03Z</time>
      </trkpt>
      <trkpt lat="44.62205" lon="6.63308">
        <ele>1855.798828</ele>
        <time>2011-08-16T12:04:11Z</time>
      </trkpt>
      <trkpt lat="44.62192" lon="6.633">
        <ele>1857.817993</ele>
        <time>2011-08-16T12:04:17Z</time>
      </trkpt>
      <trkpt lat="44.62177" lon="6.63295">
        <ele>1860.017578</ele>
        <time>2011-08-16T12:04:25Z</time>
      </trkpt>
      <trkpt lat="44.62162" lon="6.63293">
        <ele>1862.241211</ele>
        <time>2011-08-16T12:04:35Z</time>
      </trkpt>
      <trkpt lat="44.62145" lon="6.63293">
        <ele>1864.578613</ele>
        <time>2011-08-16T12:04:45Z</time>
      </trkpt>
      <trkpt lat="44.6213" lon="6.6329">
        <ele>1866.751709</ele>
        <time>2011-08-16T12:04:56Z</time>
      </trkpt>
      <trkpt lat="44.6213" lon="6.63268">
        <ele>1869.364868</ele>
        <time>2011-08-16T12:06:15Z</time>
      </trkpt>
      <trkpt lat="44.62165" lon="6.63292">
        <ele>1861.878418</ele>
        <time>2011-08-16T12:06:33Z</time>
      </trkpt>
      <trkpt lat="44.6219" lon="6.63297">
        <ele>1858.188721</ele>
        <time>2011-08-16T12:06:37Z</time>
      </trkpt>
      <trkpt lat="44.62207" lon="6.63292">
        <ele>1856.322998</ele>
        <time>2011-08-16T12:06:42Z</time>
      </trkpt>
      <trkpt lat="44.62215" lon="6.63277">
        <ele>1856.814819</ele>
        <time>2011-08-16T12:06:46Z</time>
      </trkpt>
      <trkpt lat="44.62227" lon="6.63252">
        <ele>1859.469849</ele>
        <time>2011-08-16T12:06:58Z</time>
      </trkpt>
      <trkpt lat="44.62237" lon="6.63227">
        <ele>1862.006592</ele>
        <time>2011-08-16T12:07:10Z</time>
      </trkpt>
      <trkpt lat="44.6225" lon="6.63215">
        <ele>1861.854736</ele>
        <time>2011-08-16T12:07:18Z</time>
      </trkpt>
      <trkpt lat="44.62262" lon="6.63203">
        <ele>1861.90686</ele>
        <time>2011-08-16T12:07:26Z</time>
      </trkpt>
      <trkpt lat="44.6227" lon="6.63188">
        <ele>1862.95813</ele>
        <time>2011-08-16T12:07:34Z</time>
      </trkpt>
      <trkpt lat="44.62278" lon="6.63172">
        <ele>1864.159912</ele>
        <time>2011-08-16T12:07:42Z</time>
      </trkpt>
      <trkpt lat="44.62285" lon="6.63147">
        <ele>1865.755005</ele>
        <time>2011-08-16T12:07:52Z</time>
      </trkpt>
      <trkpt lat="44.62288" lon="6.63125">
        <ele>1866.996216</ele>
        <time>2011-08-16T12:08:00Z</time>
      </trkpt>
      <trkpt lat="44.62282" lon="6.63107">
        <ele>1869.884766</ele>
        <time>2011-08-16T12:08:08Z</time>
      </trkpt>
      <trkpt lat="44.62268" lon="6.6311">
        <ele>1872.408325</ele>
        <time>2011-08-16T12:08:16Z</time>
      </trkpt>
      <trkpt lat="44.62257" lon="6.63125">
        <ele>1873.608643</ele>
        <time>2011-08-16T12:08:27Z</time>
      </trkpt>
      <trkpt lat="44.62242" lon="6.63133">
        <ele>1876.115234</ele>
        <time>2011-08-16T12:08:37Z</time>
      </trkpt>
      <trkpt lat="44.62227" lon="6.63137">
        <ele>1878.618774</ele>
        <time>2011-08-16T12:08:45Z</time>
      </trkpt>
      <trkpt lat="44.62208" lon="6.63138">
        <ele>1881.099976</ele>
        <time>2011-08-16T12:08:53Z</time>
      </trkpt>
      <trkpt lat="44.62193" lon="6.63137">
        <ele>1883.375488</ele>
        <time>2011-08-16T12:09:01Z</time>
      </trkpt>
      <trkpt lat="44.62188" lon="6.63118">
        <ele>1885.36377</ele>
        <time>2011-08-16T12:09:09Z</time>
      </trkpt>
      <trkpt lat="44.62197" lon="6.63103">
        <ele>1885.296143</ele>
        <time>2011-08-16T12:09:15Z</time>
      </trkpt>
      <trkpt lat="44.6221" lon="6.63092">
        <ele>1884.274048</ele>
        <time>2011-08-16T12:09:23Z</time>
      </trkpt>
      <trkpt lat="44.62222" lon="6.6308">
        <ele>1882.72522</ele>
        <time>2011-08-16T12:09:29Z</time>
      </trkpt>
      <trkpt lat="44.6222" lon="6.63058">
        <ele>1883.115479</ele>
        <time>2011-08-16T12:09:37Z</time>
      </trkpt>
      <trkpt lat="44.62205" lon="6.63055">
        <ele>1885.754272</ele>
        <time>2011-08-16T12:09:46Z</time>
      </trkpt>
      <trkpt lat="44.62188" lon="6.63058">
        <ele>1888.39978</ele>
        <time>2011-08-16T12:09:54Z</time>
      </trkpt>
      <trkpt lat="44.62168" lon="6.63062">
        <ele>1890.855103</ele>
        <time>2011-08-16T12:10:04Z</time>
      </trkpt>
      <trkpt lat="44.62157" lon="6.6305">
        <ele>1893.054077</ele>
        <time>2011-08-16T12:10:16Z</time>
      </trkpt>
      <trkpt lat="44.62152" lon="6.6303">
        <ele>1895.035522</ele>
        <time>2011-08-16T12:10:24Z</time>
      </trkpt>
      <trkpt lat="44.6214" lon="6.63013">
        <ele>1897.644409</ele>
        <time>2011-08-16T12:10:32Z</time>
      </trkpt>
      <trkpt lat="44.6213" lon="6.62998">
        <ele>1899.859375</ele>
        <time>2011-08-16T12:10:40Z</time>
      </trkpt>
      <trkpt lat="44.62123" lon="6.62982">
        <ele>1901.909302</ele>
        <time>2011-08-16T12:10:48Z</time>
      </trkpt>
      <trkpt lat="44.62125" lon="6.62958">
        <ele>1903.657471</ele>
        <time>2011-08-16T12:10:56Z</time>
      </trkpt>
      <trkpt lat="44.62137" lon="6.62942">
        <ele>1904.346924</ele>
        <time>2011-08-16T12:11:04Z</time>
      </trkpt>
      <trkpt lat="44.6215" lon="6.62928">
        <ele>1904.551636</ele>
        <time>2011-08-16T12:11:12Z</time>
      </trkpt>
      <trkpt lat="44.62167" lon="6.62918">
        <ele>1903.476074</ele>
        <time>2011-08-16T12:11:19Z</time>
      </trkpt>
      <trkpt lat="44.6218" lon="6.6291">
        <ele>1902.640869</ele>
        <time>2011-08-16T12:11:25Z</time>
      </trkpt>
      <trkpt lat="44.62207" lon="6.62918">
        <ele>1897.228638</ele>
        <time>2011-08-16T12:16:26Z</time>
      </trkpt>
      <trkpt lat="44.62193" lon="6.62923">
        <ele>1898.925415</ele>
        <time>2011-08-16T12:16:38Z</time>
      </trkpt>
      <trkpt lat="44.62178" lon="6.62915">
        <ele>1902.218994</ele>
        <time>2011-08-16T12:16:46Z</time>
      </trkpt>
      <trkpt lat="44.62165" lon="6.62927">
        <ele>1902.611084</ele>
        <time>2011-08-16T12:16:57Z</time>
      </trkpt>
      <trkpt lat="44.6215" lon="6.62937">
        <ele>1903.456055</ele>
        <time>2011-08-16T12:17:03Z</time>
      </trkpt>
      <trkpt lat="44.62138" lon="6.62953">
        <ele>1902.661987</ele>
        <time>2011-08-16T12:17:07Z</time>
      </trkpt>
      <trkpt lat="44.62128" lon="6.6298">
        <ele>1901.431519</ele>
        <time>2011-08-16T12:17:11Z</time>
      </trkpt>
      <trkpt lat="44.62122" lon="6.63002">
        <ele>1900.558838</ele>
        <time>2011-08-16T12:17:17Z</time>
      </trkpt>
      <trkpt lat="44.62105" lon="6.63032">
        <ele>1900.085449</ele>
        <time>2011-08-16T12:17:25Z</time>
      </trkpt>
      <trkpt lat="44.62103" lon="6.63058">
        <ele>1898.4552</ele>
        <time>2011-08-16T12:17:31Z</time>
      </trkpt>
      <trkpt lat="44.62098" lon="6.63085">
        <ele>1897.205444</ele>
        <time>2011-08-16T12:17:37Z</time>
      </trkpt>
      <trkpt lat="44.62088" lon="6.63102">
        <ele>1896.752808</ele>
        <time>2011-08-16T12:17:43Z</time>
      </trkpt>
      <trkpt lat="44.62073" lon="6.63115">
        <ele>1897.090942</ele>
        <time>2011-08-16T12:17:52Z</time>
      </trkpt>
      <trkpt lat="44.6206" lon="6.63118">
        <ele>1898.231934</ele>
        <time>2011-08-16T12:18:14Z</time>
      </trkpt>
      <trkpt lat="44.62048" lon="6.63107">
        <ele>1900.983154</ele>
        <time>2011-08-16T12:18:24Z</time>
      </trkpt>
      <trkpt lat="44.62047" lon="6.63085">
        <ele>1903.839844</ele>
        <time>2011-08-16T12:18:36Z</time>
      </trkpt>
      <trkpt lat="44.6205" lon="6.63065">
        <ele>1904.900269</ele>
        <time>2011-08-16T12:18:46Z</time>
      </trkpt>
      <trkpt lat="44.62048" lon="6.63045">
        <ele>1906.541382</ele>
        <time>2011-08-16T12:18:56Z</time>
      </trkpt>
      <trkpt lat="44.62045" lon="6.63023">
        <ele>1908.549194</ele>
        <time>2011-08-16T12:19:07Z</time>
      </trkpt>
      <trkpt lat="44.62043" lon="6.63002">
        <ele>1910.220947</ele>
        <time>2011-08-16T12:19:17Z</time>
      </trkpt>
      <trkpt lat="44.62038" lon="6.62983">
        <ele>1912.087036</ele>
        <time>2011-08-16T12:19:27Z</time>
      </trkpt>
      <trkpt lat="44.62037" lon="6.62953">
        <ele>1914.232178</ele>
        <time>2011-08-16T12:19:46Z</time>
      </trkpt>
      <trkpt lat="44.6204" lon="6.62933">
        <ele>1916.17334</ele>
        <time>2011-08-16T12:19:58Z</time>
      </trkpt>
      <trkpt lat="44.62045" lon="6.62915">
        <ele>1917.830078</ele>
        <time>2011-08-16T12:20:10Z</time>
      </trkpt>
      <trkpt lat="44.62055" lon="6.629">
        <ele>1918.769897</ele>
        <time>2011-08-16T12:20:20Z</time>
      </trkpt>
      <trkpt lat="44.62067" lon="6.62888">
        <ele>1919.411499</ele>
        <time>2011-08-16T12:20:33Z</time>
      </trkpt>
      <trkpt lat="44.62078" lon="6.62878">
        <ele>1919.809448</ele>
        <time>2011-08-16T12:20:43Z</time>
      </trkpt>
      <trkpt lat="44.62093" lon="6.62875">
        <ele>1918.609985</ele>
        <time>2011-08-16T12:21:07Z</time>
      </trkpt>
      <trkpt lat="44.62108" lon="6.62873">
        <ele>1917.114136</ele>
        <time>2011-08-16T12:21:13Z</time>
      </trkpt>
      <trkpt lat="44.62127" lon="6.62872">
        <ele>1915.272217</ele>
        <time>2011-08-16T12:21:15Z</time>
      </trkpt>
      <trkpt lat="44.6214" lon="6.62865">
        <ele>1914.740234</ele>
        <time>2011-08-16T12:21:17Z</time>
      </trkpt>
      <trkpt lat="44.6215" lon="6.62852">
        <ele>1915.504639</ele>
        <time>2011-08-16T12:21:19Z</time>
      </trkpt>
      <trkpt lat="44.6216" lon="6.62833">
        <ele>1917.046509</ele>
        <time>2011-08-16T12:21:23Z</time>
      </trkpt>
      <trkpt lat="44.6217" lon="6.62818">
        <ele>1918.483765</ele>
        <time>2011-08-16T12:21:32Z</time>
      </trkpt>
      <trkpt lat="44.62182" lon="6.62805">
        <ele>1919.24646</ele>
        <time>2011-08-16T12:21:40Z</time>
      </trkpt>
      <trkpt lat="44.622" lon="6.62785">
        <ele>1920.046143</ele>
        <time>2011-08-16T12:21:52Z</time>
      </trkpt>
      <trkpt lat="44.62212" lon="6.62768">
        <ele>1921.541504</ele>
        <time>2011-08-16T12:22:00Z</time>
      </trkpt>
      <trkpt lat="44.6222" lon="6.62753">
        <ele>1923.31311</ele>
        <time>2011-08-16T12:22:06Z</time>
      </trkpt>
      <trkpt lat="44.62228" lon="6.62738">
        <ele>1925.084595</ele>
        <time>2011-08-16T12:22:12Z</time>
      </trkpt>
      <trkpt lat="44.62243" lon="6.62727">
        <ele>1925.262451</ele>
        <time>2011-08-16T12:22:20Z</time>
      </trkpt>
      <trkpt lat="44.62255" lon="6.62715">
        <ele>1925.658447</ele>
        <time>2011-08-16T12:22:28Z</time>
      </trkpt>
      <trkpt lat="44.62267" lon="6.62705">
        <ele>1925.549072</ele>
        <time>2011-08-16T12:22:36Z</time>
      </trkpt>
      <trkpt lat="44.62282" lon="6.62685">
        <ele>1926.997314</ele>
        <time>2011-08-16T12:22:54Z</time>
      </trkpt>
      <trkpt lat="44.6229" lon="6.6267">
        <ele>1928.730591</ele>
        <time>2011-08-16T12:23:02Z</time>
      </trkpt>
      <trkpt lat="44.62298" lon="6.62655">
        <ele>1930.63147</ele>
        <time>2011-08-16T12:23:10Z</time>
      </trkpt>
      <trkpt lat="44.6231" lon="6.62645">
        <ele>1931.270752</ele>
        <time>2011-08-16T12:23:19Z</time>
      </trkpt>
      <trkpt lat="44.6232" lon="6.6263">
        <ele>1933.193115</ele>
        <time>2011-08-16T12:23:27Z</time>
      </trkpt>
      <trkpt lat="44.62328" lon="6.62615">
        <ele>1935.388794</ele>
        <time>2011-08-16T12:23:35Z</time>
      </trkpt>
      <trkpt lat="44.62335" lon="6.62597">
        <ele>1938.537231</ele>
        <time>2011-08-16T12:23:43Z</time>
      </trkpt>
      <trkpt lat="44.62345" lon="6.6258">
        <ele>1941.03772</ele>
        <time>2011-08-16T12:23:51Z</time>
      </trkpt>
      <trkpt lat="44.62357" lon="6.62565">
        <ele>1942.057861</ele>
        <time>2011-08-16T12:24:04Z</time>
      </trkpt>
      <trkpt lat="44.6237" lon="6.6255">
        <ele>1942.49707</ele>
        <time>2011-08-16T12:24:16Z</time>
      </trkpt>
      <trkpt lat="44.6238" lon="6.62533">
        <ele>1943.596313</ele>
        <time>2011-08-16T12:24:26Z</time>
      </trkpt>
      <trkpt lat="44.62387" lon="6.62515">
        <ele>1945.539795</ele>
        <time>2011-08-16T12:24:36Z</time>
      </trkpt>
      <trkpt lat="44.62393" lon="6.62493">
        <ele>1948.207031</ele>
        <time>2011-08-16T12:24:46Z</time>
      </trkpt>
      <trkpt lat="44.62397" lon="6.62473">
        <ele>1951.204224</ele>
        <time>2011-08-16T12:24:56Z</time>
      </trkpt>
      <trkpt lat="44.62395" lon="6.62453">
        <ele>1953.68335</ele>
        <time>2011-08-16T12:25:06Z</time>
      </trkpt>
      <trkpt lat="44.62398" lon="6.62417">
        <ele>1957.864502</ele>
        <time>2011-08-16T12:25:24Z</time>
      </trkpt>
      <trkpt lat="44.6241" lon="6.62405">
        <ele>1960.261353</ele>
        <time>2011-08-16T12:25:36Z</time>
      </trkpt>
      <trkpt lat="44.62423" lon="6.62408">
        <ele>1960.186279</ele>
        <time>2011-08-16T12:25:47Z</time>
      </trkpt>
      <trkpt lat="44.62435" lon="6.62418">
        <ele>1958.772949</ele>
        <time>2011-08-16T12:25:57Z</time>
      </trkpt>
      <trkpt lat="44.62448" lon="6.62423">
        <ele>1958.528809</ele>
        <time>2011-08-16T12:26:07Z</time>
      </trkpt>
      <trkpt lat="44.62462" lon="6.62428">
        <ele>1958.353516</ele>
        <time>2011-08-16T12:26:17Z</time>
      </trkpt>
      <trkpt lat="44.62457" lon="6.62407">
        <ele>1962.535278</ele>
        <time>2011-08-16T12:26:35Z</time>
      </trkpt>
      <trkpt lat="44.62445" lon="6.62395">
        <ele>1963.735962</ele>
        <time>2011-08-16T12:26:48Z</time>
      </trkpt>
      <trkpt lat="44.62435" lon="6.62382">
        <ele>1965.62854</ele>
        <time>2011-08-16T12:26:58Z</time>
      </trkpt>
      <trkpt lat="44.62433" lon="6.62362">
        <ele>1969.256958</ele>
        <time>2011-08-16T12:27:10Z</time>
      </trkpt>
      <trkpt lat="44.62453" lon="6.62357">
        <ele>1971.803223</ele>
        <time>2011-08-16T12:27:28Z</time>
      </trkpt>
      <trkpt lat="44.62468" lon="6.62367">
        <ele>1971.403076</ele>
        <time>2011-08-16T12:27:40Z</time>
      </trkpt>
      <trkpt lat="44.62482" lon="6.62373">
        <ele>1971.413208</ele>
        <time>2011-08-16T12:27:51Z</time>
      </trkpt>
      <trkpt lat="44.62497" lon="6.62377">
        <ele>1971.605713</ele>
        <time>2011-08-16T12:28:01Z</time>
      </trkpt>
      <trkpt lat="44.6251" lon="6.62373">
        <ele>1972.75061</ele>
        <time>2011-08-16T12:28:09Z</time>
      </trkpt>
      <trkpt lat="44.62522" lon="6.62362">
        <ele>1975.686523</ele>
        <time>2011-08-16T12:28:19Z</time>
      </trkpt>
      <trkpt lat="44.6253" lon="6.62345">
        <ele>1979.405273</ele>
        <time>2011-08-16T12:28:29Z</time>
      </trkpt>
      <trkpt lat="44.6254" lon="6.62328">
        <ele>1982.55896</ele>
        <time>2011-08-16T12:28:39Z</time>
      </trkpt>
      <trkpt lat="44.62553" lon="6.6232">
        <ele>1983.411499</ele>
        <time>2011-08-16T12:28:52Z</time>
      </trkpt>
      <trkpt lat="44.6257" lon="6.62322">
        <ele>1981.861084</ele>
        <time>2011-08-16T12:29:04Z</time>
      </trkpt>
      <trkpt lat="44.62582" lon="6.62312">
        <ele>1983.484253</ele>
        <time>2011-08-16T12:29:12Z</time>
      </trkpt>
      <trkpt lat="44.62595" lon="6.623">
        <ele>1984.405029</ele>
        <time>2011-08-16T12:29:20Z</time>
      </trkpt>
      <trkpt lat="44.62608" lon="6.62288">
        <ele>1985.195801</ele>
        <time>2011-08-16T12:29:31Z</time>
      </trkpt>
      <trkpt lat="44.62618" lon="6.62273">
        <ele>1987.263672</ele>
        <time>2011-08-16T12:29:41Z</time>
      </trkpt>
      <trkpt lat="44.62627" lon="6.62258">
        <ele>1989.520996</ele>
        <time>2011-08-16T12:29:51Z</time>
      </trkpt>
      <trkpt lat="44.62633" lon="6.62235">
        <ele>1993.347656</ele>
        <time>2011-08-16T12:30:03Z</time>
      </trkpt>
      <trkpt lat="44.62635" lon="6.62215">
        <ele>1997.379395</ele>
        <time>2011-08-16T12:31:46Z</time>
      </trkpt>
      <trkpt lat="44.62645" lon="6.62202">
        <ele>1998.071167</ele>
        <time>2011-08-16T12:31:56Z</time>
      </trkpt>
      <trkpt lat="44.62657" lon="6.62188">
        <ele>1998.69458</ele>
        <time>2011-08-16T12:32:04Z</time>
      </trkpt>
      <trkpt lat="44.62668" lon="6.62173">
        <ele>1999.64856</ele>
        <time>2011-08-16T12:32:12Z</time>
      </trkpt>
      <trkpt lat="44.62678" lon="6.6216">
        <ele>2000.533569</ele>
        <time>2011-08-16T12:32:21Z</time>
      </trkpt>
      <trkpt lat="44.62688" lon="6.62147">
        <ele>2001.751953</ele>
        <time>2011-08-16T12:32:31Z</time>
      </trkpt>
      <trkpt lat="44.62698" lon="6.6213">
        <ele>2004.035889</ele>
        <time>2011-08-16T12:32:41Z</time>
      </trkpt>
      <trkpt lat="44.6271" lon="6.62113">
        <ele>2006.499756</ele>
        <time>2011-08-16T12:32:51Z</time>
      </trkpt>
      <trkpt lat="44.6273" lon="6.62087">
        <ele>2011.577515</ele>
        <time>2011-08-16T12:33:09Z</time>
      </trkpt>
      <trkpt lat="44.62742" lon="6.62077">
        <ele>2013.902832</ele>
        <time>2011-08-16T12:33:21Z</time>
      </trkpt>
      <trkpt lat="44.62755" lon="6.62067">
        <ele>2016.01416</ele>
        <time>2011-08-16T12:33:29Z</time>
      </trkpt>
      <trkpt lat="44.6277" lon="6.62067">
        <ele>2015.626221</ele>
        <time>2011-08-16T12:33:40Z</time>
      </trkpt>
      <trkpt lat="44.62785" lon="6.62067">
        <ele>2014.895508</ele>
        <time>2011-08-16T12:33:50Z</time>
      </trkpt>
      <trkpt lat="44.62798" lon="6.6206">
        <ele>2014.668701</ele>
        <time>2011-08-16T12:33:58Z</time>
      </trkpt>
      <trkpt lat="44.62807" lon="6.62043">
        <ele>2015.157227</ele>
        <time>2011-08-16T12:34:06Z</time>
      </trkpt>
      <trkpt lat="44.62815" lon="6.62023">
        <ele>2015.362915</ele>
        <time>2011-08-16T12:34:19Z</time>
      </trkpt>
      <trkpt lat="44.62818" lon="6.62003">
        <ele>2015.744507</ele>
        <time>2011-08-16T12:34:29Z</time>
      </trkpt>
      <trkpt lat="44.62818" lon="6.6198">
        <ele>2016.353882</ele>
        <time>2011-08-16T12:34:37Z</time>
      </trkpt>
      <trkpt lat="44.62818" lon="6.61958">
        <ele>2016.91394</ele>
        <time>2011-08-16T12:34:46Z</time>
      </trkpt>
      <trkpt lat="44.62817" lon="6.61938">
        <ele>2017.711304</ele>
        <time>2011-08-16T12:34:54Z</time>
      </trkpt>
      <trkpt lat="44.62812" lon="6.6192">
        <ele>2018.857056</ele>
        <time>2011-08-16T12:35:04Z</time>
      </trkpt>
      <trkpt lat="44.62808" lon="6.619">
        <ele>2019.692505</ele>
        <time>2011-08-16T12:35:34Z</time>
      </trkpt>
      <trkpt lat="44.628" lon="6.61878">
        <ele>2022.36792</ele>
        <time>2011-08-16T12:35:47Z</time>
      </trkpt>
      <trkpt lat="44.62792" lon="6.61853">
        <ele>2023.932251</ele>
        <time>2011-08-16T12:35:53Z</time>
      </trkpt>
      <trkpt lat="44.62783" lon="6.61832">
        <ele>2025.654907</ele>
        <time>2011-08-16T12:35:57Z</time>
      </trkpt>
      <trkpt lat="44.62777" lon="6.61808">
        <ele>2025.680786</ele>
        <time>2011-08-16T12:36:01Z</time>
      </trkpt>
      <trkpt lat="44.6277" lon="6.6179">
        <ele>2023.764038</ele>
        <time>2011-08-16T12:36:05Z</time>
      </trkpt>
      <trkpt lat="44.62765" lon="6.6177">
        <ele>2021.185791</ele>
        <time>2011-08-16T12:36:09Z</time>
      </trkpt>
      <trkpt lat="44.62763" lon="6.61748">
        <ele>2017.546265</ele>
        <time>2011-08-16T12:36:13Z</time>
      </trkpt>
      <trkpt lat="44.62757" lon="6.61728">
        <ele>2014.398071</ele>
        <time>2011-08-16T12:36:17Z</time>
      </trkpt>
      <trkpt lat="44.62745" lon="6.61707">
        <ele>2011.956421</ele>
        <time>2011-08-16T12:36:21Z</time>
      </trkpt>
      <trkpt lat="44.62718" lon="6.6166">
        <ele>2007.353149</ele>
        <time>2011-08-16T12:36:31Z</time>
      </trkpt>
      <trkpt lat="44.62705" lon="6.61643">
        <ele>2006.049683</ele>
        <time>2011-08-16T12:36:35Z</time>
      </trkpt>
      <trkpt lat="44.6269" lon="6.6162">
        <ele>2002.790039</ele>
        <time>2011-08-16T12:36:39Z</time>
      </trkpt>
      <trkpt lat="44.62668" lon="6.61587">
        <ele>1997.492065</ele>
        <time>2011-08-16T12:36:46Z</time>
      </trkpt>
      <trkpt lat="44.62655" lon="6.61568">
        <ele>1994.594482</ele>
        <time>2011-08-16T12:36:50Z</time>
      </trkpt>
      <trkpt lat="44.62642" lon="6.61552">
        <ele>1992.297729</ele>
        <time>2011-08-16T12:36:54Z</time>
      </trkpt>
      <trkpt lat="44.62627" lon="6.61535">
        <ele>1991.066162</ele>
        <time>2011-08-16T12:37:00Z</time>
      </trkpt>
      <trkpt lat="44.62613" lon="6.61522">
        <ele>1990.22937</ele>
        <time>2011-08-16T12:37:06Z</time>
      </trkpt>
      <trkpt lat="44.62607" lon="6.61505">
        <ele>1987.460083</ele>
        <time>2011-08-16T12:37:14Z</time>
      </trkpt>
      <trkpt lat="44.6259" lon="6.61487">
        <ele>1985.69519</ele>
        <time>2011-08-16T12:37:22Z</time>
      </trkpt>
      <trkpt lat="44.62578" lon="6.61468">
        <ele>1983.610596</ele>
        <time>2011-08-16T12:37:26Z</time>
      </trkpt>
      <trkpt lat="44.62568" lon="6.61453">
        <ele>1982.088501</ele>
        <time>2011-08-16T12:37:34Z</time>
      </trkpt>
      <trkpt lat="44.62575" lon="6.61435">
        <ele>1977.408325</ele>
        <time>2011-08-16T12:37:55Z</time>
      </trkpt>
      <trkpt lat="44.6257" lon="6.61412">
        <ele>1973.463867</ele>
        <time>2011-08-16T12:38:01Z</time>
      </trkpt>
      <trkpt lat="44.62568" lon="6.61392">
        <ele>1969.692749</ele>
        <time>2011-08-16T12:38:07Z</time>
      </trkpt>
      <trkpt lat="44.6257" lon="6.61372">
        <ele>1965.425171</ele>
        <time>2011-08-16T12:38:33Z</time>
      </trkpt>
      <trkpt lat="44.6257" lon="6.61343">
        <ele>1960.326294</ele>
        <time>2011-08-16T12:38:51Z</time>
      </trkpt>
      <trkpt lat="44.6259" lon="6.61345">
        <ele>1957.841919</ele>
        <time>2011-08-16T12:39:22Z</time>
      </trkpt>
      <trkpt lat="44.62605" lon="6.61357">
        <ele>1957.346069</ele>
        <time>2011-08-16T12:39:26Z</time>
      </trkpt>
      <trkpt lat="44.62623" lon="6.61353">
        <ele>1954.603394</ele>
        <time>2011-08-16T12:39:30Z</time>
      </trkpt>
      <trkpt lat="44.62642" lon="6.61345">
        <ele>1951.769287</ele>
        <time>2011-08-16T12:39:32Z</time>
      </trkpt>
      <trkpt lat="44.62665" lon="6.6133">
        <ele>1947.602417</ele>
        <time>2011-08-16T12:39:36Z</time>
      </trkpt>
      <trkpt lat="44.62688" lon="6.61313">
        <ele>1943.168335</ele>
        <time>2011-08-16T12:39:40Z</time>
      </trkpt>
      <trkpt lat="44.62698" lon="6.6129">
        <ele>1940.266602</ele>
        <time>2011-08-16T12:39:44Z</time>
      </trkpt>
      <trkpt lat="44.62692" lon="6.61262">
        <ele>1939.41626</ele>
        <time>2011-08-16T12:39:49Z</time>
      </trkpt>
      <trkpt lat="44.62685" lon="6.61228">
        <ele>1938.80127</ele>
        <time>2011-08-16T12:39:53Z</time>
      </trkpt>
      <trkpt lat="44.62682" lon="6.61198">
        <ele>1938.707031</ele>
        <time>2011-08-16T12:39:57Z</time>
      </trkpt>
      <trkpt lat="44.62682" lon="6.61178">
        <ele>1938.399536</ele>
        <time>2011-08-16T12:40:01Z</time>
      </trkpt>
      <trkpt lat="44.62682" lon="6.61158">
        <ele>1938.374023</ele>
        <time>2011-08-16T12:40:05Z</time>
      </trkpt>
      <trkpt lat="44.6268" lon="6.61138">
        <ele>1938.64978</ele>
        <time>2011-08-16T12:40:13Z</time>
      </trkpt>
      <trkpt lat="44.62688" lon="6.6116">
        <ele>1937.444214</ele>
        <time>2011-08-16T12:40:44Z</time>
      </trkpt>
      <trkpt lat="44.62708" lon="6.61163">
        <ele>1934.673828</ele>
        <time>2011-08-16T12:40:50Z</time>
      </trkpt>
      <trkpt lat="44.62725" lon="6.61163">
        <ele>1932.345703</ele>
        <time>2011-08-16T12:40:54Z</time>
      </trkpt>
      <trkpt lat="44.62743" lon="6.6116">
        <ele>1929.699463</ele>
        <time>2011-08-16T12:40:58Z</time>
      </trkpt>
      <trkpt lat="44.62762" lon="6.61155">
        <ele>1926.896118</ele>
        <time>2011-08-16T12:41:02Z</time>
      </trkpt>
      <trkpt lat="44.6278" lon="6.61148">
        <ele>1923.429688</ele>
        <time>2011-08-16T12:41:06Z</time>
      </trkpt>
      <trkpt lat="44.628" lon="6.61138">
        <ele>1919.580444</ele>
        <time>2011-08-16T12:41:10Z</time>
      </trkpt>
      <trkpt lat="44.62818" lon="6.61132">
        <ele>1915.572021</ele>
        <time>2011-08-16T12:41:14Z</time>
      </trkpt>
      <trkpt lat="44.62847" lon="6.61122">
        <ele>1908.923584</ele>
        <time>2011-08-16T12:41:20Z</time>
      </trkpt>
      <trkpt lat="44.62863" lon="6.6111">
        <ele>1904.96521</ele>
        <time>2011-08-16T12:41:24Z</time>
      </trkpt>
      <trkpt lat="44.6288" lon="6.611">
        <ele>1901.175903</ele>
        <time>2011-08-16T12:41:28Z</time>
      </trkpt>
      <trkpt lat="44.629" lon="6.6109">
        <ele>1896.678467</ele>
        <time>2011-08-16T12:41:32Z</time>
      </trkpt>
      <trkpt lat="44.62918" lon="6.61095">
        <ele>1892.918945</ele>
        <time>2011-08-16T12:41:36Z</time>
      </trkpt>
      <trkpt lat="44.62933" lon="6.61095">
        <ele>1889.665527</ele>
        <time>2011-08-16T12:41:40Z</time>
      </trkpt>
      <trkpt lat="44.62952" lon="6.61098">
        <ele>1885.552979</ele>
        <time>2011-08-16T12:41:44Z</time>
      </trkpt>
      <trkpt lat="44.6297" lon="6.61103">
        <ele>1881.285889</ele>
        <time>2011-08-16T12:41:51Z</time>
      </trkpt>
      <trkpt lat="44.62985" lon="6.61098">
        <ele>1877.101563</ele>
        <time>2011-08-16T12:41:55Z</time>
      </trkpt>
      <trkpt lat="44.63" lon="6.611">
        <ele>1873.022705</ele>
        <time>2011-08-16T12:41:59Z</time>
      </trkpt>
      <trkpt lat="44.63017" lon="6.61103">
        <ele>1868.548096</ele>
        <time>2011-08-16T12:42:05Z</time>
      </trkpt>
      <trkpt lat="44.63033" lon="6.61115">
        <ele>1864.974731</ele>
        <time>2011-08-16T12:42:11Z</time>
      </trkpt>
      <trkpt lat="44.63047" lon="6.61132">
        <ele>1863.50415</ele>
        <time>2011-08-16T12:42:15Z</time>
      </trkpt>
      <trkpt lat="44.6306" lon="6.6114">
        <ele>1861.38501</ele>
        <time>2011-08-16T12:42:17Z</time>
      </trkpt>
      <trkpt lat="44.63075" lon="6.61132">
        <ele>1856.618286</ele>
        <time>2011-08-16T12:42:21Z</time>
      </trkpt>
      <trkpt lat="44.63078" lon="6.6111">
        <ele>1852.560913</ele>
        <time>2011-08-16T12:42:26Z</time>
      </trkpt>
      <trkpt lat="44.63083" lon="6.61075">
        <ele>1845.971436</ele>
        <time>2011-08-16T12:42:31Z</time>
      </trkpt>
      <trkpt lat="44.63082" lon="6.61055">
        <ele>1843.102173</ele>
        <time>2011-08-16T12:42:36Z</time>
      </trkpt>
      <trkpt lat="44.63083" lon="6.61028">
        <ele>1838.274902</ele>
        <time>2011-08-16T12:42:42Z</time>
      </trkpt>
      <trkpt lat="44.63087" lon="6.61003">
        <ele>1833.922485</ele>
        <time>2011-08-16T12:42:48Z</time>
      </trkpt>
      <trkpt lat="44.63097" lon="6.6099">
        <ele>1829.698975</ele>
        <time>2011-08-16T12:42:54Z</time>
      </trkpt>
      <trkpt lat="44.63112" lon="6.61">
        <ele>1827.006958</ele>
        <time>2011-08-16T12:43:00Z</time>
      </trkpt>
      <trkpt lat="44.63125" lon="6.61017">
        <ele>1825.727173</ele>
        <time>2011-08-16T12:43:06Z</time>
      </trkpt>
      <trkpt lat="44.63142" lon="6.61022">
        <ele>1822.153809</ele>
        <time>2011-08-16T12:43:49Z</time>
      </trkpt>
      <trkpt lat="44.63157" lon="6.61018">
        <ele>1817.779663</ele>
        <time>2011-08-16T12:43:53Z</time>
      </trkpt>
      <trkpt lat="44.63172" lon="6.61017">
        <ele>1813.635742</ele>
        <time>2011-08-16T12:43:57Z</time>
      </trkpt>
      <trkpt lat="44.6319" lon="6.61018">
        <ele>1810.005981</ele>
        <time>2011-08-16T12:44:03Z</time>
      </trkpt>
      <trkpt lat="44.63212" lon="6.6102">
        <ele>1805.665771</ele>
        <time>2011-08-16T12:44:09Z</time>
      </trkpt>
      <trkpt lat="44.63225" lon="6.61023">
        <ele>1802.620117</ele>
        <time>2011-08-16T12:44:13Z</time>
      </trkpt>
      <trkpt lat="44.6323" lon="6.61053">
        <ele>1805.119385</ele>
        <time>2011-08-16T12:44:19Z</time>
      </trkpt>
      <trkpt lat="44.63238" lon="6.61075">
        <ele>1805.011719</ele>
        <time>2011-08-16T12:44:25Z</time>
      </trkpt>
      <trkpt lat="44.63252" lon="6.6109">
        <ele>1801.960449</ele>
        <time>2011-08-16T12:44:31Z</time>
      </trkpt>
      <trkpt lat="44.63268" lon="6.61108">
        <ele>1796.067505</ele>
        <time>2011-08-16T12:44:40Z</time>
      </trkpt>
      <trkpt lat="44.63277" lon="6.6113">
        <ele>1792.749146</ele>
        <time>2011-08-16T12:44:44Z</time>
      </trkpt>
      <trkpt lat="44.63283" lon="6.61148">
        <ele>1789.708618</ele>
        <time>2011-08-16T12:44:48Z</time>
      </trkpt>
      <trkpt lat="44.63288" lon="6.61183">
        <ele>1785.039551</ele>
        <time>2011-08-16T12:44:56Z</time>
      </trkpt>
      <trkpt lat="44.63287" lon="6.61212">
        <ele>1783.400757</ele>
        <time>2011-08-16T12:45:02Z</time>
      </trkpt>
      <trkpt lat="44.63278" lon="6.61235">
        <ele>1784.512817</ele>
        <time>2011-08-16T12:45:08Z</time>
      </trkpt>
      <trkpt lat="44.63273" lon="6.61258">
        <ele>1783.236816</ele>
        <time>2011-08-16T12:45:14Z</time>
      </trkpt>
      <trkpt lat="44.6329" lon="6.61262">
        <ele>1775.459229</ele>
        <time>2011-08-16T12:45:27Z</time>
      </trkpt>
      <trkpt lat="44.633" lon="6.6128">
        <ele>1768.986084</ele>
        <time>2011-08-16T12:45:31Z</time>
      </trkpt>
      <trkpt lat="44.63305" lon="6.61298">
        <ele>1765.629395</ele>
        <time>2011-08-16T12:45:35Z</time>
      </trkpt>
      <trkpt lat="44.63317" lon="6.61338">
        <ele>1759.664185</ele>
        <time>2011-08-16T12:45:43Z</time>
      </trkpt>
      <trkpt lat="44.63325" lon="6.61353">
        <ele>1756.719604</ele>
        <time>2011-08-16T12:45:47Z</time>
      </trkpt>
      <trkpt lat="44.63337" lon="6.61367">
        <ele>1753.210571</ele>
        <time>2011-08-16T12:45:52Z</time>
      </trkpt>
      <trkpt lat="44.63352" lon="6.6138">
        <ele>1749.675537</ele>
        <time>2011-08-16T12:45:56Z</time>
      </trkpt>
      <trkpt lat="44.63367" lon="6.61387">
        <ele>1746.359009</ele>
        <time>2011-08-16T12:46:00Z</time>
      </trkpt>
      <trkpt lat="44.63383" lon="6.6138">
        <ele>1742.502808</ele>
        <time>2011-08-16T12:46:06Z</time>
      </trkpt>
      <trkpt lat="44.63395" lon="6.61365">
        <ele>1739.592773</ele>
        <time>2011-08-16T12:46:14Z</time>
      </trkpt>
      <trkpt lat="44.6341" lon="6.61352">
        <ele>1735.597534</ele>
        <time>2011-08-16T12:46:23Z</time>
      </trkpt>
      <trkpt lat="44.63425" lon="6.61342">
        <ele>1731.249756</ele>
        <time>2011-08-16T12:46:27Z</time>
      </trkpt>
      <trkpt lat="44.63442" lon="6.61333">
        <ele>1726.241699</ele>
        <time>2011-08-16T12:46:31Z</time>
      </trkpt>
      <trkpt lat="44.63455" lon="6.61342">
        <ele>1723.544312</ele>
        <time>2011-08-16T12:46:35Z</time>
      </trkpt>
      <trkpt lat="44.63467" lon="6.61355">
        <ele>1721.840454</ele>
        <time>2011-08-16T12:46:39Z</time>
      </trkpt>
      <trkpt lat="44.63488" lon="6.61385">
        <ele>1719.634766</ele>
        <time>2011-08-16T12:46:43Z</time>
      </trkpt>
      <trkpt lat="44.63507" lon="6.61405">
        <ele>1717.074585</ele>
        <time>2011-08-16T12:46:47Z</time>
      </trkpt>
      <trkpt lat="44.63523" lon="6.61418">
        <ele>1713.954712</ele>
        <time>2011-08-16T12:46:52Z</time>
      </trkpt>
      <trkpt lat="44.63537" lon="6.61427">
        <ele>1711.006714</ele>
        <time>2011-08-16T12:46:56Z</time>
      </trkpt>
      <trkpt lat="44.63555" lon="6.61438">
        <ele>1706.551147</ele>
        <time>2011-08-16T12:47:00Z</time>
      </trkpt>
      <trkpt lat="44.63572" lon="6.61455">
        <ele>1700.670898</ele>
        <time>2011-08-16T12:47:04Z</time>
      </trkpt>
      <trkpt lat="44.63587" lon="6.61472">
        <ele>1693.936523</ele>
        <time>2011-08-16T12:47:08Z</time>
      </trkpt>
      <trkpt lat="44.63597" lon="6.61492">
        <ele>1688.269287</ele>
        <time>2011-08-16T12:47:12Z</time>
      </trkpt>
      <trkpt lat="44.63593" lon="6.61513">
        <ele>1686.881836</ele>
        <time>2011-08-16T12:47:18Z</time>
      </trkpt>
      <trkpt lat="44.63597" lon="6.61535">
        <ele>1681.494507</ele>
        <time>2011-08-16T12:48:46Z</time>
      </trkpt>
      <trkpt lat="44.63597" lon="6.61558">
        <ele>1677.435303</ele>
        <time>2011-08-16T12:48:52Z</time>
      </trkpt>
      <trkpt lat="44.63587" lon="6.61575">
        <ele>1680.188599</ele>
        <time>2011-08-16T12:48:58Z</time>
      </trkpt>
      <trkpt lat="44.63578" lon="6.61598">
        <ele>1680.881836</ele>
        <time>2011-08-16T12:49:04Z</time>
      </trkpt>
      <trkpt lat="44.63567" lon="6.61622">
        <ele>1683.926758</ele>
        <time>2011-08-16T12:49:11Z</time>
      </trkpt>
      <trkpt lat="44.63558" lon="6.6164">
        <ele>1685.700806</ele>
        <time>2011-08-16T12:49:15Z</time>
      </trkpt>
      <trkpt lat="44.63553" lon="6.6166">
        <ele>1685.227417</ele>
        <time>2011-08-16T12:49:19Z</time>
      </trkpt>
      <trkpt lat="44.63553" lon="6.61682">
        <ele>1681.145264</ele>
        <time>2011-08-16T12:49:23Z</time>
      </trkpt>
      <trkpt lat="44.6356" lon="6.6171">
        <ele>1671.207642</ele>
        <time>2011-08-16T12:49:29Z</time>
      </trkpt>
      <trkpt lat="44.63568" lon="6.61732">
        <ele>1661.352783</ele>
        <time>2011-08-16T12:49:33Z</time>
      </trkpt>
      <trkpt lat="44.6357" lon="6.61755">
        <ele>1656.304443</ele>
        <time>2011-08-16T12:49:37Z</time>
      </trkpt>
      <trkpt lat="44.63573" lon="6.61775">
        <ele>1651.661011</ele>
        <time>2011-08-16T12:49:41Z</time>
      </trkpt>
      <trkpt lat="44.6357" lon="6.61807">
        <ele>1650.127808</ele>
        <time>2011-08-16T12:49:47Z</time>
      </trkpt>
      <trkpt lat="44.63565" lon="6.61842">
        <ele>1649.459351</ele>
        <time>2011-08-16T12:49:53Z</time>
      </trkpt>
      <trkpt lat="44.63568" lon="6.61867">
        <ele>1645.103271</ele>
        <time>2011-08-16T12:50:00Z</time>
      </trkpt>
      <trkpt lat="44.63577" lon="6.61928">
        <ele>1637.646729</ele>
        <time>2011-08-16T12:50:10Z</time>
      </trkpt>
      <trkpt lat="44.63583" lon="6.61953">
        <ele>1633.938843</ele>
        <time>2011-08-16T12:50:14Z</time>
      </trkpt>
      <trkpt lat="44.63592" lon="6.61987">
        <ele>1629.44812</ele>
        <time>2011-08-16T12:50:18Z</time>
      </trkpt>
      <trkpt lat="44.63595" lon="6.62015">
        <ele>1627.278564</ele>
        <time>2011-08-16T12:50:22Z</time>
      </trkpt>
      <trkpt lat="44.63595" lon="6.62048">
        <ele>1626.58667</ele>
        <time>2011-08-16T12:50:26Z</time>
      </trkpt>
      <trkpt lat="44.63597" lon="6.62102">
        <ele>1620.66272</ele>
        <time>2011-08-16T12:50:32Z</time>
      </trkpt>
      <trkpt lat="44.63585" lon="6.62135">
        <ele>1622.756714</ele>
        <time>2011-08-16T12:50:36Z</time>
      </trkpt>
      <trkpt lat="44.63578" lon="6.62152">
        <ele>1623.75415</ele>
        <time>2011-08-16T12:50:38Z</time>
      </trkpt>
      <trkpt lat="44.63572" lon="6.62183">
        <ele>1622.138184</ele>
        <time>2011-08-16T12:50:42Z</time>
      </trkpt>
      <trkpt lat="44.63567" lon="6.62202">
        <ele>1622.120728</ele>
        <time>2011-08-16T12:50:44Z</time>
      </trkpt>
      <trkpt lat="44.63567" lon="6.62235">
        <ele>1617.25</ele>
        <time>2011-08-16T12:50:48Z</time>
      </trkpt>
      <trkpt lat="44.63567" lon="6.62263">
        <ele>1613.525635</ele>
        <time>2011-08-16T12:50:52Z</time>
      </trkpt>
      <trkpt lat="44.63572" lon="6.62293">
        <ele>1607.708008</ele>
        <time>2011-08-16T12:50:56Z</time>
      </trkpt>
      <trkpt lat="44.63573" lon="6.62315">
        <ele>1604.997559</ele>
        <time>2011-08-16T12:50:58Z</time>
      </trkpt>
      <trkpt lat="44.63592" lon="6.62303">
        <ele>1598.690796</ele>
        <time>2011-08-16T12:53:37Z</time>
      </trkpt>
      <trkpt lat="44.63602" lon="6.62282">
        <ele>1596.252563</ele>
        <time>2011-08-16T12:53:39Z</time>
      </trkpt>
      <trkpt lat="44.6368" lon="6.62125">
        <ele>1580.067383</ele>
        <time>2011-08-16T12:54:00Z</time>
      </trkpt>
      <trkpt lat="44.63698" lon="6.62123">
        <ele>1573.570313</ele>
        <time>2011-08-16T12:54:18Z</time>
      </trkpt>
      <trkpt lat="44.63717" lon="6.62127">
        <ele>1567.850708</ele>
        <time>2011-08-16T12:54:26Z</time>
      </trkpt>
      <trkpt lat="44.63737" lon="6.62132">
        <ele>1563.350464</ele>
        <time>2011-08-16T12:54:32Z</time>
      </trkpt>
      <trkpt lat="44.63762" lon="6.62133">
        <ele>1556.06958</ele>
        <time>2011-08-16T12:55:11Z</time>
      </trkpt>
      <trkpt lat="44.63777" lon="6.62142">
        <ele>1551.436768</ele>
        <time>2011-08-16T12:55:41Z</time>
      </trkpt>
      <trkpt lat="44.6379" lon="6.6215">
        <ele>1546.373779</ele>
        <time>2011-08-16T12:55:47Z</time>
      </trkpt>
      <trkpt lat="44.63802" lon="6.6216">
        <ele>1542.406128</ele>
        <time>2011-08-16T12:55:53Z</time>
      </trkpt>
      <trkpt lat="44.63808" lon="6.62178">
        <ele>1541.444214</ele>
        <time>2011-08-16T12:55:59Z</time>
      </trkpt>
      <trkpt lat="44.6383" lon="6.62203">
        <ele>1534.230225</ele>
        <time>2011-08-16T12:57:34Z</time>
      </trkpt>
      <trkpt lat="44.63843" lon="6.62212">
        <ele>1528.839478</ele>
        <time>2011-08-16T12:58:08Z</time>
      </trkpt>
      <trkpt lat="44.63857" lon="6.62218">
        <ele>1523.723511</ele>
        <time>2011-08-16T12:58:16Z</time>
      </trkpt>
      <trkpt lat="44.63875" lon="6.62217">
        <ele>1516.254272</ele>
        <time>2011-08-16T12:58:29Z</time>
      </trkpt>
      <trkpt lat="44.639" lon="6.62218">
        <ele>1506.297607</ele>
        <time>2011-08-16T12:58:47Z</time>
      </trkpt>
      <trkpt lat="44.63915" lon="6.62237">
        <ele>1502.187622</ele>
        <time>2011-08-16T12:58:53Z</time>
      </trkpt>
      <trkpt lat="44.63923" lon="6.62257">
        <ele>1501.307983</ele>
        <time>2011-08-16T12:58:59Z</time>
      </trkpt>
      <trkpt lat="44.63933" lon="6.6227">
        <ele>1499.364868</ele>
        <time>2011-08-16T12:59:08Z</time>
      </trkpt>
      <trkpt lat="44.63942" lon="6.62287">
        <ele>1498.377686</ele>
        <time>2011-08-16T12:59:16Z</time>
      </trkpt>
      <trkpt lat="44.63952" lon="6.62302">
        <ele>1495.866821</ele>
        <time>2011-08-16T12:59:22Z</time>
      </trkpt>
      <trkpt lat="44.63965" lon="6.62318">
        <ele>1492.224854</ele>
        <time>2011-08-16T12:59:28Z</time>
      </trkpt>
      <trkpt lat="44.63977" lon="6.6233">
        <ele>1488.742432</ele>
        <time>2011-08-16T12:59:34Z</time>
      </trkpt>
      <trkpt lat="44.63997" lon="6.6235">
        <ele>1481.721313</ele>
        <time>2011-08-16T12:59:44Z</time>
      </trkpt>
      <trkpt lat="44.64013" lon="6.62363">
        <ele>1475.424927</ele>
        <time>2011-08-16T12:59:51Z</time>
      </trkpt>
      <trkpt lat="44.64025" lon="6.62373">
        <ele>1471.207031</ele>
        <time>2011-08-16T12:59:57Z</time>
      </trkpt>
      <trkpt lat="44.64038" lon="6.62377">
        <ele>1466.586304</ele>
        <time>2011-08-16T13:00:03Z</time>
      </trkpt>
      <trkpt lat="44.64058" lon="6.62372">
        <ele>1459.533325</ele>
        <time>2011-08-16T13:00:11Z</time>
      </trkpt>
      <trkpt lat="44.64075" lon="6.62377">
        <ele>1453.858887</ele>
        <time>2011-08-16T13:00:17Z</time>
      </trkpt>
      <trkpt lat="44.64093" lon="6.62383">
        <ele>1447.62915</ele>
        <time>2011-08-16T13:00:23Z</time>
      </trkpt>
      <trkpt lat="44.64112" lon="6.62388">
        <ele>1441.441895</ele>
        <time>2011-08-16T13:00:31Z</time>
      </trkpt>
      <trkpt lat="44.64123" lon="6.62378">
        <ele>1437.988892</ele>
        <time>2011-08-16T13:00:40Z</time>
      </trkpt>
      <trkpt lat="44.64135" lon="6.62363">
        <ele>1435.038574</ele>
        <time>2011-08-16T13:00:46Z</time>
      </trkpt>
      <trkpt lat="44.64147" lon="6.62352">
        <ele>1430.908813</ele>
        <time>2011-08-16T13:00:58Z</time>
      </trkpt>
      <trkpt lat="44.6416" lon="6.62345">
        <ele>1426.345459</ele>
        <time>2011-08-16T13:01:04Z</time>
      </trkpt>
      <trkpt lat="44.64177" lon="6.62342">
        <ele>1421.70105</ele>
        <time>2011-08-16T13:01:10Z</time>
      </trkpt>
      <trkpt lat="44.6419" lon="6.62335">
        <ele>1417.475464</ele>
        <time>2011-08-16T13:01:14Z</time>
      </trkpt>
      <trkpt lat="44.64213" lon="6.62323">
        <ele>1410.336304</ele>
        <time>2011-08-16T13:01:24Z</time>
      </trkpt>
      <trkpt lat="44.64227" lon="6.6233">
        <ele>1407.956665</ele>
        <time>2011-08-16T13:01:30Z</time>
      </trkpt>
      <trkpt lat="44.64233" lon="6.62307">
        <ele>1404.03833</ele>
        <time>2011-08-16T13:01:40Z</time>
      </trkpt>
      <trkpt lat="44.64245" lon="6.62285">
        <ele>1395.843506</ele>
        <time>2011-08-16T13:01:46Z</time>
      </trkpt>
      <trkpt lat="44.64258" lon="6.62282">
        <ele>1390.844482</ele>
        <time>2011-08-16T13:01:50Z</time>
      </trkpt>
      <trkpt lat="44.64273" lon="6.62285">
        <ele>1387.159546</ele>
        <time>2011-08-16T13:01:54Z</time>
      </trkpt>
      <trkpt lat="44.64278" lon="6.62308">
        <ele>1392.64978</ele>
        <time>2011-08-16T13:02:00Z</time>
      </trkpt>
      <trkpt lat="44.64288" lon="6.6233">
        <ele>1391.105835</ele>
        <time>2011-08-16T13:02:09Z</time>
      </trkpt>
      <trkpt lat="44.64302" lon="6.62343">
        <ele>1387.191772</ele>
        <time>2011-08-16T13:02:17Z</time>
      </trkpt>
      <trkpt lat="44.64312" lon="6.62358">
        <ele>1383.832031</ele>
        <time>2011-08-16T13:02:23Z</time>
      </trkpt>
      <trkpt lat="44.6432" lon="6.62373">
        <ele>1380.513794</ele>
        <time>2011-08-16T13:02:29Z</time>
      </trkpt>
      <trkpt lat="44.6434" lon="6.62407">
        <ele>1366.550049</ele>
        <time>2011-08-16T13:02:39Z</time>
      </trkpt>
      <trkpt lat="44.64352" lon="6.62422">
        <ele>1358.636108</ele>
        <time>2011-08-16T13:03:08Z</time>
      </trkpt>
      <trkpt lat="44.64365" lon="6.62415">
        <ele>1353.922852</ele>
        <time>2011-08-16T13:03:16Z</time>
      </trkpt>
      <trkpt lat="44.64375" lon="6.62398">
        <ele>1352.66333</ele>
        <time>2011-08-16T13:03:22Z</time>
      </trkpt>
      <trkpt lat="44.6439" lon="6.6238">
        <ele>1350.160156</ele>
        <time>2011-08-16T13:03:30Z</time>
      </trkpt>
      <trkpt lat="44.644" lon="6.62393">
        <ele>1343.351318</ele>
        <time>2011-08-16T13:03:36Z</time>
      </trkpt>
      <trkpt lat="44.64402" lon="6.62417">
        <ele>1337.428711</ele>
        <time>2011-08-16T13:03:44Z</time>
      </trkpt>
      <trkpt lat="44.64393" lon="6.62437">
        <ele>1336.76355</ele>
        <time>2011-08-16T13:03:50Z</time>
      </trkpt>
      <trkpt lat="44.64387" lon="6.62455">
        <ele>1335.103394</ele>
        <time>2011-08-16T13:03:56Z</time>
      </trkpt>
      <trkpt lat="44.6438" lon="6.62478">
        <ele>1331.854492</ele>
        <time>2011-08-16T13:04:03Z</time>
      </trkpt>
      <trkpt lat="44.64367" lon="6.62485">
        <ele>1336.309204</ele>
        <time>2011-08-16T13:04:09Z</time>
      </trkpt>
      <trkpt lat="44.64362" lon="6.62507">
        <ele>1332.776367</ele>
        <time>2011-08-16T13:04:15Z</time>
      </trkpt>
      <trkpt lat="44.64365" lon="6.6253">
        <ele>1324.792236</ele>
        <time>2011-08-16T13:04:19Z</time>
      </trkpt>
      <trkpt lat="44.64373" lon="6.62547">
        <ele>1316.424561</ele>
        <time>2011-08-16T13:05:29Z</time>
      </trkpt>
      <trkpt lat="44.64382" lon="6.62568">
        <ele>1306.876953</ele>
        <time>2011-08-16T13:06:02Z</time>
      </trkpt>
      <trkpt lat="44.6438" lon="6.6259">
        <ele>1302.42334</ele>
        <time>2011-08-16T13:06:30Z</time>
      </trkpt>
      <trkpt lat="44.64368" lon="6.62607">
        <ele>1303.639893</ele>
        <time>2011-08-16T13:06:36Z</time>
      </trkpt>
      <trkpt lat="44.64358" lon="6.62623">
        <ele>1303.928955</ele>
        <time>2011-08-16T13:06:42Z</time>
      </trkpt>
      <trkpt lat="44.64352" lon="6.62643">
        <ele>1302.318604</ele>
        <time>2011-08-16T13:06:48Z</time>
      </trkpt>
      <trkpt lat="44.64352" lon="6.62663">
        <ele>1297.959473</ele>
        <time>2011-08-16T13:06:54Z</time>
      </trkpt>
      <trkpt lat="44.64343" lon="6.6268">
        <ele>1298.047241</ele>
        <time>2011-08-16T13:06:58Z</time>
      </trkpt>
      <trkpt lat="44.64338" lon="6.62702">
        <ele>1296.027222</ele>
        <time>2011-08-16T13:07:02Z</time>
      </trkpt>
      <trkpt lat="44.64335" lon="6.62732">
        <ele>1292.089722</ele>
        <time>2011-08-16T13:07:08Z</time>
      </trkpt>
      <trkpt lat="44.6433" lon="6.62753">
        <ele>1290.53125</ele>
        <time>2011-08-16T13:07:13Z</time>
      </trkpt>
      <trkpt lat="44.64328" lon="6.62775">
        <ele>1287.74707</ele>
        <time>2011-08-16T13:07:17Z</time>
      </trkpt>
      <trkpt lat="44.64327" lon="6.62822">
        <ele>1280.876343</ele>
        <time>2011-08-16T13:07:27Z</time>
      </trkpt>
      <trkpt lat="44.64327" lon="6.62848">
        <ele>1276.647705</ele>
        <time>2011-08-16T13:07:35Z</time>
      </trkpt>
      <trkpt lat="44.6433" lon="6.62875">
        <ele>1270.841919</ele>
        <time>2011-08-16T13:08:03Z</time>
      </trkpt>
      <trkpt lat="44.64325" lon="6.62895">
        <ele>1270.970459</ele>
        <time>2011-08-16T13:08:07Z</time>
      </trkpt>
      <trkpt lat="44.64322" lon="6.6292">
        <ele>1269.711914</ele>
        <time>2011-08-16T13:08:13Z</time>
      </trkpt>
      <trkpt lat="44.64327" lon="6.62938">
        <ele>1265.997314</ele>
        <time>2011-08-16T13:08:17Z</time>
      </trkpt>
      <trkpt lat="44.64335" lon="6.62955">
        <ele>1262.838257</ele>
        <time>2011-08-16T13:08:21Z</time>
      </trkpt>
      <trkpt lat="44.64348" lon="6.62968">
        <ele>1258.893066</ele>
        <time>2011-08-16T13:08:52Z</time>
      </trkpt>
      <trkpt lat="44.64363" lon="6.6297">
        <ele>1255.16748</ele>
        <time>2011-08-16T13:08:56Z</time>
      </trkpt>
      <trkpt lat="44.64387" lon="6.62963">
        <ele>1249.604614</ele>
        <time>2011-08-16T13:09:01Z</time>
      </trkpt>
      <trkpt lat="44.644" lon="6.6296">
        <ele>1246.180542</ele>
        <time>2011-08-16T13:09:07Z</time>
      </trkpt>
      <trkpt lat="44.64417" lon="6.62955">
        <ele>1243.924072</ele>
        <time>2011-08-16T13:09:15Z</time>
      </trkpt>
      <trkpt lat="44.64437" lon="6.62953">
        <ele>1242.119141</ele>
        <time>2011-08-16T13:09:21Z</time>
      </trkpt>
      <trkpt lat="44.64453" lon="6.6296">
        <ele>1241.067383</ele>
        <time>2011-08-16T13:09:25Z</time>
      </trkpt>
      <trkpt lat="44.64475" lon="6.62972">
        <ele>1239.055176</ele>
        <time>2011-08-16T13:09:29Z</time>
      </trkpt>
      <trkpt lat="44.64493" lon="6.62987">
        <ele>1237.615723</ele>
        <time>2011-08-16T13:09:31Z</time>
      </trkpt>
      <trkpt lat="44.64505" lon="6.63">
        <ele>1236.696533</ele>
        <time>2011-08-16T13:09:33Z</time>
      </trkpt>
      <trkpt lat="44.64518" lon="6.63017">
        <ele>1235.626587</ele>
        <time>2011-08-16T13:09:35Z</time>
      </trkpt>
      <trkpt lat="44.64525" lon="6.63038">
        <ele>1234.88147</ele>
        <time>2011-08-16T13:09:37Z</time>
      </trkpt>
      <trkpt lat="44.6453" lon="6.63065">
        <ele>1234.185059</ele>
        <time>2011-08-16T13:09:39Z</time>
      </trkpt>
      <trkpt lat="44.64532" lon="6.63095">
        <ele>1233.874512</ele>
        <time>2011-08-16T13:09:41Z</time>
      </trkpt>
      <trkpt lat="44.64528" lon="6.63123">
        <ele>1234.404297</ele>
        <time>2011-08-16T13:09:43Z</time>
      </trkpt>
      <trkpt lat="44.64532" lon="6.63148">
        <ele>1233.434692</ele>
        <time>2011-08-16T13:09:45Z</time>
      </trkpt>
      <trkpt lat="44.64548" lon="6.63152">
        <ele>1229.68103</ele>
        <time>2011-08-16T13:09:48Z</time>
      </trkpt>
      <trkpt lat="44.64563" lon="6.63135">
        <ele>1226.644409</ele>
        <time>2011-08-16T13:09:50Z</time>
      </trkpt>
      <trkpt lat="44.64572" lon="6.63112">
        <ele>1225.379395</ele>
        <time>2011-08-16T13:09:52Z</time>
      </trkpt>
      <trkpt lat="44.64583" lon="6.63088">
        <ele>1223.727295</ele>
        <time>2011-08-16T13:09:54Z</time>
      </trkpt>
      <trkpt lat="44.64597" lon="6.63067">
        <ele>1221.540894</ele>
        <time>2011-08-16T13:09:56Z</time>
      </trkpt>
      <trkpt lat="44.64613" lon="6.63048">
        <ele>1218.707397</ele>
        <time>2011-08-16T13:09:58Z</time>
      </trkpt>
      <trkpt lat="44.6463" lon="6.63033">
        <ele>1215.522217</ele>
        <time>2011-08-16T13:10:00Z</time>
      </trkpt>
      <trkpt lat="44.64647" lon="6.63018">
        <ele>1211.830688</ele>
        <time>2011-08-16T13:10:02Z</time>
      </trkpt>
      <trkpt lat="44.64658" lon="6.62998">
        <ele>1209.321289</ele>
        <time>2011-08-16T13:10:04Z</time>
      </trkpt>
      <trkpt lat="44.64668" lon="6.62973">
        <ele>1207.468506</ele>
        <time>2011-08-16T13:10:06Z</time>
      </trkpt>
      <trkpt lat="44.6467" lon="6.62945">
        <ele>1205.545166</ele>
        <time>2011-08-16T13:10:08Z</time>
      </trkpt>
      <trkpt lat="44.64667" lon="6.62917">
        <ele>1203.812622</ele>
        <time>2011-08-16T13:10:10Z</time>
      </trkpt>
      <trkpt lat="44.64655" lon="6.62895">
        <ele>1202.885254</ele>
        <time>2011-08-16T13:10:12Z</time>
      </trkpt>
      <trkpt lat="44.64635" lon="6.6288">
        <ele>1203.281372</ele>
        <time>2011-08-16T13:10:14Z</time>
      </trkpt>
      <trkpt lat="44.64613" lon="6.6287">
        <ele>1204.949707</ele>
        <time>2011-08-16T13:10:16Z</time>
      </trkpt>
      <trkpt lat="44.64595" lon="6.62855">
        <ele>1205.530396</ele>
        <time>2011-08-16T13:10:18Z</time>
      </trkpt>
      <trkpt lat="44.6458" lon="6.62835">
        <ele>1205.218506</ele>
        <time>2011-08-16T13:10:20Z</time>
      </trkpt>
      <trkpt lat="44.6457" lon="6.62812">
        <ele>1205.237061</ele>
        <time>2011-08-16T13:10:22Z</time>
      </trkpt>
      <trkpt lat="44.64565" lon="6.62787">
        <ele>1204.449463</ele>
        <time>2011-08-16T13:10:24Z</time>
      </trkpt>
      <trkpt lat="44.64567" lon="6.62752">
        <ele>1203.214844</ele>
        <time>2011-08-16T13:10:26Z</time>
      </trkpt>
      <trkpt lat="44.6457" lon="6.6273">
        <ele>1202.803101</ele>
        <time>2011-08-16T13:10:28Z</time>
      </trkpt>
      <trkpt lat="44.64575" lon="6.6271">
        <ele>1201.921753</ele>
        <time>2011-08-16T13:10:30Z</time>
      </trkpt>
      <trkpt lat="44.64583" lon="6.62683">
        <ele>1201.57312</ele>
        <time>2011-08-16T13:10:34Z</time>
      </trkpt>
      <trkpt lat="44.6459" lon="6.62667">
        <ele>1200.812622</ele>
        <time>2011-08-16T13:10:41Z</time>
      </trkpt>
      <trkpt lat="44.64595" lon="6.62638">
        <ele>1201.684814</ele>
        <time>2011-08-16T13:10:59Z</time>
      </trkpt>
      <trkpt lat="44.64607" lon="6.62623">
        <ele>1200.452148</ele>
        <time>2011-08-16T13:11:46Z</time>
      </trkpt>
      <trkpt lat="44.64622" lon="6.62598">
        <ele>1198.957031</ele>
        <time>2011-08-16T13:11:50Z</time>
      </trkpt>
      <trkpt lat="44.64633" lon="6.62582">
        <ele>1197.421753</ele>
        <time>2011-08-16T13:11:52Z</time>
      </trkpt>
      <trkpt lat="44.64647" lon="6.62567">
        <ele>1196.304688</ele>
        <time>2011-08-16T13:11:54Z</time>
      </trkpt>
      <trkpt lat="44.64675" lon="6.6253">
        <ele>1194.592407</ele>
        <time>2011-08-16T13:11:58Z</time>
      </trkpt>
      <trkpt lat="44.64688" lon="6.62508">
        <ele>1193.635376</ele>
        <time>2011-08-16T13:12:00Z</time>
      </trkpt>
      <trkpt lat="44.647" lon="6.62483">
        <ele>1193.973633</ele>
        <time>2011-08-16T13:12:02Z</time>
      </trkpt>
      <trkpt lat="44.6472" lon="6.62447">
        <ele>1192.23938</ele>
        <time>2011-08-16T13:12:04Z</time>
      </trkpt>
      <trkpt lat="44.64737" lon="6.62427">
        <ele>1188.790405</ele>
        <time>2011-08-16T13:12:06Z</time>
      </trkpt>
      <trkpt lat="44.64755" lon="6.62423">
        <ele>1185.77356</ele>
        <time>2011-08-16T13:12:08Z</time>
      </trkpt>
      <trkpt lat="44.64773" lon="6.62428">
        <ele>1182.25415</ele>
        <time>2011-08-16T13:12:10Z</time>
      </trkpt>
      <trkpt lat="44.64787" lon="6.6244">
        <ele>1179.184082</ele>
        <time>2011-08-16T13:12:12Z</time>
      </trkpt>
      <trkpt lat="44.64798" lon="6.6246">
        <ele>1176.016479</ele>
        <time>2011-08-16T13:12:15Z</time>
      </trkpt>
      <trkpt lat="44.64805" lon="6.62483">
        <ele>1173.210938</ele>
        <time>2011-08-16T13:12:17Z</time>
      </trkpt>
      <trkpt lat="44.6482" lon="6.6252">
        <ele>1167.265137</ele>
        <time>2011-08-16T13:12:21Z</time>
      </trkpt>
      <trkpt lat="44.64838" lon="6.62512">
        <ele>1164.649658</ele>
        <time>2011-08-16T13:12:23Z</time>
      </trkpt>
      <trkpt lat="44.64853" lon="6.62503">
        <ele>1162.763916</ele>
        <time>2011-08-16T13:12:25Z</time>
      </trkpt>
      <trkpt lat="44.64867" lon="6.62492">
        <ele>1161.814453</ele>
        <time>2011-08-16T13:12:27Z</time>
      </trkpt>
      <trkpt lat="44.64878" lon="6.62472">
        <ele>1160.600952</ele>
        <time>2011-08-16T13:12:29Z</time>
      </trkpt>
      <trkpt lat="44.64888" lon="6.6245">
        <ele>1157.754761</ele>
        <time>2011-08-16T13:12:31Z</time>
      </trkpt>
      <trkpt lat="44.64892" lon="6.62427">
        <ele>1157.001221</ele>
        <time>2011-08-16T13:12:33Z</time>
      </trkpt>
      <trkpt lat="44.64902" lon="6.6235">
        <ele>1152.101929</ele>
        <time>2011-08-16T13:12:39Z</time>
      </trkpt>
      <trkpt lat="44.64902" lon="6.62325">
        <ele>1149.103027</ele>
        <time>2011-08-16T13:12:41Z</time>
      </trkpt>
      <trkpt lat="44.64898" lon="6.62302">
        <ele>1147.445801</ele>
        <time>2011-08-16T13:12:43Z</time>
      </trkpt>
      <trkpt lat="44.6489" lon="6.62278">
        <ele>1147.229126</ele>
        <time>2011-08-16T13:12:45Z</time>
      </trkpt>
      <trkpt lat="44.64878" lon="6.62257">
        <ele>1148.039185</ele>
        <time>2011-08-16T13:12:47Z</time>
      </trkpt>
      <trkpt lat="44.64852" lon="6.62202">
        <ele>1148.477051</ele>
        <time>2011-08-16T13:12:53Z</time>
      </trkpt>
      <trkpt lat="44.64842" lon="6.62188">
        <ele>1149.815674</ele>
        <time>2011-08-16T13:12:59Z</time>
      </trkpt>
      <trkpt lat="44.64832" lon="6.62167">
        <ele>1151.521973</ele>
        <time>2011-08-16T13:13:22Z</time>
      </trkpt>
      <trkpt lat="44.64832" lon="6.62138">
        <ele>1148.297119</ele>
        <time>2011-08-16T13:13:26Z</time>
      </trkpt>
      <trkpt lat="44.64828" lon="6.62108">
        <ele>1146.765259</ele>
        <time>2011-08-16T13:13:30Z</time>
      </trkpt>
      <trkpt lat="44.64828" lon="6.62082">
        <ele>1143.703003</ele>
        <time>2011-08-16T13:13:34Z</time>
      </trkpt>
      <trkpt lat="44.64823" lon="6.62053">
        <ele>1142.786133</ele>
        <time>2011-08-16T13:13:38Z</time>
      </trkpt>
      <trkpt lat="44.64818" lon="6.62003">
        <ele>1142.434204</ele>
        <time>2011-08-16T13:13:44Z</time>
      </trkpt>
      <trkpt lat="44.64828" lon="6.6199">
        <ele>1138.709717</ele>
        <time>2011-08-16T13:13:46Z</time>
      </trkpt>
      <trkpt lat="44.64843" lon="6.6197">
        <ele>1133.759766</ele>
        <time>2011-08-16T13:13:48Z</time>
      </trkpt>
      <trkpt lat="44.64852" lon="6.6195">
        <ele>1133.501831</ele>
        <time>2011-08-16T13:13:50Z</time>
      </trkpt>
      <trkpt lat="44.64858" lon="6.61927">
        <ele>1134.524048</ele>
        <time>2011-08-16T13:13:52Z</time>
      </trkpt>
      <trkpt lat="44.64867" lon="6.61907">
        <ele>1134.59375</ele>
        <time>2011-08-16T13:13:54Z</time>
      </trkpt>
      <trkpt lat="44.64882" lon="6.61867">
        <ele>1132.0177</ele>
        <time>2011-08-16T13:13:58Z</time>
      </trkpt>
      <trkpt lat="44.64887" lon="6.61848">
        <ele>1131.373657</ele>
        <time>2011-08-16T13:14:00Z</time>
      </trkpt>
      <trkpt lat="44.649" lon="6.6187">
        <ele>1125.966431</ele>
        <time>2011-08-16T13:14:27Z</time>
      </trkpt>
      <trkpt lat="44.64907" lon="6.61903">
        <ele>1121.742676</ele>
        <time>2011-08-16T13:14:31Z</time>
      </trkpt>
      <trkpt lat="44.64923" lon="6.61897">
        <ele>1115.436646</ele>
        <time>2011-08-16T13:14:39Z</time>
      </trkpt>
      <trkpt lat="44.64925" lon="6.61873">
        <ele>1115.877197</ele>
        <time>2011-08-16T13:14:43Z</time>
      </trkpt>
      <trkpt lat="44.64918" lon="6.61835">
        <ele>1119.72168</ele>
        <time>2011-08-16T13:14:47Z</time>
      </trkpt>
      <trkpt lat="44.64913" lon="6.61815">
        <ele>1121.668579</ele>
        <time>2011-08-16T13:14:49Z</time>
      </trkpt>
      <trkpt lat="44.6491" lon="6.61795">
        <ele>1122.804321</ele>
        <time>2011-08-16T13:14:52Z</time>
      </trkpt>
      <trkpt lat="44.64913" lon="6.61773">
        <ele>1120.881226</ele>
        <time>2011-08-16T13:14:54Z</time>
      </trkpt>
      <trkpt lat="44.6492" lon="6.61728">
        <ele>1116.339844</ele>
        <time>2011-08-16T13:14:58Z</time>
      </trkpt>
      <trkpt lat="44.64922" lon="6.61707">
        <ele>1110.55957</ele>
        <time>2011-08-16T13:15:00Z</time>
      </trkpt>
      <trkpt lat="44.64907" lon="6.61702">
        <ele>1113.934448</ele>
        <time>2011-08-16T13:15:04Z</time>
      </trkpt>
      <trkpt lat="44.64883" lon="6.6171">
        <ele>1120.804688</ele>
        <time>2011-08-16T13:15:08Z</time>
      </trkpt>
      <trkpt lat="44.64858" lon="6.61708">
        <ele>1124.112183</ele>
        <time>2011-08-16T13:15:12Z</time>
      </trkpt>
      <trkpt lat="44.64835" lon="6.6171">
        <ele>1127.513916</ele>
        <time>2011-08-16T13:15:16Z</time>
      </trkpt>
      <trkpt lat="44.64815" lon="6.61703">
        <ele>1128.15979</ele>
        <time>2011-08-16T13:15:20Z</time>
      </trkpt>
      <trkpt lat="44.64797" lon="6.61688">
        <ele>1128.408325</ele>
        <time>2011-08-16T13:15:24Z</time>
      </trkpt>
      <trkpt lat="44.6478" lon="6.61685">
        <ele>1131.930542</ele>
        <time>2011-08-16T13:15:28Z</time>
      </trkpt>
      <trkpt lat="44.64762" lon="6.61673">
        <ele>1136.013794</ele>
        <time>2011-08-16T13:16:02Z</time>
      </trkpt>
      <trkpt lat="44.64753" lon="6.61655">
        <ele>1138.864136</ele>
        <time>2011-08-16T13:16:37Z</time>
      </trkpt>
      <trkpt lat="44.6477" lon="6.61638">
        <ele>1137.612183</ele>
        <time>2011-08-16T13:16:43Z</time>
      </trkpt>
      <trkpt lat="44.64792" lon="6.61632">
        <ele>1132.726563</ele>
        <time>2011-08-16T13:16:47Z</time>
      </trkpt>
      <trkpt lat="44.64813" lon="6.6162">
        <ele>1129.404541</ele>
        <time>2011-08-16T13:16:52Z</time>
      </trkpt>
      <trkpt lat="44.6483" lon="6.61602">
        <ele>1131.104004</ele>
        <time>2011-08-16T13:16:56Z</time>
      </trkpt>
      <trkpt lat="44.64848" lon="6.61583">
        <ele>1132.216064</ele>
        <time>2011-08-16T13:17:00Z</time>
      </trkpt>
      <trkpt lat="44.64882" lon="6.6155">
        <ele>1137.57959</ele>
        <time>2011-08-16T13:17:08Z</time>
      </trkpt>
      <trkpt lat="44.64907" lon="6.61523">
        <ele>1145.013184</ele>
        <time>2011-08-16T13:17:14Z</time>
      </trkpt>
      <trkpt lat="44.64925" lon="6.61513">
        <ele>1144.372192</ele>
        <time>2011-08-16T13:17:18Z</time>
      </trkpt>
      <trkpt lat="44.64937" lon="6.61503">
        <ele>1145.343262</ele>
        <time>2011-08-16T13:17:20Z</time>
      </trkpt>
      <trkpt lat="44.64953" lon="6.61495">
        <ele>1142.580322</ele>
        <time>2011-08-16T13:17:24Z</time>
      </trkpt>
      <trkpt lat="44.6497" lon="6.61487">
        <ele>1141.417725</ele>
        <time>2011-08-16T13:17:29Z</time>
      </trkpt>
      <trkpt lat="44.64983" lon="6.61475">
        <ele>1143.228638</ele>
        <time>2011-08-16T13:17:33Z</time>
      </trkpt>
      <trkpt lat="44.65003" lon="6.61462">
        <ele>1141.112915</ele>
        <time>2011-08-16T13:17:39Z</time>
      </trkpt>
      <trkpt lat="44.6502" lon="6.61452">
        <ele>1138.366577</ele>
        <time>2011-08-16T13:17:46Z</time>
      </trkpt>
      <trkpt lat="44.65032" lon="6.61435">
        <ele>1139.474121</ele>
        <time>2011-08-16T13:17:51Z</time>
      </trkpt>
      <trkpt lat="44.6504" lon="6.61415">
        <ele>1142.628784</ele>
        <time>2011-08-16T13:17:57Z</time>
      </trkpt>
      <trkpt lat="44.65048" lon="6.61395">
        <ele>1144.778809</ele>
        <time>2011-08-16T13:18:03Z</time>
      </trkpt>
      <trkpt lat="44.65058" lon="6.61377">
        <ele>1145.497314</ele>
        <time>2011-08-16T13:18:09Z</time>
      </trkpt>
      <trkpt lat="44.6507" lon="6.61362">
        <ele>1144.605103</ele>
        <time>2011-08-16T13:18:14Z</time>
      </trkpt>
      <trkpt lat="44.65088" lon="6.61338">
        <ele>1141.5979</ele>
        <time>2011-08-16T13:18:20Z</time>
      </trkpt>
      <trkpt lat="44.6511" lon="6.61308">
        <ele>1138.635132</ele>
        <time>2011-08-16T13:18:26Z</time>
      </trkpt>
      <trkpt lat="44.65122" lon="6.61292">
        <ele>1137.487183</ele>
        <time>2011-08-16T13:18:30Z</time>
      </trkpt>
      <trkpt lat="44.65138" lon="6.6127">
        <ele>1134.789307</ele>
        <time>2011-08-16T13:18:36Z</time>
      </trkpt>
      <trkpt lat="44.65162" lon="6.61242">
        <ele>1131.832153</ele>
        <time>2011-08-16T13:18:44Z</time>
      </trkpt>
      <trkpt lat="44.65175" lon="6.61223">
        <ele>1129.764404</ele>
        <time>2011-08-16T13:18:48Z</time>
      </trkpt>
      <trkpt lat="44.65185" lon="6.61203">
        <ele>1128.914673</ele>
        <time>2011-08-16T13:18:52Z</time>
      </trkpt>
      <trkpt lat="44.65192" lon="6.61182">
        <ele>1129.439209</ele>
        <time>2011-08-16T13:18:56Z</time>
      </trkpt>
      <trkpt lat="44.65198" lon="6.61162">
        <ele>1129.118286</ele>
        <time>2011-08-16T13:19:00Z</time>
      </trkpt>
      <trkpt lat="44.65207" lon="6.61132">
        <ele>1129.043213</ele>
        <time>2011-08-16T13:19:07Z</time>
      </trkpt>
      <trkpt lat="44.65212" lon="6.61112">
        <ele>1129.298096</ele>
        <time>2011-08-16T13:19:11Z</time>
      </trkpt>
      <trkpt lat="44.65218" lon="6.61087">
        <ele>1129.650757</ele>
        <time>2011-08-16T13:19:17Z</time>
      </trkpt>
      <trkpt lat="44.65222" lon="6.61062">
        <ele>1130.727295</ele>
        <time>2011-08-16T13:19:23Z</time>
      </trkpt>
      <trkpt lat="44.65223" lon="6.6104">
        <ele>1131.487915</ele>
        <time>2011-08-16T13:19:29Z</time>
      </trkpt>
      <trkpt lat="44.65223" lon="6.6102">
        <ele>1132.294434</ele>
        <time>2011-08-16T13:19:36Z</time>
      </trkpt>
      <trkpt lat="44.65223" lon="6.60993">
        <ele>1133.369873</ele>
        <time>2011-08-16T13:19:42Z</time>
      </trkpt>
      <trkpt lat="44.65225" lon="6.6097">
        <ele>1133.614136</ele>
        <time>2011-08-16T13:19:46Z</time>
      </trkpt>
      <trkpt lat="44.65232" lon="6.60947">
        <ele>1132.713013</ele>
        <time>2011-08-16T13:19:52Z</time>
      </trkpt>
      <trkpt lat="44.65237" lon="6.60918">
        <ele>1132.337158</ele>
        <time>2011-08-16T13:19:59Z</time>
      </trkpt>
      <trkpt lat="44.65242" lon="6.60883">
        <ele>1132.150879</ele>
        <time>2011-08-16T13:20:05Z</time>
      </trkpt>
      <trkpt lat="44.65242" lon="6.60858">
        <ele>1132.941528</ele>
        <time>2011-08-16T13:20:09Z</time>
      </trkpt>
      <trkpt lat="44.65247" lon="6.6084">
        <ele>1132.487305</ele>
        <time>2011-08-16T13:20:11Z</time>
      </trkpt>
      <trkpt lat="44.65258" lon="6.60817">
        <ele>1130.878906</ele>
        <time>2011-08-16T13:20:16Z</time>
      </trkpt>
      <trkpt lat="44.65273" lon="6.60797">
        <ele>1128.746216</ele>
        <time>2011-08-16T13:20:20Z</time>
      </trkpt>
      <trkpt lat="44.65278" lon="6.60768">
        <ele>1128.600464</ele>
        <time>2011-08-16T13:20:24Z</time>
      </trkpt>
      <trkpt lat="44.65288" lon="6.60728">
        <ele>1128.016479</ele>
        <time>2011-08-16T13:20:30Z</time>
      </trkpt>
      <trkpt lat="44.65285" lon="6.60698">
        <ele>1130.429565</ele>
        <time>2011-08-16T13:20:34Z</time>
      </trkpt>
      <trkpt lat="44.65288" lon="6.6067">
        <ele>1132.057617</ele>
        <time>2011-08-16T13:20:38Z</time>
      </trkpt>
      <trkpt lat="44.65288" lon="6.60647">
        <ele>1135.102783</ele>
        <time>2011-08-16T13:20:42Z</time>
      </trkpt>
      <trkpt lat="44.6529" lon="6.60622">
        <ele>1138.028809</ele>
        <time>2011-08-16T13:20:46Z</time>
      </trkpt>
      <trkpt lat="44.65298" lon="6.60642">
        <ele>1133.76416</ele>
        <time>2011-08-16T13:20:59Z</time>
      </trkpt>
      <trkpt lat="44.65295" lon="6.60663">
        <ele>1131.551758</ele>
        <time>2011-08-16T13:21:03Z</time>
      </trkpt>
      <trkpt lat="44.65295" lon="6.60687">
        <ele>1128.900635</ele>
        <time>2011-08-16T13:21:07Z</time>
      </trkpt>
      <trkpt lat="44.653" lon="6.60715">
        <ele>1126.116699</ele>
        <time>2011-08-16T13:21:11Z</time>
      </trkpt>
      <trkpt lat="44.65307" lon="6.60745">
        <ele>1122.319092</ele>
        <time>2011-08-16T13:21:15Z</time>
      </trkpt>
      <trkpt lat="44.65303" lon="6.6077">
        <ele>1122.542847</ele>
        <time>2011-08-16T13:21:19Z</time>
      </trkpt>
      <trkpt lat="44.65297" lon="6.60792">
        <ele>1124.100708</ele>
        <time>2011-08-16T13:21:21Z</time>
      </trkpt>
      <trkpt lat="44.65292" lon="6.60823">
        <ele>1123.408203</ele>
        <time>2011-08-16T13:21:25Z</time>
      </trkpt>
      <trkpt lat="44.65282" lon="6.60852">
        <ele>1123.414185</ele>
        <time>2011-08-16T13:21:29Z</time>
      </trkpt>
      <trkpt lat="44.65273" lon="6.60878">
        <ele>1123.962402</ele>
        <time>2011-08-16T13:21:33Z</time>
      </trkpt>
      <trkpt lat="44.65285" lon="6.60912">
        <ele>1119.510132</ele>
        <time>2011-08-16T13:21:37Z</time>
      </trkpt>
      <trkpt lat="44.65303" lon="6.60953">
        <ele>1111.447998</ele>
        <time>2011-08-16T13:21:44Z</time>
      </trkpt>
      <trkpt lat="44.65305" lon="6.60985">
        <ele>1109.018188</ele>
        <time>2011-08-16T13:21:48Z</time>
      </trkpt>
      <trkpt lat="44.6529" lon="6.61012">
        <ele>1113.065674</ele>
        <time>2011-08-16T13:21:52Z</time>
      </trkpt>
      <trkpt lat="44.65283" lon="6.61033">
        <ele>1113.781616</ele>
        <time>2011-08-16T13:21:56Z</time>
      </trkpt>
      <trkpt lat="44.65288" lon="6.61062">
        <ele>1109.73584</ele>
        <time>2011-08-16T13:22:00Z</time>
      </trkpt>
      <trkpt lat="44.65295" lon="6.61087">
        <ele>1105.056519</ele>
        <time>2011-08-16T13:22:04Z</time>
      </trkpt>
      <trkpt lat="44.65288" lon="6.6111">
        <ele>1105.956909</ele>
        <time>2011-08-16T13:22:06Z</time>
      </trkpt>
      <trkpt lat="44.65285" lon="6.61137">
        <ele>1105.198242</ele>
        <time>2011-08-16T13:22:10Z</time>
      </trkpt>
      <trkpt lat="44.65287" lon="6.61163">
        <ele>1102.494995</ele>
        <time>2011-08-16T13:22:15Z</time>
      </trkpt>
      <trkpt lat="44.653" lon="6.61142">
        <ele>1098.984863</ele>
        <time>2011-08-16T13:22:21Z</time>
      </trkpt>
      <trkpt lat="44.65308" lon="6.61118">
        <ele>1097.376587</ele>
        <time>2011-08-16T13:22:25Z</time>
      </trkpt>
      <trkpt lat="44.65322" lon="6.61082">
        <ele>1094.498169</ele>
        <time>2011-08-16T13:22:31Z</time>
      </trkpt>
      <trkpt lat="44.65322" lon="6.61048">
        <ele>1097.056763</ele>
        <time>2011-08-16T13:22:35Z</time>
      </trkpt>
      <trkpt lat="44.65335" lon="6.61033">
        <ele>1092.847534</ele>
        <time>2011-08-16T13:22:39Z</time>
      </trkpt>
      <trkpt lat="44.65352" lon="6.61022">
        <ele>1086.459229</ele>
        <time>2011-08-16T13:22:43Z</time>
      </trkpt>
      <trkpt lat="44.65357" lon="6.60997">
        <ele>1086.971436</ele>
        <time>2011-08-16T13:22:47Z</time>
      </trkpt>
      <trkpt lat="44.65365" lon="6.60968">
        <ele>1086.240845</ele>
        <time>2011-08-16T13:22:52Z</time>
      </trkpt>
      <trkpt lat="44.65377" lon="6.60922">
        <ele>1084.898682</ele>
        <time>2011-08-16T13:22:58Z</time>
      </trkpt>
      <trkpt lat="44.65378" lon="6.6089">
        <ele>1084.81189</ele>
        <time>2011-08-16T13:23:02Z</time>
      </trkpt>
      <trkpt lat="44.65397" lon="6.60872">
        <ele>1078.694092</ele>
        <time>2011-08-16T13:23:06Z</time>
      </trkpt>
      <trkpt lat="44.65422" lon="6.60867">
        <ele>1070.205811</ele>
        <time>2011-08-16T13:23:10Z</time>
      </trkpt>
      <trkpt lat="44.65438" lon="6.60863">
        <ele>1065.015747</ele>
        <time>2011-08-16T13:23:12Z</time>
      </trkpt>
      <trkpt lat="44.65455" lon="6.60843">
        <ele>1061.901855</ele>
        <time>2011-08-16T13:23:17Z</time>
      </trkpt>
      <trkpt lat="44.6545" lon="6.60868">
        <ele>1060.680908</ele>
        <time>2011-08-16T13:23:27Z</time>
      </trkpt>
      <trkpt lat="44.65437" lon="6.6089">
        <ele>1062.080688</ele>
        <time>2011-08-16T13:23:32Z</time>
      </trkpt>
      <trkpt lat="44.65412" lon="6.6093">
        <ele>1068.090332</ele>
        <time>2011-08-16T13:23:38Z</time>
      </trkpt>
      <trkpt lat="44.65412" lon="6.60965">
        <ele>1064.430176</ele>
        <time>2011-08-16T13:23:42Z</time>
      </trkpt>
      <trkpt lat="44.65415" lon="6.60995">
        <ele>1059.303955</ele>
        <time>2011-08-16T13:23:46Z</time>
      </trkpt>
      <trkpt lat="44.65418" lon="6.61018">
        <ele>1055.108032</ele>
        <time>2011-08-16T13:23:50Z</time>
      </trkpt>
      <trkpt lat="44.65418" lon="6.61042">
        <ele>1052.749756</ele>
        <time>2011-08-16T13:23:56Z</time>
      </trkpt>
      <trkpt lat="44.65412" lon="6.61068">
        <ele>1053.166748</ele>
        <time>2011-08-16T13:24:05Z</time>
      </trkpt>
      <trkpt lat="44.65408" lon="6.61097">
        <ele>1053.414307</ele>
        <time>2011-08-16T13:24:11Z</time>
      </trkpt>
      <trkpt lat="44.65423" lon="6.61082">
        <ele>1047.507324</ele>
        <time>2011-08-16T13:24:21Z</time>
      </trkpt>
      <trkpt lat="44.6543" lon="6.61063">
        <ele>1046.351563</ele>
        <time>2011-08-16T13:24:23Z</time>
      </trkpt>
      <trkpt lat="44.65433" lon="6.61042">
        <ele>1046.876343</ele>
        <time>2011-08-16T13:24:27Z</time>
      </trkpt>
      <trkpt lat="44.65443" lon="6.61007">
        <ele>1045.491699</ele>
        <time>2011-08-16T13:24:37Z</time>
      </trkpt>
      <trkpt lat="44.65455" lon="6.6097">
        <ele>1043.927856</ele>
        <time>2011-08-16T13:24:43Z</time>
      </trkpt>
      <trkpt lat="44.65472" lon="6.6097">
        <ele>1036.90979</ele>
        <time>2011-08-16T13:24:50Z</time>
      </trkpt>
      <trkpt lat="44.65483" lon="6.60988">
        <ele>1032.313843</ele>
        <time>2011-08-16T13:24:54Z</time>
      </trkpt>
      <trkpt lat="44.65473" lon="6.61005">
        <ele>1033.803467</ele>
        <time>2011-08-16T13:24:58Z</time>
      </trkpt>
      <trkpt lat="44.65465" lon="6.61023">
        <ele>1035.737915</ele>
        <time>2011-08-16T13:25:02Z</time>
      </trkpt>
      <trkpt lat="44.65465" lon="6.61047">
        <ele>1034.954834</ele>
        <time>2011-08-16T13:25:08Z</time>
      </trkpt>
      <trkpt lat="44.65477" lon="6.61067">
        <ele>1030.940308</ele>
        <time>2011-08-16T13:25:14Z</time>
      </trkpt>
      <trkpt lat="44.65495" lon="6.61072">
        <ele>1025.534912</ele>
        <time>2011-08-16T13:25:18Z</time>
      </trkpt>
      <trkpt lat="44.65512" lon="6.61073">
        <ele>1020.775391</ele>
        <time>2011-08-16T13:25:20Z</time>
      </trkpt>
      <trkpt lat="44.65533" lon="6.61088">
        <ele>1015.797852</ele>
        <time>2011-08-16T13:25:24Z</time>
      </trkpt>
      <trkpt lat="44.6554" lon="6.61118">
        <ele>1014.058716</ele>
        <time>2011-08-16T13:25:28Z</time>
      </trkpt>
      <trkpt lat="44.65538" lon="6.6115">
        <ele>1013.769653</ele>
        <time>2011-08-16T13:25:33Z</time>
      </trkpt>
      <trkpt lat="44.6554" lon="6.61182">
        <ele>1011.743042</ele>
        <time>2011-08-16T13:25:36Z</time>
      </trkpt>
      <trkpt lat="44.65528" lon="6.61215">
        <ele>1011.415405</ele>
        <time>2011-08-16T13:25:41Z</time>
      </trkpt>
      <trkpt lat="44.6552" lon="6.6123">
        <ele>1011.250854</ele>
        <time>2011-08-16T13:25:43Z</time>
      </trkpt>
      <trkpt lat="44.65502" lon="6.61263">
        <ele>1012.491821</ele>
        <time>2011-08-16T13:25:47Z</time>
      </trkpt>
      <trkpt lat="44.65492" lon="6.61277">
        <ele>1011.528687</ele>
        <time>2011-08-16T13:25:49Z</time>
      </trkpt>
      <trkpt lat="44.6548" lon="6.613">
        <ele>1008.572449</ele>
        <time>2011-08-16T13:25:53Z</time>
      </trkpt>
      <trkpt lat="44.6547" lon="6.6132">
        <ele>1006.476501</ele>
        <time>2011-08-16T13:26:00Z</time>
      </trkpt>
      <trkpt lat="44.65458" lon="6.61338">
        <ele>1004.416138</ele>
        <time>2011-08-16T13:26:04Z</time>
      </trkpt>
      <trkpt lat="44.65442" lon="6.61355">
        <ele>1002.499084</ele>
        <time>2011-08-16T13:26:08Z</time>
      </trkpt>
      <trkpt lat="44.65423" lon="6.61365">
        <ele>1002.034119</ele>
        <time>2011-08-16T13:26:12Z</time>
      </trkpt>
      <trkpt lat="44.65405" lon="6.6137">
        <ele>1003.347412</ele>
        <time>2011-08-16T13:26:16Z</time>
      </trkpt>
      <trkpt lat="44.6539" lon="6.61383">
        <ele>1001.608948</ele>
        <time>2011-08-16T13:26:20Z</time>
      </trkpt>
      <trkpt lat="44.65382" lon="6.6141">
        <ele>997.677551</ele>
        <time>2011-08-16T13:26:24Z</time>
      </trkpt>
      <trkpt lat="44.65382" lon="6.61435">
        <ele>992.059937</ele>
        <time>2011-08-16T13:26:26Z</time>
      </trkpt>
      <trkpt lat="44.6538" lon="6.6147">
        <ele>989.29248</ele>
        <time>2011-08-16T13:26:30Z</time>
      </trkpt>
      <trkpt lat="44.65382" lon="6.61507">
        <ele>987.378845</ele>
        <time>2011-08-16T13:26:34Z</time>
      </trkpt>
      <trkpt lat="44.65385" lon="6.61543">
        <ele>987.31543</ele>
        <time>2011-08-16T13:26:38Z</time>
      </trkpt>
      <trkpt lat="44.65393" lon="6.61562">
        <ele>985.666809</ele>
        <time>2011-08-16T13:26:40Z</time>
      </trkpt>
      <trkpt lat="44.65405" lon="6.61573">
        <ele>983.139771</ele>
        <time>2011-08-16T13:26:43Z</time>
      </trkpt>
      <trkpt lat="44.6543" lon="6.61587">
        <ele>978.089661</ele>
        <time>2011-08-16T13:26:47Z</time>
      </trkpt>
      <trkpt lat="44.65442" lon="6.61597">
        <ele>976.072937</ele>
        <time>2011-08-16T13:26:49Z</time>
      </trkpt>
      <trkpt lat="44.65453" lon="6.61608">
        <ele>974.596375</ele>
        <time>2011-08-16T13:26:51Z</time>
      </trkpt>
      <trkpt lat="44.65465" lon="6.61632">
        <ele>973.754211</ele>
        <time>2011-08-16T13:26:53Z</time>
      </trkpt>
      <trkpt lat="44.65475" lon="6.6166">
        <ele>972.774414</ele>
        <time>2011-08-16T13:26:57Z</time>
      </trkpt>
      <trkpt lat="44.65472" lon="6.6168">
        <ele>973.744507</ele>
        <time>2011-08-16T13:27:09Z</time>
      </trkpt>
      <trkpt lat="44.65482" lon="6.61667">
        <ele>971.773438</ele>
        <time>2011-08-16T13:28:08Z</time>
      </trkpt>
      <trkpt lat="44.6552" lon="6.61637">
        <ele>965.537231</ele>
        <time>2011-08-16T13:28:14Z</time>
      </trkpt>
      <trkpt lat="44.65537" lon="6.61628">
        <ele>963.108459</ele>
        <time>2011-08-16T13:28:16Z</time>
      </trkpt>
      <trkpt lat="44.65595" lon="6.61602">
        <ele>955.23822</ele>
        <time>2011-08-16T13:28:23Z</time>
      </trkpt>
      <trkpt lat="44.65617" lon="6.61608">
        <ele>952.396484</ele>
        <time>2011-08-16T13:28:25Z</time>
      </trkpt>
      <trkpt lat="44.6564" lon="6.61613">
        <ele>948.971069</ele>
        <time>2011-08-16T13:28:27Z</time>
      </trkpt>
      <trkpt lat="44.65667" lon="6.61615">
        <ele>944.810242</ele>
        <time>2011-08-16T13:28:29Z</time>
      </trkpt>
      <trkpt lat="44.65692" lon="6.61612">
        <ele>941.702576</ele>
        <time>2011-08-16T13:28:31Z</time>
      </trkpt>
      <trkpt lat="44.6574" lon="6.61607">
        <ele>935.660339</ele>
        <time>2011-08-16T13:28:35Z</time>
      </trkpt>
      <trkpt lat="44.65763" lon="6.61618">
        <ele>932.551086</ele>
        <time>2011-08-16T13:28:37Z</time>
      </trkpt>
      <trkpt lat="44.65783" lon="6.61633">
        <ele>930.015625</ele>
        <time>2011-08-16T13:28:39Z</time>
      </trkpt>
      <trkpt lat="44.65798" lon="6.61658">
        <ele>927.723328</ele>
        <time>2011-08-16T13:28:41Z</time>
      </trkpt>
      <trkpt lat="44.65808" lon="6.61687">
        <ele>926.284851</ele>
        <time>2011-08-16T13:28:43Z</time>
      </trkpt>
      <trkpt lat="44.6582" lon="6.61713">
        <ele>924.87439</ele>
        <time>2011-08-16T13:28:45Z</time>
      </trkpt>
      <trkpt lat="44.65833" lon="6.61735">
        <ele>923.315735</ele>
        <time>2011-08-16T13:28:47Z</time>
      </trkpt>
      <trkpt lat="44.65852" lon="6.61738">
        <ele>921.400513</ele>
        <time>2011-08-16T13:28:49Z</time>
      </trkpt>
      <trkpt lat="44.65865" lon="6.61733">
        <ele>920.236328</ele>
        <time>2011-08-16T13:28:51Z</time>
      </trkpt>
      <trkpt lat="44.65882" lon="6.61735">
        <ele>918.747498</ele>
        <time>2011-08-16T13:29:03Z</time>
      </trkpt>
      <trkpt lat="44.65893" lon="6.61715">
        <ele>918.166321</ele>
        <time>2011-08-16T13:29:10Z</time>
      </trkpt>
      <trkpt lat="44.65925" lon="6.61665">
        <ele>916.855408</ele>
        <time>2011-08-16T13:29:18Z</time>
      </trkpt>
      <trkpt lat="44.6594" lon="6.6166">
        <ele>915.869141</ele>
        <time>2011-08-16T13:29:20Z</time>
      </trkpt>
      <trkpt lat="44.65965" lon="6.61662">
        <ele>914.199463</ele>
        <time>2011-08-16T13:29:22Z</time>
      </trkpt>
      <trkpt lat="44.66005" lon="6.61668">
        <ele>912.011719</ele>
        <time>2011-08-16T13:29:26Z</time>
      </trkpt>
      <trkpt lat="44.66103" lon="6.61683">
        <ele>907.618896</ele>
        <time>2011-08-16T13:29:37Z</time>
      </trkpt>
      <trkpt lat="44.66123" lon="6.61705">
        <ele>906.539917</ele>
        <time>2011-08-16T13:29:41Z</time>
      </trkpt>
      <trkpt lat="44.66133" lon="6.6172">
        <ele>905.8349</ele>
        <time>2011-08-16T13:29:43Z</time>
      </trkpt>
      <trkpt lat="44.66142" lon="6.61735">
        <ele>905.240906</ele>
        <time>2011-08-16T13:29:45Z</time>
      </trkpt>
      <trkpt lat="44.66178" lon="6.61812">
        <ele>903.522827</ele>
        <time>2011-08-16T13:29:53Z</time>
      </trkpt>
      <trkpt lat="44.66183" lon="6.61845">
        <ele>903.180237</ele>
        <time>2011-08-16T13:29:57Z</time>
      </trkpt>
      <trkpt lat="44.66205" lon="6.61863">
        <ele>901.689392</ele>
        <time>2011-08-16T13:30:02Z</time>
      </trkpt>
      <trkpt lat="44.66215" lon="6.61877">
        <ele>900.988708</ele>
        <time>2011-08-16T13:30:04Z</time>
      </trkpt>
      <trkpt lat="44.66207" lon="6.6191">
        <ele>901.457397</ele>
        <time>2011-08-16T13:30:08Z</time>
      </trkpt>
      <trkpt lat="44.6619" lon="6.61938">
        <ele>902.494141</ele>
        <time>2011-08-16T13:30:12Z</time>
      </trkpt>
      <trkpt lat="44.66172" lon="6.61972">
        <ele>903.229431</ele>
        <time>2011-08-16T13:30:16Z</time>
      </trkpt>
      <trkpt lat="44.66157" lon="6.61993">
        <ele>903.810974</ele>
        <time>2011-08-16T13:30:20Z</time>
      </trkpt>
      <trkpt lat="44.66138" lon="6.62008">
        <ele>904.733398</ele>
        <time>2011-08-16T13:30:24Z</time>
      </trkpt>
      <trkpt lat="44.66112" lon="6.62023">
        <ele>906.200867</ele>
        <time>2011-08-16T13:30:30Z</time>
      </trkpt>
      <trkpt lat="44.66095" lon="6.62027">
        <ele>907.103638</ele>
        <time>2011-08-16T13:30:34Z</time>
      </trkpt>
      <trkpt lat="44.66078" lon="6.62032">
        <ele>907.924866</ele>
        <time>2011-08-16T13:30:38Z</time>
      </trkpt>
      <trkpt lat="44.66067" lon="6.62048">
        <ele>908.474182</ele>
        <time>2011-08-16T13:30:42Z</time>
      </trkpt>
      <trkpt lat="44.66065" lon="6.62077">
        <ele>908.26947</ele>
        <time>2011-08-16T13:30:46Z</time>
      </trkpt>
      <trkpt lat="44.66063" lon="6.6211">
        <ele>907.763733</ele>
        <time>2011-08-16T13:30:50Z</time>
      </trkpt>
      <trkpt lat="44.66057" lon="6.62245">
        <ele>906.580627</ele>
        <time>2011-08-16T13:31:07Z</time>
      </trkpt>
      <trkpt lat="44.66053" lon="6.62273">
        <ele>907.052734</ele>
        <time>2011-08-16T13:31:11Z</time>
      </trkpt>
      <trkpt lat="44.6605" lon="6.623">
        <ele>907.632202</ele>
        <time>2011-08-16T13:31:15Z</time>
      </trkpt>
      <trkpt lat="44.66043" lon="6.62327">
        <ele>908.256897</ele>
        <time>2011-08-16T13:31:19Z</time>
      </trkpt>
      <trkpt lat="44.66037" lon="6.62352">
        <ele>908.636108</ele>
        <time>2011-08-16T13:31:23Z</time>
      </trkpt>
      <trkpt lat="44.66027" lon="6.62375">
        <ele>909.241699</ele>
        <time>2011-08-16T13:31:27Z</time>
      </trkpt>
      <trkpt lat="44.66012" lon="6.6241">
        <ele>910.30304</ele>
        <time>2011-08-16T13:31:33Z</time>
      </trkpt>
      <trkpt lat="44.65987" lon="6.62465">
        <ele>911.791199</ele>
        <time>2011-08-16T13:31:46Z</time>
      </trkpt>
      <trkpt lat="44.65977" lon="6.62482">
        <ele>912.271667</ele>
        <time>2011-08-16T13:31:50Z</time>
      </trkpt>
      <trkpt lat="44.65967" lon="6.62498">
        <ele>912.637451</ele>
        <time>2011-08-16T13:31:56Z</time>
      </trkpt>
      <trkpt lat="44.65958" lon="6.62515">
        <ele>912.592468</ele>
        <time>2011-08-16T13:32:16Z</time>
      </trkpt>
      <trkpt lat="44.65958" lon="6.62545">
        <ele>912.200684</ele>
        <time>2011-08-16T13:32:23Z</time>
      </trkpt>
      <trkpt lat="44.6596" lon="6.62567">
        <ele>912</ele>
        <time>2011-08-16T13:32:27Z</time>
      </trkpt>
      <trkpt lat="44.65963" lon="6.62602">
        <ele>912</ele>
        <time>2011-08-16T13:32:33Z</time>
      </trkpt>
      <trkpt lat="44.65963" lon="6.62625">
        <ele>912</ele>
        <time>2011-08-16T13:32:37Z</time>
      </trkpt>
      <trkpt lat="44.65965" lon="6.6265">
        <ele>912</ele>
        <time>2011-08-16T13:32:41Z</time>
      </trkpt>
      <trkpt lat="44.65977" lon="6.6282">
        <ele>916.238708</ele>
        <time>2011-08-16T13:33:12Z</time>
      </trkpt>
      <trkpt lat="44.6598" lon="6.62872">
        <ele>920.417419</ele>
        <time>2011-08-16T13:33:22Z</time>
      </trkpt>
      <trkpt lat="44.6598" lon="6.62905">
        <ele>922.713074</ele>
        <time>2011-08-16T13:33:30Z</time>
      </trkpt>
      <trkpt lat="44.65985" lon="6.62932">
        <ele>924.763672</ele>
        <time>2011-08-16T13:33:36Z</time>
      </trkpt>
      <trkpt lat="44.65995" lon="6.62958">
        <ele>927.260925</ele>
        <time>2011-08-16T13:33:42Z</time>
      </trkpt>
      <trkpt lat="44.66013" lon="6.62937">
        <ele>926.776611</ele>
        <time>2011-08-16T13:33:48Z</time>
      </trkpt>
      <trkpt lat="44.6602" lon="6.6292">
        <ele>925.825378</ele>
        <time>2011-08-16T13:33:50Z</time>
      </trkpt>
      <trkpt lat="44.66028" lon="6.62903">
        <ele>924.93103</ele>
        <time>2011-08-16T13:33:52Z</time>
      </trkpt>
      <trkpt lat="44.66037" lon="6.62887">
        <ele>924.071655</ele>
        <time>2011-08-16T13:33:55Z</time>
      </trkpt>
      <trkpt lat="44.66048" lon="6.62872">
        <ele>923.456909</ele>
        <time>2011-08-16T13:33:57Z</time>
      </trkpt>
      <trkpt lat="44.66062" lon="6.62858">
        <ele>922.94165</ele>
        <time>2011-08-16T13:33:59Z</time>
      </trkpt>
      <trkpt lat="44.66075" lon="6.6284">
        <ele>921.868286</ele>
        <time>2011-08-16T13:34:03Z</time>
      </trkpt>
      <trkpt lat="44.66057" lon="6.62837">
        <ele>920.69989</ele>
        <time>2011-08-16T13:34:07Z</time>
      </trkpt>
      <trkpt lat="44.66043" lon="6.62842">
        <ele>920.555847</ele>
        <time>2011-08-16T13:34:11Z</time>
      </trkpt>
    </trkseg>
  </trk>
</gpx>